<gpx version="1.1" creator="Apple Watch" xsi:schemaLocation="http://www.topografix.com/GPX/1/1 http://www.topografix.com/GPX/1/1/gpx.xsd http://www.garmin.com/xmlschemas/GpxExtensions/v3 http://www.garmin.com/xmlschemas/GpxExtensionsv3.xsd http://www.garmin.com/xmlschemas/TrackPointExtension/v1 http://www.garmin.com/xmlschemas/TrackPointExtensionv1.xsd" xmlns="http://www.topografix.com/GPX/1/1" xmlns:gpxtpx="http://www.garmin.com/xmlschemas/TrackPointExtension/v1" xmlns:gpxx="http://www.garmin.com/xmlschemas/GpxExtensions/v3" xmlns:xsi="http://www.w3.org/2001/XMLSchema-instance"><metadata><name>Bike @將軍澳</name></metadata>
<trk><name>Bike @將軍澳</name><type>cycling</type>
<trkseg>
<trkpt lat="22.3063850" lon="114.2644486">
<ele>1</ele><time>2025-01-30T08:16:12.355Z</time></trkpt>
<trkpt lat="22.3063859" lon="114.2644998">
<ele>1</ele><time>2025-01-30T08:16:19.000Z</time></trkpt>
<trkpt lat="22.3063875" lon="114.2645526">
<ele>1</ele><time>2025-01-30T08:16:21.000Z</time></trkpt>
<trkpt lat="22.3063887" lon="114.2646183">
<ele>1</ele><time>2025-01-30T08:16:23.000Z</time></trkpt>
<trkpt lat="22.3063882" lon="114.2646800">
<ele>1</ele><time>2025-01-30T08:16:26.000Z</time></trkpt>
<trkpt lat="22.3064049" lon="114.2647452">
<ele>1</ele><time>2025-01-30T08:16:30.000Z</time></trkpt>
<trkpt lat="22.3064147" lon="114.2647931">
<ele>1</ele><time>2025-01-30T08:16:32.000Z</time></trkpt>
<trkpt lat="22.3064169" lon="114.2648555">
<ele>1</ele><time>2025-01-30T08:16:34.000Z</time></trkpt>
<trkpt lat="22.3063718" lon="114.2648856">
<ele>1</ele><time>2025-01-30T08:16:36.000Z</time></trkpt>
<trkpt lat="22.3063278" lon="114.2649043">
<ele>1</ele><time>2025-01-30T08:16:38.000Z</time></trkpt>
<trkpt lat="22.3062815" lon="114.2649340">
<ele>1</ele><time>2025-01-30T08:16:40.000Z</time></trkpt>
<trkpt lat="22.3062353" lon="114.2649583">
<ele>1</ele><time>2025-01-30T08:16:42.000Z</time></trkpt>
<trkpt lat="22.3061906" lon="114.2649650">
<ele>1</ele><time>2025-01-30T08:16:44.000Z</time></trkpt>
<trkpt lat="22.3061414" lon="114.2649892">
<ele>1</ele><time>2025-01-30T08:16:45.000Z</time></trkpt>
<trkpt lat="22.3060939" lon="114.2650039">
<ele>1</ele><time>2025-01-30T08:16:47.000Z</time></trkpt>
<trkpt lat="22.3060376" lon="114.2650081">
<ele>1</ele><time>2025-01-30T08:16:49.000Z</time></trkpt>
<trkpt lat="22.3059903" lon="114.2650334">
<ele>1</ele><time>2025-01-30T08:16:51.000Z</time></trkpt>
<trkpt lat="22.3059420" lon="114.2650452">
<ele>1</ele><time>2025-01-30T08:16:53.000Z</time></trkpt>
<trkpt lat="22.3058870" lon="114.2650791">
<ele>1</ele><time>2025-01-30T08:16:56.000Z</time></trkpt>
<trkpt lat="22.3058361" lon="114.2650983">
<ele>2</ele><time>2025-01-30T08:16:59.000Z</time></trkpt>
<trkpt lat="22.3057919" lon="114.2651081">
<ele>2</ele><time>2025-01-30T08:17:02.000Z</time></trkpt>
<trkpt lat="22.3057438" lon="114.2651206">
<ele>2</ele><time>2025-01-30T08:17:05.000Z</time></trkpt>
<trkpt lat="22.3056957" lon="114.2651309">
<ele>2</ele><time>2025-01-30T08:17:08.000Z</time></trkpt>
<trkpt lat="22.3056449" lon="114.2651414">
<ele>3</ele><time>2025-01-30T08:17:12.000Z</time></trkpt>
<trkpt lat="22.3055900" lon="114.2651525">
<ele>3</ele><time>2025-01-30T08:17:17.000Z</time></trkpt>
<trkpt lat="22.3055668" lon="114.2650576">
<ele>3</ele><time>2025-01-30T08:17:18.000Z</time></trkpt>
<trkpt lat="22.3055171" lon="114.2650421">
<ele>4</ele><time>2025-01-30T08:17:23.000Z</time></trkpt>
<trkpt lat="22.3054698" lon="114.2650549">
<ele>4</ele><time>2025-01-30T08:17:26.000Z</time></trkpt>
<trkpt lat="22.3053972" lon="114.2650739">
<ele>4</ele><time>2025-01-30T08:17:29.000Z</time></trkpt>
<trkpt lat="22.3053309" lon="114.2650742">
<ele>4</ele><time>2025-01-30T08:17:31.000Z</time></trkpt>
<trkpt lat="22.3052699" lon="114.2650883">
<ele>5</ele><time>2025-01-30T08:17:34.000Z</time></trkpt>
<trkpt lat="22.3052146" lon="114.2651147">
<ele>5</ele><time>2025-01-30T08:17:37.000Z</time></trkpt>
<trkpt lat="22.3051787" lon="114.2651673">
<ele>5</ele><time>2025-01-30T08:17:40.000Z</time></trkpt>
<trkpt lat="22.3051472" lon="114.2652175">
<ele>6</ele><time>2025-01-30T08:17:42.000Z</time></trkpt>
<trkpt lat="22.3051282" lon="114.2652686">
<ele>6</ele><time>2025-01-30T08:17:44.000Z</time></trkpt>
<trkpt lat="22.3051110" lon="114.2653316">
<ele>6</ele><time>2025-01-30T08:17:47.000Z</time></trkpt>
<trkpt lat="22.3050737" lon="114.2653707">
<ele>6</ele><time>2025-01-30T08:18:18.000Z</time><extensions><gpxtpx:TrackPointExtension><gpxtpx:hr>107</gpxtpx:hr></gpxtpx:TrackPointExtension></extensions></trkpt>
<trkpt lat="22.3050475" lon="114.2654151">
<ele>6</ele><time>2025-01-30T08:18:20.000Z</time><extensions><gpxtpx:TrackPointExtension><gpxtpx:hr>107</gpxtpx:hr></gpxtpx:TrackPointExtension></extensions></trkpt>
<trkpt lat="22.3050202" lon="114.2654570">
<ele>6</ele><time>2025-01-30T08:18:22.000Z</time><extensions><gpxtpx:TrackPointExtension><gpxtpx:hr>107</gpxtpx:hr></gpxtpx:TrackPointExtension></extensions></trkpt>
<trkpt lat="22.3050015" lon="114.2655124">
<ele>6</ele><time>2025-01-30T08:18:25.000Z</time><extensions><gpxtpx:TrackPointExtension><gpxtpx:hr>107</gpxtpx:hr></gpxtpx:TrackPointExtension></extensions></trkpt>
<trkpt lat="22.3049850" lon="114.2655661">
<ele>6</ele><time>2025-01-30T08:18:31.000Z</time><extensions><gpxtpx:TrackPointExtension><gpxtpx:hr>107</gpxtpx:hr></gpxtpx:TrackPointExtension></extensions></trkpt>
<trkpt lat="22.3049554" lon="114.2656194">
<ele>7</ele><time>2025-01-30T08:18:35.000Z</time><extensions><gpxtpx:TrackPointExtension><gpxtpx:hr>107</gpxtpx:hr></gpxtpx:TrackPointExtension></extensions></trkpt>
<trkpt lat="22.3049236" lon="114.2656759">
<ele>7</ele><time>2025-01-30T08:18:38.000Z</time><extensions><gpxtpx:TrackPointExtension><gpxtpx:hr>107</gpxtpx:hr></gpxtpx:TrackPointExtension></extensions></trkpt>
<trkpt lat="22.3049002" lon="114.2657295">
<ele>8</ele><time>2025-01-30T08:18:41.000Z</time><extensions><gpxtpx:TrackPointExtension><gpxtpx:hr>107</gpxtpx:hr></gpxtpx:TrackPointExtension></extensions></trkpt>
<trkpt lat="22.3048801" lon="114.2657767">
<ele>8</ele><time>2025-01-30T08:18:44.000Z</time><extensions><gpxtpx:TrackPointExtension><gpxtpx:hr>107</gpxtpx:hr></gpxtpx:TrackPointExtension></extensions></trkpt>
<trkpt lat="22.3048586" lon="114.2658196">
<ele>8</ele><time>2025-01-30T08:18:48.000Z</time><extensions><gpxtpx:TrackPointExtension><gpxtpx:hr>107</gpxtpx:hr></gpxtpx:TrackPointExtension></extensions></trkpt>
<trkpt lat="22.3048282" lon="114.2658741">
<ele>8</ele><time>2025-01-30T08:18:54.000Z</time><extensions><gpxtpx:TrackPointExtension><gpxtpx:hr>107</gpxtpx:hr></gpxtpx:TrackPointExtension></extensions></trkpt>
<trkpt lat="22.3048032" lon="114.2659281">
<ele>8</ele><time>2025-01-30T08:18:57.000Z</time><extensions><gpxtpx:TrackPointExtension><gpxtpx:hr>107</gpxtpx:hr></gpxtpx:TrackPointExtension></extensions></trkpt>
<trkpt lat="22.3047806" lon="114.2659786">
<ele>8</ele><time>2025-01-30T08:19:00.000Z</time><extensions><gpxtpx:TrackPointExtension><gpxtpx:hr>107</gpxtpx:hr></gpxtpx:TrackPointExtension></extensions></trkpt>
<trkpt lat="22.3047634" lon="114.2660280">
<ele>8</ele><time>2025-01-30T08:20:18.000Z</time><extensions><gpxtpx:TrackPointExtension><gpxtpx:hr>105</gpxtpx:hr></gpxtpx:TrackPointExtension></extensions></trkpt>
<trkpt lat="22.3047262" lon="114.2660857">
<ele>7</ele><time>2025-01-30T08:20:22.000Z</time><extensions><gpxtpx:TrackPointExtension><gpxtpx:hr>105</gpxtpx:hr></gpxtpx:TrackPointExtension></extensions></trkpt>
<trkpt lat="22.3046940" lon="114.2661547">
<ele>7</ele><time>2025-01-30T08:20:24.000Z</time><extensions><gpxtpx:TrackPointExtension><gpxtpx:hr>105</gpxtpx:hr></gpxtpx:TrackPointExtension></extensions></trkpt>
<trkpt lat="22.3046476" lon="114.2662310">
<ele>7</ele><time>2025-01-30T08:20:26.000Z</time><extensions><gpxtpx:TrackPointExtension><gpxtpx:hr>105</gpxtpx:hr></gpxtpx:TrackPointExtension></extensions></trkpt>
<trkpt lat="22.3046142" lon="114.2662986">
<ele>6</ele><time>2025-01-30T08:20:28.000Z</time><extensions><gpxtpx:TrackPointExtension><gpxtpx:hr>105</gpxtpx:hr></gpxtpx:TrackPointExtension></extensions></trkpt>
<trkpt lat="22.3045850" lon="114.2663565">
<ele>6</ele><time>2025-01-30T08:20:30.000Z</time><extensions><gpxtpx:TrackPointExtension><gpxtpx:hr>105</gpxtpx:hr></gpxtpx:TrackPointExtension></extensions></trkpt>
<trkpt lat="22.3045276" lon="114.2663963">
<ele>6</ele><time>2025-01-30T08:20:32.000Z</time><extensions><gpxtpx:TrackPointExtension><gpxtpx:hr>105</gpxtpx:hr></gpxtpx:TrackPointExtension></extensions></trkpt>
<trkpt lat="22.3044783" lon="114.2663983">
<ele>6</ele><time>2025-01-30T08:20:33.000Z</time><extensions><gpxtpx:TrackPointExtension><gpxtpx:hr>105</gpxtpx:hr></gpxtpx:TrackPointExtension></extensions></trkpt>
<trkpt lat="22.3044357" lon="114.2663792">
<ele>6</ele><time>2025-01-30T08:20:34.000Z</time><extensions><gpxtpx:TrackPointExtension><gpxtpx:hr>105</gpxtpx:hr></gpxtpx:TrackPointExtension></extensions></trkpt>
<trkpt lat="22.3043689" lon="114.2663272">
<ele>6</ele><time>2025-01-30T08:20:36.000Z</time><extensions><gpxtpx:TrackPointExtension><gpxtpx:hr>105</gpxtpx:hr></gpxtpx:TrackPointExtension></extensions></trkpt>
<trkpt lat="22.3042995" lon="114.2662906">
<ele>6</ele><time>2025-01-30T08:20:38.000Z</time><extensions><gpxtpx:TrackPointExtension><gpxtpx:hr>105</gpxtpx:hr></gpxtpx:TrackPointExtension></extensions></trkpt>
<trkpt lat="22.3042228" lon="114.2662393">
<ele>5</ele><time>2025-01-30T08:20:40.000Z</time><extensions><gpxtpx:TrackPointExtension><gpxtpx:hr>105</gpxtpx:hr></gpxtpx:TrackPointExtension></extensions></trkpt>
<trkpt lat="22.3041814" lon="114.2662124">
<ele>5</ele><time>2025-01-30T08:20:41.000Z</time><extensions><gpxtpx:TrackPointExtension><gpxtpx:hr>105</gpxtpx:hr></gpxtpx:TrackPointExtension></extensions></trkpt>
<trkpt lat="22.3041356" lon="114.2661869">
<ele>5</ele><time>2025-01-30T08:20:42.000Z</time><extensions><gpxtpx:TrackPointExtension><gpxtpx:hr>105</gpxtpx:hr></gpxtpx:TrackPointExtension></extensions></trkpt>
<trkpt lat="22.3040882" lon="114.2661641">
<ele>4</ele><time>2025-01-30T08:20:43.000Z</time><extensions><gpxtpx:TrackPointExtension><gpxtpx:hr>105</gpxtpx:hr></gpxtpx:TrackPointExtension></extensions></trkpt>
<trkpt lat="22.3040426" lon="114.2661423">
<ele>4</ele><time>2025-01-30T08:20:44.000Z</time><extensions><gpxtpx:TrackPointExtension><gpxtpx:hr>105</gpxtpx:hr></gpxtpx:TrackPointExtension></extensions></trkpt>
<trkpt lat="22.3039710" lon="114.2661043">
<ele>4</ele><time>2025-01-30T08:20:45.999Z</time><extensions><gpxtpx:TrackPointExtension><gpxtpx:hr>105</gpxtpx:hr></gpxtpx:TrackPointExtension></extensions></trkpt>
<trkpt lat="22.3038927" lon="114.2660587">
<ele>3</ele><time>2025-01-30T08:20:47.999Z</time><extensions><gpxtpx:TrackPointExtension><gpxtpx:hr>105</gpxtpx:hr></gpxtpx:TrackPointExtension></extensions></trkpt>
<trkpt lat="22.3038506" lon="114.2660320">
<ele>3</ele><time>2025-01-30T08:20:48.999Z</time><extensions><gpxtpx:TrackPointExtension><gpxtpx:hr>105</gpxtpx:hr></gpxtpx:TrackPointExtension></extensions></trkpt>
<trkpt lat="22.3038056" lon="114.2660052">
<ele>3</ele><time>2025-01-30T08:20:49.999Z</time><extensions><gpxtpx:TrackPointExtension><gpxtpx:hr>105</gpxtpx:hr></gpxtpx:TrackPointExtension></extensions></trkpt>
<trkpt lat="22.3037569" lon="114.2659822">
<ele>3</ele><time>2025-01-30T08:20:50.999Z</time><extensions><gpxtpx:TrackPointExtension><gpxtpx:hr>105</gpxtpx:hr></gpxtpx:TrackPointExtension></extensions></trkpt>
<trkpt lat="22.3037127" lon="114.2659603">
<ele>3</ele><time>2025-01-30T08:20:51.999Z</time><extensions><gpxtpx:TrackPointExtension><gpxtpx:hr>105</gpxtpx:hr></gpxtpx:TrackPointExtension></extensions></trkpt>
<trkpt lat="22.3036717" lon="114.2659370">
<ele>2</ele><time>2025-01-30T08:20:52.999Z</time><extensions><gpxtpx:TrackPointExtension><gpxtpx:hr>105</gpxtpx:hr></gpxtpx:TrackPointExtension></extensions></trkpt>
<trkpt lat="22.3036305" lon="114.2659098">
<ele>2</ele><time>2025-01-30T08:20:53.999Z</time><extensions><gpxtpx:TrackPointExtension><gpxtpx:hr>105</gpxtpx:hr></gpxtpx:TrackPointExtension></extensions></trkpt>
<trkpt lat="22.3035882" lon="114.2658755">
<ele>2</ele><time>2025-01-30T08:20:54.999Z</time><extensions><gpxtpx:TrackPointExtension><gpxtpx:hr>105</gpxtpx:hr></gpxtpx:TrackPointExtension></extensions></trkpt>
<trkpt lat="22.3035491" lon="114.2658324">
<ele>1</ele><time>2025-01-30T08:20:55.999Z</time><extensions><gpxtpx:TrackPointExtension><gpxtpx:hr>105</gpxtpx:hr></gpxtpx:TrackPointExtension></extensions></trkpt>
<trkpt lat="22.3035043" lon="114.2658025">
<ele>1</ele><time>2025-01-30T08:20:56.999Z</time><extensions><gpxtpx:TrackPointExtension><gpxtpx:hr>105</gpxtpx:hr></gpxtpx:TrackPointExtension></extensions></trkpt>
<trkpt lat="22.3034475" lon="114.2657905">
<ele>1</ele><time>2025-01-30T08:20:57.999Z</time><extensions><gpxtpx:TrackPointExtension><gpxtpx:hr>105</gpxtpx:hr></gpxtpx:TrackPointExtension></extensions></trkpt>
<trkpt lat="22.3033947" lon="114.2657733">
<ele>1</ele><time>2025-01-30T08:20:58.999Z</time><extensions><gpxtpx:TrackPointExtension><gpxtpx:hr>105</gpxtpx:hr></gpxtpx:TrackPointExtension></extensions></trkpt>
<trkpt lat="22.3033452" lon="114.2657496">
<ele>1</ele><time>2025-01-30T08:20:59.999Z</time><extensions><gpxtpx:TrackPointExtension><gpxtpx:hr>105</gpxtpx:hr></gpxtpx:TrackPointExtension></extensions></trkpt>
<trkpt lat="22.3032989" lon="114.2657253">
<ele>1</ele><time>2025-01-30T08:21:00.999Z</time><extensions><gpxtpx:TrackPointExtension><gpxtpx:hr>105</gpxtpx:hr></gpxtpx:TrackPointExtension></extensions></trkpt>
<trkpt lat="22.3032561" lon="114.2657018">
<ele>1</ele><time>2025-01-30T08:21:01.999Z</time><extensions><gpxtpx:TrackPointExtension><gpxtpx:hr>105</gpxtpx:hr></gpxtpx:TrackPointExtension></extensions></trkpt>
<trkpt lat="22.3032136" lon="114.2656793">
<ele>1</ele><time>2025-01-30T08:21:02.999Z</time><extensions><gpxtpx:TrackPointExtension><gpxtpx:hr>105</gpxtpx:hr></gpxtpx:TrackPointExtension></extensions></trkpt>
<trkpt lat="22.3031374" lon="114.2656324">
<ele>1</ele><time>2025-01-30T08:21:04.999Z</time><extensions><gpxtpx:TrackPointExtension><gpxtpx:hr>105</gpxtpx:hr></gpxtpx:TrackPointExtension></extensions></trkpt>
<trkpt lat="22.3030625" lon="114.2655946">
<ele>1</ele><time>2025-01-30T08:21:06.999Z</time><extensions><gpxtpx:TrackPointExtension><gpxtpx:hr>105</gpxtpx:hr></gpxtpx:TrackPointExtension></extensions></trkpt>
<trkpt lat="22.3029946" lon="114.2655621">
<ele>1</ele><time>2025-01-30T08:21:08.999Z</time><extensions><gpxtpx:TrackPointExtension><gpxtpx:hr>105</gpxtpx:hr></gpxtpx:TrackPointExtension></extensions></trkpt>
<trkpt lat="22.3029383" lon="114.2655222">
<ele>1</ele><time>2025-01-30T08:21:10.999Z</time><extensions><gpxtpx:TrackPointExtension><gpxtpx:hr>105</gpxtpx:hr></gpxtpx:TrackPointExtension></extensions></trkpt>
<trkpt lat="22.3028779" lon="114.2654900">
<ele>1</ele><time>2025-01-30T08:21:12.999Z</time><extensions><gpxtpx:TrackPointExtension><gpxtpx:hr>105</gpxtpx:hr></gpxtpx:TrackPointExtension></extensions></trkpt>
<trkpt lat="22.3028164" lon="114.2654566">
<ele>1</ele><time>2025-01-30T08:21:14.999Z</time><extensions><gpxtpx:TrackPointExtension><gpxtpx:hr>105</gpxtpx:hr></gpxtpx:TrackPointExtension></extensions></trkpt>
<trkpt lat="22.3027470" lon="114.2654249">
<ele>1</ele><time>2025-01-30T08:21:16.999Z</time><extensions><gpxtpx:TrackPointExtension><gpxtpx:hr>105</gpxtpx:hr></gpxtpx:TrackPointExtension></extensions></trkpt>
<trkpt lat="22.3026850" lon="114.2653878">
<ele>1</ele><time>2025-01-30T08:21:18.999Z</time><extensions><gpxtpx:TrackPointExtension><gpxtpx:hr>105</gpxtpx:hr></gpxtpx:TrackPointExtension></extensions></trkpt>
<trkpt lat="22.3026259" lon="114.2653574">
<ele>1</ele><time>2025-01-30T08:21:20.999Z</time><extensions><gpxtpx:TrackPointExtension><gpxtpx:hr>105</gpxtpx:hr></gpxtpx:TrackPointExtension></extensions></trkpt>
<trkpt lat="22.3025594" lon="114.2653213">
<ele>1</ele><time>2025-01-30T08:21:22.999Z</time><extensions><gpxtpx:TrackPointExtension><gpxtpx:hr>105</gpxtpx:hr></gpxtpx:TrackPointExtension></extensions></trkpt>
<trkpt lat="22.3024885" lon="114.2652764">
<ele>1</ele><time>2025-01-30T08:21:24.999Z</time><extensions><gpxtpx:TrackPointExtension><gpxtpx:hr>105</gpxtpx:hr></gpxtpx:TrackPointExtension></extensions></trkpt>
<trkpt lat="22.3024462" lon="114.2652493">
<ele>1</ele><time>2025-01-30T08:21:25.999Z</time><extensions><gpxtpx:TrackPointExtension><gpxtpx:hr>105</gpxtpx:hr></gpxtpx:TrackPointExtension></extensions></trkpt>
<trkpt lat="22.3023990" lon="114.2652209">
<ele>1</ele><time>2025-01-30T08:21:26.999Z</time><extensions><gpxtpx:TrackPointExtension><gpxtpx:hr>105</gpxtpx:hr></gpxtpx:TrackPointExtension></extensions></trkpt>
<trkpt lat="22.3023487" lon="114.2651916">
<ele>1</ele><time>2025-01-30T08:21:27.999Z</time><extensions><gpxtpx:TrackPointExtension><gpxtpx:hr>105</gpxtpx:hr></gpxtpx:TrackPointExtension></extensions></trkpt>
<trkpt lat="22.3022961" lon="114.2651507">
<ele>1</ele><time>2025-01-30T08:21:28.999Z</time><extensions><gpxtpx:TrackPointExtension><gpxtpx:hr>105</gpxtpx:hr></gpxtpx:TrackPointExtension></extensions></trkpt>
<trkpt lat="22.3022456" lon="114.2651174">
<ele>1</ele><time>2025-01-30T08:21:29.999Z</time><extensions><gpxtpx:TrackPointExtension><gpxtpx:hr>105</gpxtpx:hr></gpxtpx:TrackPointExtension></extensions></trkpt>
<trkpt lat="22.3021914" lon="114.2650939">
<ele>1</ele><time>2025-01-30T08:21:30.999Z</time><extensions><gpxtpx:TrackPointExtension><gpxtpx:hr>105</gpxtpx:hr></gpxtpx:TrackPointExtension></extensions></trkpt>
<trkpt lat="22.3021394" lon="114.2650735">
<ele>1</ele><time>2025-01-30T08:21:31.999Z</time><extensions><gpxtpx:TrackPointExtension><gpxtpx:hr>105</gpxtpx:hr></gpxtpx:TrackPointExtension></extensions></trkpt>
<trkpt lat="22.3020904" lon="114.2650468">
<ele>1</ele><time>2025-01-30T08:21:32.999Z</time><extensions><gpxtpx:TrackPointExtension><gpxtpx:hr>105</gpxtpx:hr></gpxtpx:TrackPointExtension></extensions></trkpt>
<trkpt lat="22.3020433" lon="114.2650187">
<ele>1</ele><time>2025-01-30T08:21:33.999Z</time><extensions><gpxtpx:TrackPointExtension><gpxtpx:hr>105</gpxtpx:hr></gpxtpx:TrackPointExtension></extensions></trkpt>
<trkpt lat="22.3019970" lon="114.2649899">
<ele>1</ele><time>2025-01-30T08:21:34.999Z</time><extensions><gpxtpx:TrackPointExtension><gpxtpx:hr>105</gpxtpx:hr></gpxtpx:TrackPointExtension></extensions></trkpt>
<trkpt lat="22.3019484" lon="114.2649611">
<ele>1</ele><time>2025-01-30T08:21:35.999Z</time><extensions><gpxtpx:TrackPointExtension><gpxtpx:hr>105</gpxtpx:hr></gpxtpx:TrackPointExtension></extensions></trkpt>
<trkpt lat="22.3019000" lon="114.2649319">
<ele>1</ele><time>2025-01-30T08:21:36.999Z</time><extensions><gpxtpx:TrackPointExtension><gpxtpx:hr>105</gpxtpx:hr></gpxtpx:TrackPointExtension></extensions></trkpt>
<trkpt lat="22.3018527" lon="114.2649115">
<ele>1</ele><time>2025-01-30T08:21:37.999Z</time><extensions><gpxtpx:TrackPointExtension><gpxtpx:hr>105</gpxtpx:hr></gpxtpx:TrackPointExtension></extensions></trkpt>
<trkpt lat="22.3018042" lon="114.2648929">
<ele>1</ele><time>2025-01-30T08:21:38.999Z</time><extensions><gpxtpx:TrackPointExtension><gpxtpx:hr>105</gpxtpx:hr></gpxtpx:TrackPointExtension></extensions></trkpt>
<trkpt lat="22.3017559" lon="114.2648749">
<ele>1</ele><time>2025-01-30T08:21:39.999Z</time><extensions><gpxtpx:TrackPointExtension><gpxtpx:hr>105</gpxtpx:hr></gpxtpx:TrackPointExtension></extensions></trkpt>
<trkpt lat="22.3017039" lon="114.2648523">
<ele>1</ele><time>2025-01-30T08:21:40.999Z</time><extensions><gpxtpx:TrackPointExtension><gpxtpx:hr>105</gpxtpx:hr></gpxtpx:TrackPointExtension></extensions></trkpt>
<trkpt lat="22.3016543" lon="114.2648280">
<ele>1</ele><time>2025-01-30T08:21:41.999Z</time><extensions><gpxtpx:TrackPointExtension><gpxtpx:hr>105</gpxtpx:hr></gpxtpx:TrackPointExtension></extensions></trkpt>
<trkpt lat="22.3016044" lon="114.2648095">
<ele>1</ele><time>2025-01-30T08:21:42.999Z</time><extensions><gpxtpx:TrackPointExtension><gpxtpx:hr>105</gpxtpx:hr></gpxtpx:TrackPointExtension></extensions></trkpt>
<trkpt lat="22.3015573" lon="114.2647897">
<ele>1</ele><time>2025-01-30T08:21:43.999Z</time><extensions><gpxtpx:TrackPointExtension><gpxtpx:hr>105</gpxtpx:hr></gpxtpx:TrackPointExtension></extensions></trkpt>
<trkpt lat="22.3015084" lon="114.2647708">
<ele>1</ele><time>2025-01-30T08:21:44.999Z</time><extensions><gpxtpx:TrackPointExtension><gpxtpx:hr>105</gpxtpx:hr></gpxtpx:TrackPointExtension></extensions></trkpt>
<trkpt lat="22.3014586" lon="114.2647508">
<ele>1</ele><time>2025-01-30T08:21:45.999Z</time><extensions><gpxtpx:TrackPointExtension><gpxtpx:hr>105</gpxtpx:hr></gpxtpx:TrackPointExtension></extensions></trkpt>
<trkpt lat="22.3014069" lon="114.2647282">
<ele>1</ele><time>2025-01-30T08:21:46.999Z</time><extensions><gpxtpx:TrackPointExtension><gpxtpx:hr>105</gpxtpx:hr></gpxtpx:TrackPointExtension></extensions></trkpt>
<trkpt lat="22.3013528" lon="114.2647008">
<ele>1</ele><time>2025-01-30T08:21:47.999Z</time><extensions><gpxtpx:TrackPointExtension><gpxtpx:hr>105</gpxtpx:hr></gpxtpx:TrackPointExtension></extensions></trkpt>
<trkpt lat="22.3013001" lon="114.2646743">
<ele>1</ele><time>2025-01-30T08:21:48.999Z</time><extensions><gpxtpx:TrackPointExtension><gpxtpx:hr>105</gpxtpx:hr></gpxtpx:TrackPointExtension></extensions></trkpt>
<trkpt lat="22.3012459" lon="114.2646493">
<ele>1</ele><time>2025-01-30T08:21:49.999Z</time><extensions><gpxtpx:TrackPointExtension><gpxtpx:hr>105</gpxtpx:hr></gpxtpx:TrackPointExtension></extensions></trkpt>
<trkpt lat="22.3011960" lon="114.2646260">
<ele>1</ele><time>2025-01-30T08:21:50.999Z</time><extensions><gpxtpx:TrackPointExtension><gpxtpx:hr>105</gpxtpx:hr></gpxtpx:TrackPointExtension></extensions></trkpt>
<trkpt lat="22.3011502" lon="114.2646002">
<ele>1</ele><time>2025-01-30T08:21:51.999Z</time><extensions><gpxtpx:TrackPointExtension><gpxtpx:hr>105</gpxtpx:hr></gpxtpx:TrackPointExtension></extensions></trkpt>
<trkpt lat="22.3011066" lon="114.2645760">
<ele>1</ele><time>2025-01-30T08:21:52.999Z</time><extensions><gpxtpx:TrackPointExtension><gpxtpx:hr>105</gpxtpx:hr></gpxtpx:TrackPointExtension></extensions></trkpt>
<trkpt lat="22.3010620" lon="114.2645556">
<ele>1</ele><time>2025-01-30T08:21:53.999Z</time><extensions><gpxtpx:TrackPointExtension><gpxtpx:hr>105</gpxtpx:hr></gpxtpx:TrackPointExtension></extensions></trkpt>
<trkpt lat="22.3010177" lon="114.2645402">
<ele>1</ele><time>2025-01-30T08:21:54.999Z</time><extensions><gpxtpx:TrackPointExtension><gpxtpx:hr>105</gpxtpx:hr></gpxtpx:TrackPointExtension></extensions></trkpt>
<trkpt lat="22.3009446" lon="114.2645088">
<ele>1</ele><time>2025-01-30T08:21:56.999Z</time><extensions><gpxtpx:TrackPointExtension><gpxtpx:hr>105</gpxtpx:hr></gpxtpx:TrackPointExtension></extensions></trkpt>
<trkpt lat="22.3008790" lon="114.2644668">
<ele>1</ele><time>2025-01-30T08:21:58.999Z</time><extensions><gpxtpx:TrackPointExtension><gpxtpx:hr>105</gpxtpx:hr></gpxtpx:TrackPointExtension></extensions></trkpt>
<trkpt lat="22.3008100" lon="114.2644380">
<ele>1</ele><time>2025-01-30T08:22:00.999Z</time><extensions><gpxtpx:TrackPointExtension><gpxtpx:hr>105</gpxtpx:hr></gpxtpx:TrackPointExtension></extensions></trkpt>
<trkpt lat="22.3007443" lon="114.2644225">
<ele>1</ele><time>2025-01-30T08:22:02.999Z</time><extensions><gpxtpx:TrackPointExtension><gpxtpx:hr>105</gpxtpx:hr></gpxtpx:TrackPointExtension></extensions></trkpt>
<trkpt lat="22.3006861" lon="114.2644006">
<ele>1</ele><time>2025-01-30T08:22:04.999Z</time><extensions><gpxtpx:TrackPointExtension><gpxtpx:hr>105</gpxtpx:hr></gpxtpx:TrackPointExtension></extensions></trkpt>
<trkpt lat="22.3006333" lon="114.2643775">
<ele>1</ele><time>2025-01-30T08:22:06.999Z</time><extensions><gpxtpx:TrackPointExtension><gpxtpx:hr>105</gpxtpx:hr></gpxtpx:TrackPointExtension></extensions></trkpt>
<trkpt lat="22.3005780" lon="114.2643596">
<ele>1</ele><time>2025-01-30T08:22:08.999Z</time><extensions><gpxtpx:TrackPointExtension><gpxtpx:hr>105</gpxtpx:hr></gpxtpx:TrackPointExtension></extensions></trkpt>
<trkpt lat="22.3005334" lon="114.2643424">
<ele>1</ele><time>2025-01-30T08:22:10.999Z</time><extensions><gpxtpx:TrackPointExtension><gpxtpx:hr>105</gpxtpx:hr></gpxtpx:TrackPointExtension></extensions></trkpt>
<trkpt lat="22.3004749" lon="114.2643139">
<ele>1</ele><time>2025-01-30T08:22:13.999Z</time><extensions><gpxtpx:TrackPointExtension><gpxtpx:hr>105</gpxtpx:hr></gpxtpx:TrackPointExtension></extensions></trkpt>
<trkpt lat="22.3004145" lon="114.2643022">
<ele>1</ele><time>2025-01-30T08:22:16.999Z</time><extensions><gpxtpx:TrackPointExtension><gpxtpx:hr>105</gpxtpx:hr></gpxtpx:TrackPointExtension></extensions></trkpt>
<trkpt lat="22.3003625" lon="114.2642913">
<ele>1</ele><time>2025-01-30T08:22:19.999Z</time><extensions><gpxtpx:TrackPointExtension><gpxtpx:hr>105</gpxtpx:hr></gpxtpx:TrackPointExtension></extensions></trkpt>
<trkpt lat="22.3003133" lon="114.2642716">
<ele>1</ele><time>2025-01-30T08:23:09.000Z</time><extensions><gpxtpx:TrackPointExtension><gpxtpx:hr>108</gpxtpx:hr></gpxtpx:TrackPointExtension></extensions></trkpt>
<trkpt lat="22.3002474" lon="114.2642566">
<ele>1</ele><time>2025-01-30T08:23:12.000Z</time><extensions><gpxtpx:TrackPointExtension><gpxtpx:hr>109</gpxtpx:hr></gpxtpx:TrackPointExtension></extensions></trkpt>
<trkpt lat="22.3001926" lon="114.2642485">
<ele>1</ele><time>2025-01-30T08:23:14.000Z</time><extensions><gpxtpx:TrackPointExtension><gpxtpx:hr>109</gpxtpx:hr></gpxtpx:TrackPointExtension></extensions></trkpt>
<trkpt lat="22.3001341" lon="114.2642310">
<ele>1</ele><time>2025-01-30T08:23:16.000Z</time><extensions><gpxtpx:TrackPointExtension><gpxtpx:hr>109</gpxtpx:hr></gpxtpx:TrackPointExtension></extensions></trkpt>
<trkpt lat="22.3000690" lon="114.2642228">
<ele>1</ele><time>2025-01-30T08:23:18.000Z</time><extensions><gpxtpx:TrackPointExtension><gpxtpx:hr>109</gpxtpx:hr></gpxtpx:TrackPointExtension></extensions></trkpt>
<trkpt lat="22.3000031" lon="114.2642135">
<ele>1</ele><time>2025-01-30T08:23:20.000Z</time><extensions><gpxtpx:TrackPointExtension><gpxtpx:hr>109</gpxtpx:hr></gpxtpx:TrackPointExtension></extensions></trkpt>
<trkpt lat="22.2999284" lon="114.2642149">
<ele>1</ele><time>2025-01-30T08:23:22.000Z</time><extensions><gpxtpx:TrackPointExtension><gpxtpx:hr>109</gpxtpx:hr></gpxtpx:TrackPointExtension></extensions></trkpt>
<trkpt lat="22.2998473" lon="114.2642260">
<ele>1</ele><time>2025-01-30T08:23:24.000Z</time><extensions><gpxtpx:TrackPointExtension><gpxtpx:hr>109</gpxtpx:hr></gpxtpx:TrackPointExtension></extensions></trkpt>
<trkpt lat="22.2997720" lon="114.2642355">
<ele>1</ele><time>2025-01-30T08:23:26.000Z</time><extensions><gpxtpx:TrackPointExtension><gpxtpx:hr>109</gpxtpx:hr></gpxtpx:TrackPointExtension></extensions></trkpt>
<trkpt lat="22.2997008" lon="114.2642320">
<ele>1</ele><time>2025-01-30T08:23:28.000Z</time><extensions><gpxtpx:TrackPointExtension><gpxtpx:hr>109</gpxtpx:hr></gpxtpx:TrackPointExtension></extensions></trkpt>
<trkpt lat="22.2996315" lon="114.2642255">
<ele>1</ele><time>2025-01-30T08:23:30.000Z</time><extensions><gpxtpx:TrackPointExtension><gpxtpx:hr>109</gpxtpx:hr></gpxtpx:TrackPointExtension></extensions></trkpt>
<trkpt lat="22.2995716" lon="114.2642189">
<ele>1</ele><time>2025-01-30T08:23:32.000Z</time><extensions><gpxtpx:TrackPointExtension><gpxtpx:hr>109</gpxtpx:hr></gpxtpx:TrackPointExtension></extensions></trkpt>
<trkpt lat="22.2995052" lon="114.2642131">
<ele>1</ele><time>2025-01-30T08:23:35.000Z</time><extensions><gpxtpx:TrackPointExtension><gpxtpx:hr>109</gpxtpx:hr></gpxtpx:TrackPointExtension></extensions></trkpt>
<trkpt lat="22.2994407" lon="114.2642215">
<ele>1</ele><time>2025-01-30T08:23:37.000Z</time><extensions><gpxtpx:TrackPointExtension><gpxtpx:hr>106</gpxtpx:hr></gpxtpx:TrackPointExtension></extensions></trkpt>
<trkpt lat="22.2993722" lon="114.2642304">
<ele>1</ele><time>2025-01-30T08:23:39.000Z</time><extensions><gpxtpx:TrackPointExtension><gpxtpx:hr>106</gpxtpx:hr></gpxtpx:TrackPointExtension></extensions></trkpt>
<trkpt lat="22.2993097" lon="114.2642385">
<ele>1</ele><time>2025-01-30T08:23:41.000Z</time><extensions><gpxtpx:TrackPointExtension><gpxtpx:hr>106</gpxtpx:hr></gpxtpx:TrackPointExtension></extensions></trkpt>
<trkpt lat="22.2992511" lon="114.2642461">
<ele>1</ele><time>2025-01-30T08:23:43.000Z</time><extensions><gpxtpx:TrackPointExtension><gpxtpx:hr>106</gpxtpx:hr></gpxtpx:TrackPointExtension></extensions></trkpt>
<trkpt lat="22.2991888" lon="114.2642554">
<ele>1</ele><time>2025-01-30T08:23:45.000Z</time><extensions><gpxtpx:TrackPointExtension><gpxtpx:hr>106</gpxtpx:hr></gpxtpx:TrackPointExtension></extensions></trkpt>
<trkpt lat="22.2991222" lon="114.2642651">
<ele>1</ele><time>2025-01-30T08:23:47.000Z</time><extensions><gpxtpx:TrackPointExtension><gpxtpx:hr>106</gpxtpx:hr></gpxtpx:TrackPointExtension></extensions></trkpt>
<trkpt lat="22.2990558" lon="114.2642748">
<ele>1</ele><time>2025-01-30T08:23:49.000Z</time><extensions><gpxtpx:TrackPointExtension><gpxtpx:hr>106</gpxtpx:hr></gpxtpx:TrackPointExtension></extensions></trkpt>
<trkpt lat="22.2989800" lon="114.2642859">
<ele>1</ele><time>2025-01-30T08:23:51.000Z</time><extensions><gpxtpx:TrackPointExtension><gpxtpx:hr>106</gpxtpx:hr></gpxtpx:TrackPointExtension></extensions></trkpt>
<trkpt lat="22.2988996" lon="114.2642973">
<ele>1</ele><time>2025-01-30T08:23:53.000Z</time><extensions><gpxtpx:TrackPointExtension><gpxtpx:hr>106</gpxtpx:hr></gpxtpx:TrackPointExtension></extensions></trkpt>
<trkpt lat="22.2988228" lon="114.2643086">
<ele>1</ele><time>2025-01-30T08:23:55.000Z</time><extensions><gpxtpx:TrackPointExtension><gpxtpx:hr>106</gpxtpx:hr></gpxtpx:TrackPointExtension></extensions></trkpt>
<trkpt lat="22.2987563" lon="114.2643183">
<ele>1</ele><time>2025-01-30T08:23:57.000Z</time><extensions><gpxtpx:TrackPointExtension><gpxtpx:hr>107</gpxtpx:hr></gpxtpx:TrackPointExtension></extensions></trkpt>
<trkpt lat="22.2986975" lon="114.2643255">
<ele>1</ele><time>2025-01-30T08:23:59.000Z</time><extensions><gpxtpx:TrackPointExtension><gpxtpx:hr>107</gpxtpx:hr></gpxtpx:TrackPointExtension></extensions></trkpt>
<trkpt lat="22.2986405" lon="114.2643321">
<ele>1</ele><time>2025-01-30T08:24:01.000Z</time><extensions><gpxtpx:TrackPointExtension><gpxtpx:hr>106</gpxtpx:hr></gpxtpx:TrackPointExtension></extensions></trkpt>
<trkpt lat="22.2985808" lon="114.2643389">
<ele>1</ele><time>2025-01-30T08:24:03.000Z</time><extensions><gpxtpx:TrackPointExtension><gpxtpx:hr>106</gpxtpx:hr></gpxtpx:TrackPointExtension></extensions></trkpt>
<trkpt lat="22.2985201" lon="114.2643459">
<ele>1</ele><time>2025-01-30T08:24:05.000Z</time><extensions><gpxtpx:TrackPointExtension><gpxtpx:hr>106</gpxtpx:hr></gpxtpx:TrackPointExtension></extensions></trkpt>
<trkpt lat="22.2984641" lon="114.2643523">
<ele>1</ele><time>2025-01-30T08:24:07.000Z</time><extensions><gpxtpx:TrackPointExtension><gpxtpx:hr>104</gpxtpx:hr></gpxtpx:TrackPointExtension></extensions></trkpt>
<trkpt lat="22.2984117" lon="114.2643585">
<ele>1</ele><time>2025-01-30T08:24:09.000Z</time><extensions><gpxtpx:TrackPointExtension><gpxtpx:hr>104</gpxtpx:hr></gpxtpx:TrackPointExtension></extensions></trkpt>
<trkpt lat="22.2983505" lon="114.2643658">
<ele>1</ele><time>2025-01-30T08:24:11.000Z</time><extensions><gpxtpx:TrackPointExtension><gpxtpx:hr>105</gpxtpx:hr></gpxtpx:TrackPointExtension></extensions></trkpt>
<trkpt lat="22.2982810" lon="114.2643746">
<ele>1</ele><time>2025-01-30T08:24:13.000Z</time><extensions><gpxtpx:TrackPointExtension><gpxtpx:hr>105</gpxtpx:hr></gpxtpx:TrackPointExtension></extensions></trkpt>
<trkpt lat="22.2982148" lon="114.2643831">
<ele>1</ele><time>2025-01-30T08:24:15.000Z</time><extensions><gpxtpx:TrackPointExtension><gpxtpx:hr>105</gpxtpx:hr></gpxtpx:TrackPointExtension></extensions></trkpt>
<trkpt lat="22.2981518" lon="114.2643912">
<ele>1</ele><time>2025-01-30T08:24:17.000Z</time><extensions><gpxtpx:TrackPointExtension><gpxtpx:hr>105</gpxtpx:hr></gpxtpx:TrackPointExtension></extensions></trkpt>
<trkpt lat="22.2980878" lon="114.2644015">
<ele>1</ele><time>2025-01-30T08:24:19.000Z</time><extensions><gpxtpx:TrackPointExtension><gpxtpx:hr>105</gpxtpx:hr></gpxtpx:TrackPointExtension></extensions></trkpt>
<trkpt lat="22.2980248" lon="114.2644116">
<ele>1</ele><time>2025-01-30T08:24:21.000Z</time><extensions><gpxtpx:TrackPointExtension><gpxtpx:hr>106</gpxtpx:hr></gpxtpx:TrackPointExtension></extensions></trkpt>
<trkpt lat="22.2979581" lon="114.2644280">
<ele>1</ele><time>2025-01-30T08:24:23.000Z</time><extensions><gpxtpx:TrackPointExtension><gpxtpx:hr>106</gpxtpx:hr></gpxtpx:TrackPointExtension></extensions></trkpt>
<trkpt lat="22.2978792" lon="114.2644494">
<ele>1</ele><time>2025-01-30T08:24:25.000Z</time><extensions><gpxtpx:TrackPointExtension><gpxtpx:hr>106</gpxtpx:hr></gpxtpx:TrackPointExtension></extensions></trkpt>
<trkpt lat="22.2978334" lon="114.2644631">
<ele>1</ele><time>2025-01-30T08:24:26.000Z</time><extensions><gpxtpx:TrackPointExtension><gpxtpx:hr>103</gpxtpx:hr></gpxtpx:TrackPointExtension></extensions></trkpt>
<trkpt lat="22.2977815" lon="114.2644836">
<ele>1</ele><time>2025-01-30T08:24:27.000Z</time><extensions><gpxtpx:TrackPointExtension><gpxtpx:hr>103</gpxtpx:hr></gpxtpx:TrackPointExtension></extensions></trkpt>
<trkpt lat="22.2977269" lon="114.2645063">
<ele>1</ele><time>2025-01-30T08:24:28.000Z</time><extensions><gpxtpx:TrackPointExtension><gpxtpx:hr>103</gpxtpx:hr></gpxtpx:TrackPointExtension></extensions></trkpt>
<trkpt lat="22.2976714" lon="114.2645317">
<ele>1</ele><time>2025-01-30T08:24:29.000Z</time><extensions><gpxtpx:TrackPointExtension><gpxtpx:hr>103</gpxtpx:hr></gpxtpx:TrackPointExtension></extensions></trkpt>
<trkpt lat="22.2976153" lon="114.2645606">
<ele>1</ele><time>2025-01-30T08:24:30.000Z</time><extensions><gpxtpx:TrackPointExtension><gpxtpx:hr>103</gpxtpx:hr></gpxtpx:TrackPointExtension></extensions></trkpt>
<trkpt lat="22.2975548" lon="114.2645923">
<ele>1</ele><time>2025-01-30T08:24:31.000Z</time><extensions><gpxtpx:TrackPointExtension><gpxtpx:hr>104</gpxtpx:hr></gpxtpx:TrackPointExtension></extensions></trkpt>
<trkpt lat="22.2974958" lon="114.2646242">
<ele>1</ele><time>2025-01-30T08:24:32.000Z</time><extensions><gpxtpx:TrackPointExtension><gpxtpx:hr>104</gpxtpx:hr></gpxtpx:TrackPointExtension></extensions></trkpt>
<trkpt lat="22.2974452" lon="114.2646555">
<ele>1</ele><time>2025-01-30T08:24:33.000Z</time><extensions><gpxtpx:TrackPointExtension><gpxtpx:hr>104</gpxtpx:hr></gpxtpx:TrackPointExtension></extensions></trkpt>
<trkpt lat="22.2973946" lon="114.2646899">
<ele>1</ele><time>2025-01-30T08:24:34.000Z</time><extensions><gpxtpx:TrackPointExtension><gpxtpx:hr>104</gpxtpx:hr></gpxtpx:TrackPointExtension></extensions></trkpt>
<trkpt lat="22.2973458" lon="114.2647318">
<ele>1</ele><time>2025-01-30T08:24:35.000Z</time><extensions><gpxtpx:TrackPointExtension><gpxtpx:hr>104</gpxtpx:hr></gpxtpx:TrackPointExtension></extensions></trkpt>
<trkpt lat="22.2973056" lon="114.2647684">
<ele>1</ele><time>2025-01-30T08:24:36.000Z</time><extensions><gpxtpx:TrackPointExtension><gpxtpx:hr>105</gpxtpx:hr></gpxtpx:TrackPointExtension></extensions></trkpt>
<trkpt lat="22.2972674" lon="114.2648067">
<ele>1</ele><time>2025-01-30T08:24:37.000Z</time><extensions><gpxtpx:TrackPointExtension><gpxtpx:hr>105</gpxtpx:hr></gpxtpx:TrackPointExtension></extensions></trkpt>
<trkpt lat="22.2972337" lon="114.2648411">
<ele>1</ele><time>2025-01-30T08:24:38.000Z</time><extensions><gpxtpx:TrackPointExtension><gpxtpx:hr>105</gpxtpx:hr></gpxtpx:TrackPointExtension></extensions></trkpt>
<trkpt lat="22.2972007" lon="114.2648758">
<ele>1</ele><time>2025-01-30T08:24:39.000Z</time><extensions><gpxtpx:TrackPointExtension><gpxtpx:hr>105</gpxtpx:hr></gpxtpx:TrackPointExtension></extensions></trkpt>
<trkpt lat="22.2971458" lon="114.2649380">
<ele>1</ele><time>2025-01-30T08:24:41.000Z</time><extensions><gpxtpx:TrackPointExtension><gpxtpx:hr>105</gpxtpx:hr></gpxtpx:TrackPointExtension></extensions></trkpt>
<trkpt lat="22.2970966" lon="114.2649935">
<ele>1</ele><time>2025-01-30T08:24:43.000Z</time><extensions><gpxtpx:TrackPointExtension><gpxtpx:hr>105</gpxtpx:hr></gpxtpx:TrackPointExtension></extensions></trkpt>
<trkpt lat="22.2970461" lon="114.2650572">
<ele>1</ele><time>2025-01-30T08:24:45.000Z</time><extensions><gpxtpx:TrackPointExtension><gpxtpx:hr>107</gpxtpx:hr></gpxtpx:TrackPointExtension></extensions></trkpt>
<trkpt lat="22.2970001" lon="114.2651159">
<ele>1</ele><time>2025-01-30T08:24:47.000Z</time><extensions><gpxtpx:TrackPointExtension><gpxtpx:hr>107</gpxtpx:hr></gpxtpx:TrackPointExtension></extensions></trkpt>
<trkpt lat="22.2969601" lon="114.2651686">
<ele>1</ele><time>2025-01-30T08:24:49.000Z</time><extensions><gpxtpx:TrackPointExtension><gpxtpx:hr>107</gpxtpx:hr></gpxtpx:TrackPointExtension></extensions></trkpt>
<trkpt lat="22.2969223" lon="114.2652182">
<ele>1</ele><time>2025-01-30T08:24:51.000Z</time><extensions><gpxtpx:TrackPointExtension><gpxtpx:hr>106</gpxtpx:hr></gpxtpx:TrackPointExtension></extensions></trkpt>
<trkpt lat="22.2968873" lon="114.2652703">
<ele>1</ele><time>2025-01-30T08:24:53.000Z</time><extensions><gpxtpx:TrackPointExtension><gpxtpx:hr>106</gpxtpx:hr></gpxtpx:TrackPointExtension></extensions></trkpt>
<trkpt lat="22.2968460" lon="114.2653338">
<ele>1</ele><time>2025-01-30T08:24:55.000Z</time><extensions><gpxtpx:TrackPointExtension><gpxtpx:hr>106</gpxtpx:hr></gpxtpx:TrackPointExtension></extensions></trkpt>
<trkpt lat="22.2968019" lon="114.2654082">
<ele>1</ele><time>2025-01-30T08:24:57.000Z</time><extensions><gpxtpx:TrackPointExtension><gpxtpx:hr>106</gpxtpx:hr></gpxtpx:TrackPointExtension></extensions></trkpt>
<trkpt lat="22.2967661" lon="114.2654728">
<ele>1</ele><time>2025-01-30T08:24:59.000Z</time><extensions><gpxtpx:TrackPointExtension><gpxtpx:hr>106</gpxtpx:hr></gpxtpx:TrackPointExtension></extensions></trkpt>
<trkpt lat="22.2967389" lon="114.2655266">
<ele>1</ele><time>2025-01-30T08:25:01.000Z</time><extensions><gpxtpx:TrackPointExtension><gpxtpx:hr>106</gpxtpx:hr></gpxtpx:TrackPointExtension></extensions></trkpt>
<trkpt lat="22.2967123" lon="114.2655841">
<ele>1</ele><time>2025-01-30T08:25:03.000Z</time><extensions><gpxtpx:TrackPointExtension><gpxtpx:hr>106</gpxtpx:hr></gpxtpx:TrackPointExtension></extensions></trkpt>
<trkpt lat="22.2966841" lon="114.2656523">
<ele>1</ele><time>2025-01-30T08:25:05.000Z</time><extensions><gpxtpx:TrackPointExtension><gpxtpx:hr>107</gpxtpx:hr></gpxtpx:TrackPointExtension></extensions></trkpt>
<trkpt lat="22.2966546" lon="114.2657309">
<ele>1</ele><time>2025-01-30T08:25:07.000Z</time><extensions><gpxtpx:TrackPointExtension><gpxtpx:hr>107</gpxtpx:hr></gpxtpx:TrackPointExtension></extensions></trkpt>
<trkpt lat="22.2966409" lon="114.2657799">
<ele>1</ele><time>2025-01-30T08:25:08.000Z</time><extensions><gpxtpx:TrackPointExtension><gpxtpx:hr>107</gpxtpx:hr></gpxtpx:TrackPointExtension></extensions></trkpt>
<trkpt lat="22.2966209" lon="114.2658709">
<ele>1</ele><time>2025-01-30T08:25:10.000Z</time><extensions><gpxtpx:TrackPointExtension><gpxtpx:hr>108</gpxtpx:hr></gpxtpx:TrackPointExtension></extensions></trkpt>
<trkpt lat="22.2966084" lon="114.2659501">
<ele>1</ele><time>2025-01-30T08:25:12.000Z</time><extensions><gpxtpx:TrackPointExtension><gpxtpx:hr>108</gpxtpx:hr></gpxtpx:TrackPointExtension></extensions></trkpt>
<trkpt lat="22.2965987" lon="114.2660253">
<ele>1</ele><time>2025-01-30T08:25:14.000Z</time><extensions><gpxtpx:TrackPointExtension><gpxtpx:hr>108</gpxtpx:hr></gpxtpx:TrackPointExtension></extensions></trkpt>
<trkpt lat="22.2965881" lon="114.2661037">
<ele>1</ele><time>2025-01-30T08:25:16.000Z</time><extensions><gpxtpx:TrackPointExtension><gpxtpx:hr>110</gpxtpx:hr></gpxtpx:TrackPointExtension></extensions></trkpt>
<trkpt lat="22.2965733" lon="114.2661746">
<ele>1</ele><time>2025-01-30T08:25:18.000Z</time><extensions><gpxtpx:TrackPointExtension><gpxtpx:hr>110</gpxtpx:hr></gpxtpx:TrackPointExtension></extensions></trkpt>
<trkpt lat="22.2965575" lon="114.2662334">
<ele>1</ele><time>2025-01-30T08:25:20.000Z</time><extensions><gpxtpx:TrackPointExtension><gpxtpx:hr>110</gpxtpx:hr></gpxtpx:TrackPointExtension></extensions></trkpt>
<trkpt lat="22.2965353" lon="114.2662938">
<ele>1</ele><time>2025-01-30T08:25:22.000Z</time><extensions><gpxtpx:TrackPointExtension><gpxtpx:hr>110</gpxtpx:hr></gpxtpx:TrackPointExtension></extensions></trkpt>
<trkpt lat="22.2965735" lon="114.2663486">
<ele>1</ele><time>2025-01-30T08:25:23.000Z</time><extensions><gpxtpx:TrackPointExtension><gpxtpx:hr>110</gpxtpx:hr></gpxtpx:TrackPointExtension></extensions></trkpt>
<trkpt lat="22.2965448" lon="114.2664045">
<ele>1</ele><time>2025-01-30T08:25:25.000Z</time><extensions><gpxtpx:TrackPointExtension><gpxtpx:hr>110</gpxtpx:hr></gpxtpx:TrackPointExtension></extensions></trkpt>
<trkpt lat="22.2965124" lon="114.2664413">
<ele>1</ele><time>2025-01-30T08:25:27.000Z</time><extensions><gpxtpx:TrackPointExtension><gpxtpx:hr>109</gpxtpx:hr></gpxtpx:TrackPointExtension></extensions></trkpt>
<trkpt lat="22.2964915" lon="114.2664994">
<ele>1</ele><time>2025-01-30T08:25:29.000Z</time><extensions><gpxtpx:TrackPointExtension><gpxtpx:hr>109</gpxtpx:hr></gpxtpx:TrackPointExtension></extensions></trkpt>
<trkpt lat="22.2964526" lon="114.2665470">
<ele>1</ele><time>2025-01-30T08:25:31.000Z</time><extensions><gpxtpx:TrackPointExtension><gpxtpx:hr>109</gpxtpx:hr></gpxtpx:TrackPointExtension></extensions></trkpt>
<trkpt lat="22.2964124" lon="114.2665985">
<ele>1</ele><time>2025-01-30T08:25:33.000Z</time><extensions><gpxtpx:TrackPointExtension><gpxtpx:hr>109</gpxtpx:hr></gpxtpx:TrackPointExtension></extensions></trkpt>
<trkpt lat="22.2963770" lon="114.2666448">
<ele>2</ele><time>2025-01-30T08:25:35.000Z</time><extensions><gpxtpx:TrackPointExtension><gpxtpx:hr>109</gpxtpx:hr></gpxtpx:TrackPointExtension></extensions></trkpt>
<trkpt lat="22.2963426" lon="114.2666873">
<ele>2</ele><time>2025-01-30T08:25:37.000Z</time><extensions><gpxtpx:TrackPointExtension><gpxtpx:hr>109</gpxtpx:hr></gpxtpx:TrackPointExtension></extensions></trkpt>
<trkpt lat="22.2963056" lon="114.2667322">
<ele>2</ele><time>2025-01-30T08:25:39.000Z</time><extensions><gpxtpx:TrackPointExtension><gpxtpx:hr>109</gpxtpx:hr></gpxtpx:TrackPointExtension></extensions></trkpt>
<trkpt lat="22.2962716" lon="114.2667825">
<ele>2</ele><time>2025-01-30T08:25:41.000Z</time><extensions><gpxtpx:TrackPointExtension><gpxtpx:hr>110</gpxtpx:hr></gpxtpx:TrackPointExtension></extensions></trkpt>
<trkpt lat="22.2962397" lon="114.2668323">
<ele>2</ele><time>2025-01-30T08:25:43.000Z</time><extensions><gpxtpx:TrackPointExtension><gpxtpx:hr>110</gpxtpx:hr></gpxtpx:TrackPointExtension></extensions></trkpt>
<trkpt lat="22.2962218" lon="114.2668816">
<ele>2</ele><time>2025-01-30T08:25:45.000Z</time><extensions><gpxtpx:TrackPointExtension><gpxtpx:hr>110</gpxtpx:hr></gpxtpx:TrackPointExtension></extensions></trkpt>
<trkpt lat="22.2962143" lon="114.2669333">
<ele>2</ele><time>2025-01-30T08:25:47.000Z</time><extensions><gpxtpx:TrackPointExtension><gpxtpx:hr>108</gpxtpx:hr></gpxtpx:TrackPointExtension></extensions></trkpt>
<trkpt lat="22.2962182" lon="114.2669874">
<ele>2</ele><time>2025-01-30T08:25:49.000Z</time><extensions><gpxtpx:TrackPointExtension><gpxtpx:hr>108</gpxtpx:hr></gpxtpx:TrackPointExtension></extensions></trkpt>
<trkpt lat="22.2962240" lon="114.2670404">
<ele>2</ele><time>2025-01-30T08:25:51.000Z</time><extensions><gpxtpx:TrackPointExtension><gpxtpx:hr>109</gpxtpx:hr></gpxtpx:TrackPointExtension></extensions></trkpt>
<trkpt lat="22.2962180" lon="114.2670965">
<ele>2</ele><time>2025-01-30T08:25:53.000Z</time><extensions><gpxtpx:TrackPointExtension><gpxtpx:hr>109</gpxtpx:hr></gpxtpx:TrackPointExtension></extensions></trkpt>
<trkpt lat="22.2961846" lon="114.2671367">
<ele>2</ele><time>2025-01-30T08:25:55.000Z</time><extensions><gpxtpx:TrackPointExtension><gpxtpx:hr>109</gpxtpx:hr></gpxtpx:TrackPointExtension></extensions></trkpt>
<trkpt lat="22.2961297" lon="114.2671560">
<ele>2</ele><time>2025-01-30T08:25:57.000Z</time><extensions><gpxtpx:TrackPointExtension><gpxtpx:hr>108</gpxtpx:hr></gpxtpx:TrackPointExtension></extensions></trkpt>
<trkpt lat="22.2960757" lon="114.2671847">
<ele>2</ele><time>2025-01-30T08:25:59.000Z</time><extensions><gpxtpx:TrackPointExtension><gpxtpx:hr>108</gpxtpx:hr></gpxtpx:TrackPointExtension></extensions></trkpt>
<trkpt lat="22.2960365" lon="114.2672272">
<ele>2</ele><time>2025-01-30T08:26:01.000Z</time><extensions><gpxtpx:TrackPointExtension><gpxtpx:hr>108</gpxtpx:hr></gpxtpx:TrackPointExtension></extensions></trkpt>
<trkpt lat="22.2960023" lon="114.2672608">
<ele>2</ele><time>2025-01-30T08:26:03.000Z</time><extensions><gpxtpx:TrackPointExtension><gpxtpx:hr>108</gpxtpx:hr></gpxtpx:TrackPointExtension></extensions></trkpt>
<trkpt lat="22.2959499" lon="114.2673044">
<ele>2</ele><time>2025-01-30T08:26:06.000Z</time><extensions><gpxtpx:TrackPointExtension><gpxtpx:hr>109</gpxtpx:hr></gpxtpx:TrackPointExtension></extensions></trkpt>
<trkpt lat="22.2959094" lon="114.2673297">
<ele>2</ele><time>2025-01-30T08:26:09.000Z</time><extensions><gpxtpx:TrackPointExtension><gpxtpx:hr>109</gpxtpx:hr></gpxtpx:TrackPointExtension></extensions></trkpt>
<trkpt lat="22.2958645" lon="114.2673477">
<ele>2</ele><time>2025-01-30T08:26:11.000Z</time><extensions><gpxtpx:TrackPointExtension><gpxtpx:hr>111</gpxtpx:hr></gpxtpx:TrackPointExtension></extensions></trkpt>
<trkpt lat="22.2958057" lon="114.2673561">
<ele>2</ele><time>2025-01-30T08:26:14.000Z</time><extensions><gpxtpx:TrackPointExtension><gpxtpx:hr>111</gpxtpx:hr></gpxtpx:TrackPointExtension></extensions></trkpt>
<trkpt lat="22.2957436" lon="114.2673620">
<ele>2</ele><time>2025-01-30T08:26:17.000Z</time><extensions><gpxtpx:TrackPointExtension><gpxtpx:hr>111</gpxtpx:hr></gpxtpx:TrackPointExtension></extensions></trkpt>
<trkpt lat="22.2956946" lon="114.2673600">
<ele>2</ele><time>2025-01-30T08:26:19.000Z</time><extensions><gpxtpx:TrackPointExtension><gpxtpx:hr>111</gpxtpx:hr></gpxtpx:TrackPointExtension></extensions></trkpt>
<trkpt lat="22.2956363" lon="114.2673535">
<ele>2</ele><time>2025-01-30T08:26:21.000Z</time><extensions><gpxtpx:TrackPointExtension><gpxtpx:hr>111</gpxtpx:hr></gpxtpx:TrackPointExtension></extensions></trkpt>
<trkpt lat="22.2955866" lon="114.2673305">
<ele>2</ele><time>2025-01-30T08:26:23.000Z</time><extensions><gpxtpx:TrackPointExtension><gpxtpx:hr>111</gpxtpx:hr></gpxtpx:TrackPointExtension></extensions></trkpt>
<trkpt lat="22.2955370" lon="114.2672994">
<ele>2</ele><time>2025-01-30T08:26:25.000Z</time><extensions><gpxtpx:TrackPointExtension><gpxtpx:hr>111</gpxtpx:hr></gpxtpx:TrackPointExtension></extensions></trkpt>
<trkpt lat="22.2954813" lon="114.2672967">
<ele>2</ele><time>2025-01-30T08:26:27.000Z</time><extensions><gpxtpx:TrackPointExtension><gpxtpx:hr>109</gpxtpx:hr></gpxtpx:TrackPointExtension></extensions></trkpt>
<trkpt lat="22.2954247" lon="114.2672705">
<ele>2</ele><time>2025-01-30T08:26:29.000Z</time><extensions><gpxtpx:TrackPointExtension><gpxtpx:hr>109</gpxtpx:hr></gpxtpx:TrackPointExtension></extensions></trkpt>
<trkpt lat="22.2953666" lon="114.2672526">
<ele>3</ele><time>2025-01-30T08:26:31.000Z</time><extensions><gpxtpx:TrackPointExtension><gpxtpx:hr>109</gpxtpx:hr></gpxtpx:TrackPointExtension></extensions></trkpt>
<trkpt lat="22.2953097" lon="114.2672516">
<ele>3</ele><time>2025-01-30T08:26:33.000Z</time><extensions><gpxtpx:TrackPointExtension><gpxtpx:hr>109</gpxtpx:hr></gpxtpx:TrackPointExtension></extensions></trkpt>
<trkpt lat="22.2952616" lon="114.2672420">
<ele>3</ele><time>2025-01-30T08:26:35.000Z</time><extensions><gpxtpx:TrackPointExtension><gpxtpx:hr>109</gpxtpx:hr></gpxtpx:TrackPointExtension></extensions></trkpt>
<trkpt lat="22.2952133" lon="114.2672344">
<ele>3</ele><time>2025-01-30T08:26:37.000Z</time><extensions><gpxtpx:TrackPointExtension><gpxtpx:hr>110</gpxtpx:hr></gpxtpx:TrackPointExtension></extensions></trkpt>
<trkpt lat="22.2951706" lon="114.2672167">
<ele>3</ele><time>2025-01-30T08:26:39.000Z</time><extensions><gpxtpx:TrackPointExtension><gpxtpx:hr>110</gpxtpx:hr></gpxtpx:TrackPointExtension></extensions></trkpt>
<trkpt lat="22.2951155" lon="114.2672091">
<ele>3</ele><time>2025-01-30T08:26:42.000Z</time><extensions><gpxtpx:TrackPointExtension><gpxtpx:hr>107</gpxtpx:hr></gpxtpx:TrackPointExtension></extensions></trkpt>
<trkpt lat="22.2950578" lon="114.2671931">
<ele>3</ele><time>2025-01-30T08:26:44.000Z</time><extensions><gpxtpx:TrackPointExtension><gpxtpx:hr>107</gpxtpx:hr></gpxtpx:TrackPointExtension></extensions></trkpt>
<trkpt lat="22.2949994" lon="114.2671969">
<ele>3</ele><time>2025-01-30T08:26:46.000Z</time><extensions><gpxtpx:TrackPointExtension><gpxtpx:hr>107</gpxtpx:hr></gpxtpx:TrackPointExtension></extensions></trkpt>
<trkpt lat="22.2949447" lon="114.2671918">
<ele>3</ele><time>2025-01-30T08:26:48.000Z</time><extensions><gpxtpx:TrackPointExtension><gpxtpx:hr>107</gpxtpx:hr></gpxtpx:TrackPointExtension></extensions></trkpt>
<trkpt lat="22.2948835" lon="114.2671612">
<ele>3</ele><time>2025-01-30T08:26:50.000Z</time><extensions><gpxtpx:TrackPointExtension><gpxtpx:hr>107</gpxtpx:hr></gpxtpx:TrackPointExtension></extensions></trkpt>
<trkpt lat="22.2948142" lon="114.2671467">
<ele>3</ele><time>2025-01-30T08:26:52.000Z</time><extensions><gpxtpx:TrackPointExtension><gpxtpx:hr>107</gpxtpx:hr></gpxtpx:TrackPointExtension></extensions></trkpt>
<trkpt lat="22.2947613" lon="114.2671036">
<ele>3</ele><time>2025-01-30T08:26:54.000Z</time><extensions><gpxtpx:TrackPointExtension><gpxtpx:hr>107</gpxtpx:hr></gpxtpx:TrackPointExtension></extensions></trkpt>
<trkpt lat="22.2946948" lon="114.2670974">
<ele>3</ele><time>2025-01-30T08:26:56.000Z</time><extensions><gpxtpx:TrackPointExtension><gpxtpx:hr>108</gpxtpx:hr></gpxtpx:TrackPointExtension></extensions></trkpt>
<trkpt lat="22.2946455" lon="114.2671048">
<ele>3</ele><time>2025-01-30T08:26:57.999Z</time><extensions><gpxtpx:TrackPointExtension><gpxtpx:hr>108</gpxtpx:hr></gpxtpx:TrackPointExtension></extensions></trkpt>
<trkpt lat="22.2945944" lon="114.2671164">
<ele>3</ele><time>2025-01-30T08:26:59.999Z</time><extensions><gpxtpx:TrackPointExtension><gpxtpx:hr>109</gpxtpx:hr></gpxtpx:TrackPointExtension></extensions></trkpt>
<trkpt lat="22.2945452" lon="114.2670955">
<ele>3</ele><time>2025-01-30T08:27:01.999Z</time><extensions><gpxtpx:TrackPointExtension><gpxtpx:hr>109</gpxtpx:hr></gpxtpx:TrackPointExtension></extensions></trkpt>
<trkpt lat="22.2945001" lon="114.2670930">
<ele>3</ele><time>2025-01-30T08:27:03.998Z</time><extensions><gpxtpx:TrackPointExtension><gpxtpx:hr>109</gpxtpx:hr></gpxtpx:TrackPointExtension></extensions></trkpt>
<trkpt lat="22.2944366" lon="114.2671033">
<ele>2</ele><time>2025-01-30T08:27:06.998Z</time><extensions><gpxtpx:TrackPointExtension><gpxtpx:hr>108</gpxtpx:hr></gpxtpx:TrackPointExtension></extensions></trkpt>
<trkpt lat="22.2943816" lon="114.2670986">
<ele>2</ele><time>2025-01-30T08:27:09.998Z</time><extensions><gpxtpx:TrackPointExtension><gpxtpx:hr>108</gpxtpx:hr></gpxtpx:TrackPointExtension></extensions></trkpt>
<trkpt lat="22.2943321" lon="114.2670940">
<ele>2</ele><time>2025-01-30T08:27:13.997Z</time><extensions><gpxtpx:TrackPointExtension><gpxtpx:hr>108</gpxtpx:hr></gpxtpx:TrackPointExtension></extensions></trkpt>
<trkpt lat="22.2942731" lon="114.2670828">
<ele>2</ele><time>2025-01-30T08:27:16.997Z</time><extensions><gpxtpx:TrackPointExtension><gpxtpx:hr>107</gpxtpx:hr></gpxtpx:TrackPointExtension></extensions></trkpt>
<trkpt lat="22.2942283" lon="114.2670596">
<ele>2</ele><time>2025-01-30T08:27:18.997Z</time><extensions><gpxtpx:TrackPointExtension><gpxtpx:hr>107</gpxtpx:hr></gpxtpx:TrackPointExtension></extensions></trkpt>
<trkpt lat="22.2941827" lon="114.2670277">
<ele>2</ele><time>2025-01-30T08:27:20.997Z</time><extensions><gpxtpx:TrackPointExtension><gpxtpx:hr>108</gpxtpx:hr></gpxtpx:TrackPointExtension></extensions></trkpt>
<trkpt lat="22.2941328" lon="114.2670057">
<ele>2</ele><time>2025-01-30T08:27:22.997Z</time><extensions><gpxtpx:TrackPointExtension><gpxtpx:hr>108</gpxtpx:hr></gpxtpx:TrackPointExtension></extensions></trkpt>
<trkpt lat="22.2940871" lon="114.2669925">
<ele>2</ele><time>2025-01-30T08:27:24.997Z</time><extensions><gpxtpx:TrackPointExtension><gpxtpx:hr>110</gpxtpx:hr></gpxtpx:TrackPointExtension></extensions></trkpt>
<trkpt lat="22.2940336" lon="114.2669919">
<ele>2</ele><time>2025-01-30T08:27:26.997Z</time><extensions><gpxtpx:TrackPointExtension><gpxtpx:hr>110</gpxtpx:hr></gpxtpx:TrackPointExtension></extensions></trkpt>
<trkpt lat="22.2939674" lon="114.2669957">
<ele>2</ele><time>2025-01-30T08:27:28.997Z</time><extensions><gpxtpx:TrackPointExtension><gpxtpx:hr>110</gpxtpx:hr></gpxtpx:TrackPointExtension></extensions></trkpt>
<trkpt lat="22.2938932" lon="114.2669947">
<ele>2</ele><time>2025-01-30T08:27:30.997Z</time><extensions><gpxtpx:TrackPointExtension><gpxtpx:hr>112</gpxtpx:hr></gpxtpx:TrackPointExtension></extensions></trkpt>
<trkpt lat="22.2938120" lon="114.2669901">
<ele>2</ele><time>2025-01-30T08:27:32.996Z</time><extensions><gpxtpx:TrackPointExtension><gpxtpx:hr>112</gpxtpx:hr></gpxtpx:TrackPointExtension></extensions></trkpt>
<trkpt lat="22.2937345" lon="114.2669903">
<ele>2</ele><time>2025-01-30T08:27:34.996Z</time><extensions><gpxtpx:TrackPointExtension><gpxtpx:hr>113</gpxtpx:hr></gpxtpx:TrackPointExtension></extensions></trkpt>
<trkpt lat="22.2936651" lon="114.2669909">
<ele>3</ele><time>2025-01-30T08:27:36.996Z</time><extensions><gpxtpx:TrackPointExtension><gpxtpx:hr>113</gpxtpx:hr></gpxtpx:TrackPointExtension></extensions></trkpt>
<trkpt lat="22.2936049" lon="114.2669966">
<ele>3</ele><time>2025-01-30T08:27:38.996Z</time><extensions><gpxtpx:TrackPointExtension><gpxtpx:hr>113</gpxtpx:hr></gpxtpx:TrackPointExtension></extensions></trkpt>
<trkpt lat="22.2935429" lon="114.2669945">
<ele>3</ele><time>2025-01-30T08:27:40.996Z</time><extensions><gpxtpx:TrackPointExtension><gpxtpx:hr>117</gpxtpx:hr></gpxtpx:TrackPointExtension></extensions></trkpt>
<trkpt lat="22.2934700" lon="114.2669967">
<ele>3</ele><time>2025-01-30T08:27:42.996Z</time><extensions><gpxtpx:TrackPointExtension><gpxtpx:hr>117</gpxtpx:hr></gpxtpx:TrackPointExtension></extensions></trkpt>
<trkpt lat="22.2934013" lon="114.2669957">
<ele>4</ele><time>2025-01-30T08:27:44.996Z</time><extensions><gpxtpx:TrackPointExtension><gpxtpx:hr>118</gpxtpx:hr></gpxtpx:TrackPointExtension></extensions></trkpt>
<trkpt lat="22.2933375" lon="114.2669927">
<ele>4</ele><time>2025-01-30T08:27:46.996Z</time><extensions><gpxtpx:TrackPointExtension><gpxtpx:hr>118</gpxtpx:hr></gpxtpx:TrackPointExtension></extensions></trkpt>
<trkpt lat="22.2932797" lon="114.2670080">
<ele>4</ele><time>2025-01-30T08:27:48.996Z</time><extensions><gpxtpx:TrackPointExtension><gpxtpx:hr>118</gpxtpx:hr></gpxtpx:TrackPointExtension></extensions></trkpt>
<trkpt lat="22.2932395" lon="114.2670391">
<ele>4</ele><time>2025-01-30T08:27:50.996Z</time><extensions><gpxtpx:TrackPointExtension><gpxtpx:hr>120</gpxtpx:hr></gpxtpx:TrackPointExtension></extensions></trkpt>
<trkpt lat="22.2931967" lon="114.2670684">
<ele>5</ele><time>2025-01-30T08:27:52.996Z</time><extensions><gpxtpx:TrackPointExtension><gpxtpx:hr>120</gpxtpx:hr></gpxtpx:TrackPointExtension></extensions></trkpt>
<trkpt lat="22.2931477" lon="114.2670913">
<ele>5</ele><time>2025-01-30T08:27:54.996Z</time><extensions><gpxtpx:TrackPointExtension><gpxtpx:hr>120</gpxtpx:hr></gpxtpx:TrackPointExtension></extensions></trkpt>
<trkpt lat="22.2930950" lon="114.2671044">
<ele>5</ele><time>2025-01-30T08:27:56.996Z</time><extensions><gpxtpx:TrackPointExtension><gpxtpx:hr>114</gpxtpx:hr></gpxtpx:TrackPointExtension></extensions></trkpt>
<trkpt lat="22.2930416" lon="114.2671095">
<ele>5</ele><time>2025-01-30T08:27:58.996Z</time><extensions><gpxtpx:TrackPointExtension><gpxtpx:hr>114</gpxtpx:hr></gpxtpx:TrackPointExtension></extensions></trkpt>
<trkpt lat="22.2929921" lon="114.2671085">
<ele>5</ele><time>2025-01-30T08:28:00.996Z</time><extensions><gpxtpx:TrackPointExtension><gpxtpx:hr>116</gpxtpx:hr></gpxtpx:TrackPointExtension></extensions></trkpt>
<trkpt lat="22.2929433" lon="114.2671217">
<ele>6</ele><time>2025-01-30T08:28:10.996Z</time><extensions><gpxtpx:TrackPointExtension><gpxtpx:hr>116</gpxtpx:hr></gpxtpx:TrackPointExtension></extensions></trkpt>
<trkpt lat="22.2928936" lon="114.2671191">
<ele>6</ele><time>2025-01-30T08:28:15.996Z</time><extensions><gpxtpx:TrackPointExtension><gpxtpx:hr>112</gpxtpx:hr></gpxtpx:TrackPointExtension></extensions></trkpt>
<trkpt lat="22.2928474" lon="114.2671235">
<ele>6</ele><time>2025-01-30T08:28:20.996Z</time><extensions><gpxtpx:TrackPointExtension><gpxtpx:hr>113</gpxtpx:hr></gpxtpx:TrackPointExtension></extensions></trkpt>
<trkpt lat="22.2928017" lon="114.2671324">
<ele>6</ele><time>2025-01-30T08:28:25.996Z</time><extensions><gpxtpx:TrackPointExtension><gpxtpx:hr>115</gpxtpx:hr></gpxtpx:TrackPointExtension></extensions></trkpt>
<trkpt lat="22.2927547" lon="114.2671299">
<ele>6</ele><time>2025-01-30T08:28:30.996Z</time><extensions><gpxtpx:TrackPointExtension><gpxtpx:hr>114</gpxtpx:hr></gpxtpx:TrackPointExtension></extensions></trkpt>
<trkpt lat="22.2927094" lon="114.2671278">
<ele>7</ele><time>2025-01-30T08:28:37.996Z</time><extensions><gpxtpx:TrackPointExtension><gpxtpx:hr>115</gpxtpx:hr></gpxtpx:TrackPointExtension></extensions></trkpt>
<trkpt lat="22.2926561" lon="114.2671206">
<ele>7</ele><time>2025-01-30T08:29:13.999Z</time><extensions><gpxtpx:TrackPointExtension><gpxtpx:hr>115</gpxtpx:hr></gpxtpx:TrackPointExtension></extensions></trkpt>
<trkpt lat="22.2926098" lon="114.2671214">
<ele>7</ele><time>2025-01-30T08:29:26.000Z</time><extensions><gpxtpx:TrackPointExtension><gpxtpx:hr>113</gpxtpx:hr></gpxtpx:TrackPointExtension></extensions></trkpt>
<trkpt lat="22.2925524" lon="114.2671175">
<ele>7</ele><time>2025-01-30T08:29:29.000Z</time><extensions><gpxtpx:TrackPointExtension><gpxtpx:hr>113</gpxtpx:hr></gpxtpx:TrackPointExtension></extensions></trkpt>
<trkpt lat="22.2925029" lon="114.2671222">
<ele>7</ele><time>2025-01-30T08:29:31.000Z</time><extensions><gpxtpx:TrackPointExtension><gpxtpx:hr>112</gpxtpx:hr></gpxtpx:TrackPointExtension></extensions></trkpt>
<trkpt lat="22.2924261" lon="114.2671227">
<ele>7</ele><time>2025-01-30T08:29:33.000Z</time><extensions><gpxtpx:TrackPointExtension><gpxtpx:hr>112</gpxtpx:hr></gpxtpx:TrackPointExtension></extensions></trkpt>
<trkpt lat="22.2923698" lon="114.2671211">
<ele>8</ele><time>2025-01-30T08:29:35.000Z</time><extensions><gpxtpx:TrackPointExtension><gpxtpx:hr>112</gpxtpx:hr></gpxtpx:TrackPointExtension></extensions></trkpt>
<trkpt lat="22.2923165" lon="114.2671231">
<ele>8</ele><time>2025-01-30T08:29:37.000Z</time><extensions><gpxtpx:TrackPointExtension><gpxtpx:hr>111</gpxtpx:hr></gpxtpx:TrackPointExtension></extensions></trkpt>
<trkpt lat="22.2922705" lon="114.2671264">
<ele>8</ele><time>2025-01-30T08:29:39.000Z</time><extensions><gpxtpx:TrackPointExtension><gpxtpx:hr>111</gpxtpx:hr></gpxtpx:TrackPointExtension></extensions></trkpt>
<trkpt lat="22.2922016" lon="114.2671228">
<ele>8</ele><time>2025-01-30T08:29:42.000Z</time><extensions><gpxtpx:TrackPointExtension><gpxtpx:hr>112</gpxtpx:hr></gpxtpx:TrackPointExtension></extensions></trkpt>
<trkpt lat="22.2921760" lon="114.2670760">
<ele>9</ele><time>2025-01-30T08:29:44.000Z</time><extensions><gpxtpx:TrackPointExtension><gpxtpx:hr>112</gpxtpx:hr></gpxtpx:TrackPointExtension></extensions></trkpt>
<trkpt lat="22.2921770" lon="114.2670273">
<ele>9</ele><time>2025-01-30T08:29:59.000Z</time><extensions><gpxtpx:TrackPointExtension><gpxtpx:hr>112</gpxtpx:hr></gpxtpx:TrackPointExtension></extensions></trkpt>
<trkpt lat="22.2921701" lon="114.2669779">
<ele>9</ele><time>2025-01-30T08:30:29.000Z</time><extensions><gpxtpx:TrackPointExtension><gpxtpx:hr>109</gpxtpx:hr></gpxtpx:TrackPointExtension></extensions></trkpt>
<trkpt lat="22.2921794" lon="114.2669298">
<ele>9</ele><time>2025-01-30T08:31:44.999Z</time><extensions><gpxtpx:TrackPointExtension><gpxtpx:hr>106</gpxtpx:hr></gpxtpx:TrackPointExtension></extensions></trkpt>
<trkpt lat="22.2921807" lon="114.2669793">
<ele>9</ele><time>2025-01-30T08:32:20.999Z</time><extensions><gpxtpx:TrackPointExtension><gpxtpx:hr>103</gpxtpx:hr></gpxtpx:TrackPointExtension></extensions></trkpt>
<trkpt lat="22.2921853" lon="114.2670321">
<ele>9</ele><time>2025-01-30T08:34:34.999Z</time><extensions><gpxtpx:TrackPointExtension><gpxtpx:hr>97</gpxtpx:hr></gpxtpx:TrackPointExtension></extensions></trkpt>
<trkpt lat="22.2921836" lon="114.2669820">
<ele>10</ele><time>2025-01-30T08:36:44.999Z</time><extensions><gpxtpx:TrackPointExtension><gpxtpx:hr>106</gpxtpx:hr></gpxtpx:TrackPointExtension></extensions></trkpt>
<trkpt lat="22.2921926" lon="114.2669159">
<ele>10</ele><time>2025-01-30T08:38:53.999Z</time><extensions><gpxtpx:TrackPointExtension><gpxtpx:hr>94</gpxtpx:hr></gpxtpx:TrackPointExtension></extensions></trkpt>
<trkpt lat="22.2921884" lon="114.2668472">
<ele>10</ele><time>2025-01-30T08:38:57.999Z</time><extensions><gpxtpx:TrackPointExtension><gpxtpx:hr>94</gpxtpx:hr></gpxtpx:TrackPointExtension></extensions></trkpt>
<trkpt lat="22.2921888" lon="114.2667945">
<ele>10</ele><time>2025-01-30T08:38:59.999Z</time><extensions><gpxtpx:TrackPointExtension><gpxtpx:hr>94</gpxtpx:hr></gpxtpx:TrackPointExtension></extensions></trkpt>
<trkpt lat="22.2921757" lon="114.2667360">
<ele>10</ele><time>2025-01-30T08:39:01.999Z</time><extensions><gpxtpx:TrackPointExtension><gpxtpx:hr>99</gpxtpx:hr></gpxtpx:TrackPointExtension></extensions></trkpt>
<trkpt lat="22.2921774" lon="114.2666708">
<ele>10</ele><time>2025-01-30T08:39:03.999Z</time><extensions><gpxtpx:TrackPointExtension><gpxtpx:hr>99</gpxtpx:hr></gpxtpx:TrackPointExtension></extensions></trkpt>
<trkpt lat="22.2921776" lon="114.2666126">
<ele>10</ele><time>2025-01-30T08:39:05.999Z</time><extensions><gpxtpx:TrackPointExtension><gpxtpx:hr>100</gpxtpx:hr></gpxtpx:TrackPointExtension></extensions></trkpt>
<trkpt lat="22.2921754" lon="114.2665624">
<ele>10</ele><time>2025-01-30T08:39:07.999Z</time><extensions><gpxtpx:TrackPointExtension><gpxtpx:hr>100</gpxtpx:hr></gpxtpx:TrackPointExtension></extensions></trkpt>
<trkpt lat="22.2921771" lon="114.2664955">
<ele>10</ele><time>2025-01-30T08:39:10.999Z</time><extensions><gpxtpx:TrackPointExtension><gpxtpx:hr>103</gpxtpx:hr></gpxtpx:TrackPointExtension></extensions></trkpt>
<trkpt lat="22.2921787" lon="114.2664461">
<ele>10</ele><time>2025-01-30T08:39:12.999Z</time><extensions><gpxtpx:TrackPointExtension><gpxtpx:hr>103</gpxtpx:hr></gpxtpx:TrackPointExtension></extensions></trkpt>
<trkpt lat="22.2921800" lon="114.2663766">
<ele>10</ele><time>2025-01-30T08:39:15.999Z</time><extensions><gpxtpx:TrackPointExtension><gpxtpx:hr>103</gpxtpx:hr></gpxtpx:TrackPointExtension></extensions></trkpt>
<trkpt lat="22.2921752" lon="114.2663088">
<ele>11</ele><time>2025-01-30T08:39:18.999Z</time><extensions><gpxtpx:TrackPointExtension><gpxtpx:hr>103</gpxtpx:hr></gpxtpx:TrackPointExtension></extensions></trkpt>
<trkpt lat="22.2921839" lon="114.2662546">
<ele>11</ele><time>2025-01-30T08:39:20.999Z</time><extensions><gpxtpx:TrackPointExtension><gpxtpx:hr>106</gpxtpx:hr></gpxtpx:TrackPointExtension></extensions></trkpt>
<trkpt lat="22.2921908" lon="114.2661882">
<ele>11</ele><time>2025-01-30T08:39:22.999Z</time><extensions><gpxtpx:TrackPointExtension><gpxtpx:hr>106</gpxtpx:hr></gpxtpx:TrackPointExtension></extensions></trkpt>
<trkpt lat="22.2921989" lon="114.2661127">
<ele>11</ele><time>2025-01-30T08:39:24.999Z</time><extensions><gpxtpx:TrackPointExtension><gpxtpx:hr>106</gpxtpx:hr></gpxtpx:TrackPointExtension></extensions></trkpt>
<trkpt lat="22.2921923" lon="114.2660294">
<ele>11</ele><time>2025-01-30T08:39:26.999Z</time><extensions><gpxtpx:TrackPointExtension><gpxtpx:hr>106</gpxtpx:hr></gpxtpx:TrackPointExtension></extensions></trkpt>
<trkpt lat="22.2921782" lon="114.2659410">
<ele>12</ele><time>2025-01-30T08:39:28.999Z</time><extensions><gpxtpx:TrackPointExtension><gpxtpx:hr>106</gpxtpx:hr></gpxtpx:TrackPointExtension></extensions></trkpt>
<trkpt lat="22.2921821" lon="114.2658642">
<ele>12</ele><time>2025-01-30T08:39:30.999Z</time><extensions><gpxtpx:TrackPointExtension><gpxtpx:hr>106</gpxtpx:hr></gpxtpx:TrackPointExtension></extensions></trkpt>
<trkpt lat="22.2921787" lon="114.2658124">
<ele>12</ele><time>2025-01-30T08:39:33.999Z</time><extensions><gpxtpx:TrackPointExtension><gpxtpx:hr>106</gpxtpx:hr></gpxtpx:TrackPointExtension></extensions></trkpt>
<trkpt lat="22.2921779" lon="114.2657510">
<ele>12</ele><time>2025-01-30T08:39:36.999Z</time><extensions><gpxtpx:TrackPointExtension><gpxtpx:hr>107</gpxtpx:hr></gpxtpx:TrackPointExtension></extensions></trkpt>
<trkpt lat="22.2921793" lon="114.2656955">
<ele>12</ele><time>2025-01-30T08:39:38.999Z</time><extensions><gpxtpx:TrackPointExtension><gpxtpx:hr>107</gpxtpx:hr></gpxtpx:TrackPointExtension></extensions></trkpt>
<trkpt lat="22.2921920" lon="114.2656178">
<ele>13</ele><time>2025-01-30T08:39:40.999Z</time><extensions><gpxtpx:TrackPointExtension><gpxtpx:hr>109</gpxtpx:hr></gpxtpx:TrackPointExtension></extensions></trkpt>
<trkpt lat="22.2921974" lon="114.2655245">
<ele>13</ele><time>2025-01-30T08:39:42.999Z</time><extensions><gpxtpx:TrackPointExtension><gpxtpx:hr>109</gpxtpx:hr></gpxtpx:TrackPointExtension></extensions></trkpt>
<trkpt lat="22.2922005" lon="114.2654720">
<ele>13</ele><time>2025-01-30T08:39:43.999Z</time><extensions><gpxtpx:TrackPointExtension><gpxtpx:hr>109</gpxtpx:hr></gpxtpx:TrackPointExtension></extensions></trkpt>
<trkpt lat="22.2922110" lon="114.2654183">
<ele>13</ele><time>2025-01-30T08:39:44.999Z</time><extensions><gpxtpx:TrackPointExtension><gpxtpx:hr>109</gpxtpx:hr></gpxtpx:TrackPointExtension></extensions></trkpt>
<trkpt lat="22.2922183" lon="114.2653603">
<ele>13</ele><time>2025-01-30T08:39:45.999Z</time><extensions><gpxtpx:TrackPointExtension><gpxtpx:hr>110</gpxtpx:hr></gpxtpx:TrackPointExtension></extensions></trkpt>
<trkpt lat="22.2922168" lon="114.2653040">
<ele>13</ele><time>2025-01-30T08:39:46.999Z</time><extensions><gpxtpx:TrackPointExtension><gpxtpx:hr>110</gpxtpx:hr></gpxtpx:TrackPointExtension></extensions></trkpt>
<trkpt lat="22.2922148" lon="114.2652459">
<ele>13</ele><time>2025-01-30T08:39:47.999Z</time><extensions><gpxtpx:TrackPointExtension><gpxtpx:hr>110</gpxtpx:hr></gpxtpx:TrackPointExtension></extensions></trkpt>
<trkpt lat="22.2922177" lon="114.2651819">
<ele>14</ele><time>2025-01-30T08:39:48.999Z</time><extensions><gpxtpx:TrackPointExtension><gpxtpx:hr>110</gpxtpx:hr></gpxtpx:TrackPointExtension></extensions></trkpt>
<trkpt lat="22.2922240" lon="114.2651228">
<ele>14</ele><time>2025-01-30T08:39:49.999Z</time><extensions><gpxtpx:TrackPointExtension><gpxtpx:hr>110</gpxtpx:hr></gpxtpx:TrackPointExtension></extensions></trkpt>
<trkpt lat="22.2922302" lon="114.2650586">
<ele>14</ele><time>2025-01-30T08:39:50.999Z</time><extensions><gpxtpx:TrackPointExtension><gpxtpx:hr>110</gpxtpx:hr></gpxtpx:TrackPointExtension></extensions></trkpt>
<trkpt lat="22.2922354" lon="114.2649951">
<ele>14</ele><time>2025-01-30T08:39:51.999Z</time><extensions><gpxtpx:TrackPointExtension><gpxtpx:hr>110</gpxtpx:hr></gpxtpx:TrackPointExtension></extensions></trkpt>
<trkpt lat="22.2922439" lon="114.2649356">
<ele>14</ele><time>2025-01-30T08:39:52.999Z</time><extensions><gpxtpx:TrackPointExtension><gpxtpx:hr>110</gpxtpx:hr></gpxtpx:TrackPointExtension></extensions></trkpt>
<trkpt lat="22.2922475" lon="114.2648762">
<ele>15</ele><time>2025-01-30T08:39:53.999Z</time><extensions><gpxtpx:TrackPointExtension><gpxtpx:hr>110</gpxtpx:hr></gpxtpx:TrackPointExtension></extensions></trkpt>
<trkpt lat="22.2922522" lon="114.2648233">
<ele>15</ele><time>2025-01-30T08:39:54.999Z</time><extensions><gpxtpx:TrackPointExtension><gpxtpx:hr>110</gpxtpx:hr></gpxtpx:TrackPointExtension></extensions></trkpt>
<trkpt lat="22.2922590" lon="114.2647711">
<ele>15</ele><time>2025-01-30T08:39:55.999Z</time><extensions><gpxtpx:TrackPointExtension><gpxtpx:hr>112</gpxtpx:hr></gpxtpx:TrackPointExtension></extensions></trkpt>
<trkpt lat="22.2922664" lon="114.2647214">
<ele>16</ele><time>2025-01-30T08:39:56.999Z</time><extensions><gpxtpx:TrackPointExtension><gpxtpx:hr>112</gpxtpx:hr></gpxtpx:TrackPointExtension></extensions></trkpt>
<trkpt lat="22.2922819" lon="114.2646317">
<ele>16</ele><time>2025-01-30T08:39:58.999Z</time><extensions><gpxtpx:TrackPointExtension><gpxtpx:hr>112</gpxtpx:hr></gpxtpx:TrackPointExtension></extensions></trkpt>
<trkpt lat="22.2922953" lon="114.2645507">
<ele>16</ele><time>2025-01-30T08:40:00.999Z</time><extensions><gpxtpx:TrackPointExtension><gpxtpx:hr>131</gpxtpx:hr></gpxtpx:TrackPointExtension></extensions></trkpt>
<trkpt lat="22.2923068" lon="114.2644756">
<ele>16</ele><time>2025-01-30T08:40:02.999Z</time><extensions><gpxtpx:TrackPointExtension><gpxtpx:hr>131</gpxtpx:hr></gpxtpx:TrackPointExtension></extensions></trkpt>
<trkpt lat="22.2923197" lon="114.2644052">
<ele>16</ele><time>2025-01-30T08:40:04.999Z</time><extensions><gpxtpx:TrackPointExtension><gpxtpx:hr>131</gpxtpx:hr></gpxtpx:TrackPointExtension></extensions></trkpt>
<trkpt lat="22.2923341" lon="114.2643383">
<ele>16</ele><time>2025-01-30T08:40:06.999Z</time><extensions><gpxtpx:TrackPointExtension><gpxtpx:hr>136</gpxtpx:hr></gpxtpx:TrackPointExtension></extensions></trkpt>
<trkpt lat="22.2923445" lon="114.2642634">
<ele>16</ele><time>2025-01-30T08:40:08.999Z</time><extensions><gpxtpx:TrackPointExtension><gpxtpx:hr>136</gpxtpx:hr></gpxtpx:TrackPointExtension></extensions></trkpt>
<trkpt lat="22.2923548" lon="114.2641907">
<ele>17</ele><time>2025-01-30T08:40:10.999Z</time><extensions><gpxtpx:TrackPointExtension><gpxtpx:hr>138</gpxtpx:hr></gpxtpx:TrackPointExtension></extensions></trkpt>
<trkpt lat="22.2923719" lon="114.2641260">
<ele>17</ele><time>2025-01-30T08:40:12.999Z</time><extensions><gpxtpx:TrackPointExtension><gpxtpx:hr>138</gpxtpx:hr></gpxtpx:TrackPointExtension></extensions></trkpt>
<trkpt lat="22.2923857" lon="114.2640646">
<ele>17</ele><time>2025-01-30T08:40:15.000Z</time><extensions><gpxtpx:TrackPointExtension><gpxtpx:hr>139</gpxtpx:hr></gpxtpx:TrackPointExtension></extensions></trkpt>
<trkpt lat="22.2923962" lon="114.2640102">
<ele>17</ele><time>2025-01-30T08:40:17.000Z</time><extensions><gpxtpx:TrackPointExtension><gpxtpx:hr>139</gpxtpx:hr></gpxtpx:TrackPointExtension></extensions></trkpt>
<trkpt lat="22.2924108" lon="114.2639587">
<ele>18</ele><time>2025-01-30T08:40:19.000Z</time><extensions><gpxtpx:TrackPointExtension><gpxtpx:hr>139</gpxtpx:hr></gpxtpx:TrackPointExtension></extensions></trkpt>
<trkpt lat="22.2924240" lon="114.2639085">
<ele>18</ele><time>2025-01-30T08:40:21.000Z</time><extensions><gpxtpx:TrackPointExtension><gpxtpx:hr>140</gpxtpx:hr></gpxtpx:TrackPointExtension></extensions></trkpt>
<trkpt lat="22.2924339" lon="114.2638580">
<ele>18</ele><time>2025-01-30T08:40:23.000Z</time><extensions><gpxtpx:TrackPointExtension><gpxtpx:hr>140</gpxtpx:hr></gpxtpx:TrackPointExtension></extensions></trkpt>
<trkpt lat="22.2924468" lon="114.2638076">
<ele>18</ele><time>2025-01-30T08:40:25.000Z</time><extensions><gpxtpx:TrackPointExtension><gpxtpx:hr>139</gpxtpx:hr></gpxtpx:TrackPointExtension></extensions></trkpt>
<trkpt lat="22.2924633" lon="114.2637455">
<ele>18</ele><time>2025-01-30T08:40:28.000Z</time><extensions><gpxtpx:TrackPointExtension><gpxtpx:hr>139</gpxtpx:hr></gpxtpx:TrackPointExtension></extensions></trkpt>
<trkpt lat="22.2924790" lon="114.2636854">
<ele>19</ele><time>2025-01-30T08:40:32.000Z</time><extensions><gpxtpx:TrackPointExtension><gpxtpx:hr>139</gpxtpx:hr></gpxtpx:TrackPointExtension></extensions></trkpt>
<trkpt lat="22.2924899" lon="114.2636341">
<ele>19</ele><time>2025-01-30T08:40:36.000Z</time><extensions><gpxtpx:TrackPointExtension><gpxtpx:hr>139</gpxtpx:hr></gpxtpx:TrackPointExtension></extensions></trkpt>
<trkpt lat="22.2925223" lon="114.2635991">
<ele>19</ele><time>2025-01-30T08:40:43.000Z</time><extensions><gpxtpx:TrackPointExtension><gpxtpx:hr>138</gpxtpx:hr></gpxtpx:TrackPointExtension></extensions></trkpt>
<trkpt lat="22.2925754" lon="114.2636155">
<ele>19</ele><time>2025-01-30T08:40:48.000Z</time><extensions><gpxtpx:TrackPointExtension><gpxtpx:hr>138</gpxtpx:hr></gpxtpx:TrackPointExtension></extensions></trkpt>
<trkpt lat="22.2925415" lon="114.2636557">
<ele>19</ele><time>2025-01-30T08:43:34.000Z</time><extensions><gpxtpx:TrackPointExtension><gpxtpx:hr>103</gpxtpx:hr></gpxtpx:TrackPointExtension></extensions></trkpt>
<trkpt lat="22.2925581" lon="114.2635940">
<ele>19</ele><time>2025-01-30T08:43:38.000Z</time><extensions><gpxtpx:TrackPointExtension><gpxtpx:hr>103</gpxtpx:hr></gpxtpx:TrackPointExtension></extensions></trkpt>
<trkpt lat="22.2925237" lon="114.2635608">
<ele>19</ele><time>2025-01-30T08:44:47.000Z</time><extensions><gpxtpx:TrackPointExtension><gpxtpx:hr>108</gpxtpx:hr></gpxtpx:TrackPointExtension></extensions></trkpt>
<trkpt lat="22.2925338" lon="114.2635125">
<ele>19</ele><time>2025-01-30T08:44:56.000Z</time><extensions><gpxtpx:TrackPointExtension><gpxtpx:hr>108</gpxtpx:hr></gpxtpx:TrackPointExtension></extensions></trkpt>
<trkpt lat="22.2925402" lon="114.2634502">
<ele>19</ele><time>2025-01-30T08:44:58.000Z</time><extensions><gpxtpx:TrackPointExtension><gpxtpx:hr>108</gpxtpx:hr></gpxtpx:TrackPointExtension></extensions></trkpt>
<trkpt lat="22.2925570" lon="114.2633914">
<ele>19</ele><time>2025-01-30T08:45:00.000Z</time><extensions><gpxtpx:TrackPointExtension><gpxtpx:hr>108</gpxtpx:hr></gpxtpx:TrackPointExtension></extensions></trkpt>
<trkpt lat="22.2925688" lon="114.2633285">
<ele>20</ele><time>2025-01-30T08:45:02.000Z</time><extensions><gpxtpx:TrackPointExtension><gpxtpx:hr>110</gpxtpx:hr></gpxtpx:TrackPointExtension></extensions></trkpt>
<trkpt lat="22.2925918" lon="114.2632613">
<ele>20</ele><time>2025-01-30T08:45:04.000Z</time><extensions><gpxtpx:TrackPointExtension><gpxtpx:hr>110</gpxtpx:hr></gpxtpx:TrackPointExtension></extensions></trkpt>
<trkpt lat="22.2926173" lon="114.2632030">
<ele>20</ele><time>2025-01-30T08:45:06.000Z</time><extensions><gpxtpx:TrackPointExtension><gpxtpx:hr>110</gpxtpx:hr></gpxtpx:TrackPointExtension></extensions></trkpt>
<trkpt lat="22.2926387" lon="114.2631400">
<ele>20</ele><time>2025-01-30T08:45:08.000Z</time><extensions><gpxtpx:TrackPointExtension><gpxtpx:hr>110</gpxtpx:hr></gpxtpx:TrackPointExtension></extensions></trkpt>
<trkpt lat="22.2926518" lon="114.2630728">
<ele>20</ele><time>2025-01-30T08:45:10.000Z</time><extensions><gpxtpx:TrackPointExtension><gpxtpx:hr>110</gpxtpx:hr></gpxtpx:TrackPointExtension></extensions></trkpt>
<trkpt lat="22.2926814" lon="114.2630035">
<ele>21</ele><time>2025-01-30T08:45:12.000Z</time><extensions><gpxtpx:TrackPointExtension><gpxtpx:hr>110</gpxtpx:hr></gpxtpx:TrackPointExtension></extensions></trkpt>
<trkpt lat="22.2927155" lon="114.2629198">
<ele>21</ele><time>2025-01-30T08:45:14.000Z</time><extensions><gpxtpx:TrackPointExtension><gpxtpx:hr>110</gpxtpx:hr></gpxtpx:TrackPointExtension></extensions></trkpt>
<trkpt lat="22.2927350" lon="114.2628717">
<ele>21</ele><time>2025-01-30T08:45:15.000Z</time><extensions><gpxtpx:TrackPointExtension><gpxtpx:hr>110</gpxtpx:hr></gpxtpx:TrackPointExtension></extensions></trkpt>
<trkpt lat="22.2927531" lon="114.2628232">
<ele>22</ele><time>2025-01-30T08:45:16.000Z</time><extensions><gpxtpx:TrackPointExtension><gpxtpx:hr>115</gpxtpx:hr></gpxtpx:TrackPointExtension></extensions></trkpt>
<trkpt lat="22.2927810" lon="114.2627432">
<ele>22</ele><time>2025-01-30T08:45:18.000Z</time><extensions><gpxtpx:TrackPointExtension><gpxtpx:hr>115</gpxtpx:hr></gpxtpx:TrackPointExtension></extensions></trkpt>
<trkpt lat="22.2928167" lon="114.2626632">
<ele>22</ele><time>2025-01-30T08:45:20.000Z</time><extensions><gpxtpx:TrackPointExtension><gpxtpx:hr>115</gpxtpx:hr></gpxtpx:TrackPointExtension></extensions></trkpt>
<trkpt lat="22.2928393" lon="114.2626187">
<ele>22</ele><time>2025-01-30T08:45:21.000Z</time><extensions><gpxtpx:TrackPointExtension><gpxtpx:hr>115</gpxtpx:hr></gpxtpx:TrackPointExtension></extensions></trkpt>
<trkpt lat="22.2928609" lon="114.2625706">
<ele>22</ele><time>2025-01-30T08:45:22.000Z</time><extensions><gpxtpx:TrackPointExtension><gpxtpx:hr>115</gpxtpx:hr></gpxtpx:TrackPointExtension></extensions></trkpt>
<trkpt lat="22.2928759" lon="114.2625223">
<ele>22</ele><time>2025-01-30T08:45:23.000Z</time><extensions><gpxtpx:TrackPointExtension><gpxtpx:hr>115</gpxtpx:hr></gpxtpx:TrackPointExtension></extensions></trkpt>
<trkpt lat="22.2928932" lon="114.2624676">
<ele>22</ele><time>2025-01-30T08:45:25.000Z</time><extensions><gpxtpx:TrackPointExtension><gpxtpx:hr>115</gpxtpx:hr></gpxtpx:TrackPointExtension></extensions></trkpt>
<trkpt lat="22.2929196" lon="114.2624102">
<ele>22</ele><time>2025-01-30T08:45:29.000Z</time><extensions><gpxtpx:TrackPointExtension><gpxtpx:hr>116</gpxtpx:hr></gpxtpx:TrackPointExtension></extensions></trkpt>
<trkpt lat="22.2929506" lon="114.2623534">
<ele>22</ele><time>2025-01-30T08:45:31.000Z</time><extensions><gpxtpx:TrackPointExtension><gpxtpx:hr>116</gpxtpx:hr></gpxtpx:TrackPointExtension></extensions></trkpt>
<trkpt lat="22.2929724" lon="114.2622854">
<ele>22</ele><time>2025-01-30T08:45:33.000Z</time><extensions><gpxtpx:TrackPointExtension><gpxtpx:hr>116</gpxtpx:hr></gpxtpx:TrackPointExtension></extensions></trkpt>
<trkpt lat="22.2929923" lon="114.2622135">
<ele>22</ele><time>2025-01-30T08:45:35.000Z</time><extensions><gpxtpx:TrackPointExtension><gpxtpx:hr>116</gpxtpx:hr></gpxtpx:TrackPointExtension></extensions></trkpt>
<trkpt lat="22.2930153" lon="114.2621516">
<ele>22</ele><time>2025-01-30T08:45:37.000Z</time><extensions><gpxtpx:TrackPointExtension><gpxtpx:hr>116</gpxtpx:hr></gpxtpx:TrackPointExtension></extensions></trkpt>
<trkpt lat="22.2930392" lon="114.2620915">
<ele>23</ele><time>2025-01-30T08:45:39.000Z</time><extensions><gpxtpx:TrackPointExtension><gpxtpx:hr>116</gpxtpx:hr></gpxtpx:TrackPointExtension></extensions></trkpt>
<trkpt lat="22.2930635" lon="114.2620334">
<ele>23</ele><time>2025-01-30T08:45:41.000Z</time><extensions><gpxtpx:TrackPointExtension><gpxtpx:hr>117</gpxtpx:hr></gpxtpx:TrackPointExtension></extensions></trkpt>
<trkpt lat="22.2930865" lon="114.2619774">
<ele>24</ele><time>2025-01-30T08:45:43.000Z</time><extensions><gpxtpx:TrackPointExtension><gpxtpx:hr>117</gpxtpx:hr></gpxtpx:TrackPointExtension></extensions></trkpt>
<trkpt lat="22.2931098" lon="114.2619244">
<ele>24</ele><time>2025-01-30T08:45:45.000Z</time><extensions><gpxtpx:TrackPointExtension><gpxtpx:hr>117</gpxtpx:hr></gpxtpx:TrackPointExtension></extensions></trkpt>
<trkpt lat="22.2931325" lon="114.2618720">
<ele>25</ele><time>2025-01-30T08:45:47.000Z</time><extensions><gpxtpx:TrackPointExtension><gpxtpx:hr>123</gpxtpx:hr></gpxtpx:TrackPointExtension></extensions></trkpt>
<trkpt lat="22.2931594" lon="114.2618205">
<ele>24</ele><time>2025-01-30T08:45:49.000Z</time><extensions><gpxtpx:TrackPointExtension><gpxtpx:hr>123</gpxtpx:hr></gpxtpx:TrackPointExtension></extensions></trkpt>
<trkpt lat="22.2931772" lon="114.2617605">
<ele>24</ele><time>2025-01-30T08:45:51.000Z</time><extensions><gpxtpx:TrackPointExtension><gpxtpx:hr>129</gpxtpx:hr></gpxtpx:TrackPointExtension></extensions></trkpt>
<trkpt lat="22.2931991" lon="114.2617134">
<ele>24</ele><time>2025-01-30T08:45:53.000Z</time><extensions><gpxtpx:TrackPointExtension><gpxtpx:hr>129</gpxtpx:hr></gpxtpx:TrackPointExtension></extensions></trkpt>
<trkpt lat="22.2932237" lon="114.2616481">
<ele>24</ele><time>2025-01-30T08:45:56.000Z</time><extensions><gpxtpx:TrackPointExtension><gpxtpx:hr>134</gpxtpx:hr></gpxtpx:TrackPointExtension></extensions></trkpt>
<trkpt lat="22.2932433" lon="114.2615974">
<ele>24</ele><time>2025-01-30T08:45:58.000Z</time><extensions><gpxtpx:TrackPointExtension><gpxtpx:hr>134</gpxtpx:hr></gpxtpx:TrackPointExtension></extensions></trkpt>
<trkpt lat="22.2932709" lon="114.2615475">
<ele>24</ele><time>2025-01-30T08:46:00.000Z</time><extensions><gpxtpx:TrackPointExtension><gpxtpx:hr>134</gpxtpx:hr></gpxtpx:TrackPointExtension></extensions></trkpt>
<trkpt lat="22.2932915" lon="114.2614989">
<ele>24</ele><time>2025-01-30T08:46:02.000Z</time><extensions><gpxtpx:TrackPointExtension><gpxtpx:hr>134</gpxtpx:hr></gpxtpx:TrackPointExtension></extensions></trkpt>
<trkpt lat="22.2933078" lon="114.2614498">
<ele>25</ele><time>2025-01-30T08:46:04.000Z</time><extensions><gpxtpx:TrackPointExtension><gpxtpx:hr>134</gpxtpx:hr></gpxtpx:TrackPointExtension></extensions></trkpt>
<trkpt lat="22.2933307" lon="114.2613941">
<ele>25</ele><time>2025-01-30T08:46:06.000Z</time><extensions><gpxtpx:TrackPointExtension><gpxtpx:hr>128</gpxtpx:hr></gpxtpx:TrackPointExtension></extensions></trkpt>
<trkpt lat="22.2933564" lon="114.2613339">
<ele>25</ele><time>2025-01-30T08:46:08.000Z</time><extensions><gpxtpx:TrackPointExtension><gpxtpx:hr>128</gpxtpx:hr></gpxtpx:TrackPointExtension></extensions></trkpt>
<trkpt lat="22.2933860" lon="114.2612691">
<ele>25</ele><time>2025-01-30T08:46:10.000Z</time><extensions><gpxtpx:TrackPointExtension><gpxtpx:hr>128</gpxtpx:hr></gpxtpx:TrackPointExtension></extensions></trkpt>
<trkpt lat="22.2934133" lon="114.2612056">
<ele>25</ele><time>2025-01-30T08:46:12.000Z</time><extensions><gpxtpx:TrackPointExtension><gpxtpx:hr>128</gpxtpx:hr></gpxtpx:TrackPointExtension></extensions></trkpt>
<trkpt lat="22.2934398" lon="114.2611420">
<ele>25</ele><time>2025-01-30T08:46:14.000Z</time><extensions><gpxtpx:TrackPointExtension><gpxtpx:hr>128</gpxtpx:hr></gpxtpx:TrackPointExtension></extensions></trkpt>
<trkpt lat="22.2934638" lon="114.2610863">
<ele>25</ele><time>2025-01-30T08:46:16.000Z</time><extensions><gpxtpx:TrackPointExtension><gpxtpx:hr>124</gpxtpx:hr></gpxtpx:TrackPointExtension></extensions></trkpt>
<trkpt lat="22.2934808" lon="114.2610342">
<ele>25</ele><time>2025-01-30T08:46:18.000Z</time><extensions><gpxtpx:TrackPointExtension><gpxtpx:hr>124</gpxtpx:hr></gpxtpx:TrackPointExtension></extensions></trkpt>
<trkpt lat="22.2935037" lon="114.2609896">
<ele>24</ele><time>2025-01-30T08:46:20.000Z</time><extensions><gpxtpx:TrackPointExtension><gpxtpx:hr>123</gpxtpx:hr></gpxtpx:TrackPointExtension></extensions></trkpt>
<trkpt lat="22.2935258" lon="114.2609449">
<ele>24</ele><time>2025-01-30T08:46:22.000Z</time><extensions><gpxtpx:TrackPointExtension><gpxtpx:hr>123</gpxtpx:hr></gpxtpx:TrackPointExtension></extensions></trkpt>
<trkpt lat="22.2935455" lon="114.2608866">
<ele>24</ele><time>2025-01-30T08:46:24.000Z</time><extensions><gpxtpx:TrackPointExtension><gpxtpx:hr>123</gpxtpx:hr></gpxtpx:TrackPointExtension></extensions></trkpt>
<trkpt lat="22.2935679" lon="114.2608386">
<ele>24</ele><time>2025-01-30T08:46:26.000Z</time><extensions><gpxtpx:TrackPointExtension><gpxtpx:hr>123</gpxtpx:hr></gpxtpx:TrackPointExtension></extensions></trkpt>
<trkpt lat="22.2935837" lon="114.2607912">
<ele>24</ele><time>2025-01-30T08:46:29.000Z</time><extensions><gpxtpx:TrackPointExtension><gpxtpx:hr>123</gpxtpx:hr></gpxtpx:TrackPointExtension></extensions></trkpt>
<trkpt lat="22.2936079" lon="114.2607448">
<ele>24</ele><time>2025-01-30T08:46:33.000Z</time><extensions><gpxtpx:TrackPointExtension><gpxtpx:hr>123</gpxtpx:hr></gpxtpx:TrackPointExtension></extensions></trkpt>
<trkpt lat="22.2936332" lon="114.2607009">
<ele>24</ele><time>2025-01-30T08:47:34.000Z</time><extensions><gpxtpx:TrackPointExtension><gpxtpx:hr>121</gpxtpx:hr></gpxtpx:TrackPointExtension></extensions></trkpt>
<trkpt lat="22.2936711" lon="114.2607339">
<ele>24</ele><time>2025-01-30T08:48:02.000Z</time><extensions><gpxtpx:TrackPointExtension><gpxtpx:hr>111</gpxtpx:hr></gpxtpx:TrackPointExtension></extensions></trkpt>
<trkpt lat="22.2936261" lon="114.2607459">
<ele>24</ele><time>2025-01-30T08:49:39.999Z</time><extensions><gpxtpx:TrackPointExtension><gpxtpx:hr>103</gpxtpx:hr></gpxtpx:TrackPointExtension></extensions></trkpt>
<trkpt lat="22.2936532" lon="114.2606624">
<ele>24</ele><time>2025-01-30T08:49:45.999Z</time><extensions><gpxtpx:TrackPointExtension><gpxtpx:hr>102</gpxtpx:hr></gpxtpx:TrackPointExtension></extensions></trkpt>
<trkpt lat="22.2936803" lon="114.2605931">
<ele>24</ele><time>2025-01-30T08:49:47.999Z</time><extensions><gpxtpx:TrackPointExtension><gpxtpx:hr>102</gpxtpx:hr></gpxtpx:TrackPointExtension></extensions></trkpt>
<trkpt lat="22.2937191" lon="114.2605170">
<ele>24</ele><time>2025-01-30T08:49:49.999Z</time><extensions><gpxtpx:TrackPointExtension><gpxtpx:hr>102</gpxtpx:hr></gpxtpx:TrackPointExtension></extensions></trkpt>
<trkpt lat="22.2937381" lon="114.2604703">
<ele>24</ele><time>2025-01-30T08:49:50.999Z</time><extensions><gpxtpx:TrackPointExtension><gpxtpx:hr>108</gpxtpx:hr></gpxtpx:TrackPointExtension></extensions></trkpt>
<trkpt lat="22.2937566" lon="114.2604161">
<ele>24</ele><time>2025-01-30T08:49:51.999Z</time><extensions><gpxtpx:TrackPointExtension><gpxtpx:hr>108</gpxtpx:hr></gpxtpx:TrackPointExtension></extensions></trkpt>
<trkpt lat="22.2937754" lon="114.2603597">
<ele>24</ele><time>2025-01-30T08:49:52.999Z</time><extensions><gpxtpx:TrackPointExtension><gpxtpx:hr>108</gpxtpx:hr></gpxtpx:TrackPointExtension></extensions></trkpt>
<trkpt lat="22.2937953" lon="114.2603069">
<ele>24</ele><time>2025-01-30T08:49:53.999Z</time><extensions><gpxtpx:TrackPointExtension><gpxtpx:hr>108</gpxtpx:hr></gpxtpx:TrackPointExtension></extensions></trkpt>
<trkpt lat="22.2938158" lon="114.2602534">
<ele>24</ele><time>2025-01-30T08:49:54.999Z</time><extensions><gpxtpx:TrackPointExtension><gpxtpx:hr>108</gpxtpx:hr></gpxtpx:TrackPointExtension></extensions></trkpt>
<trkpt lat="22.2938363" lon="114.2602011">
<ele>24</ele><time>2025-01-30T08:49:55.999Z</time><extensions><gpxtpx:TrackPointExtension><gpxtpx:hr>109</gpxtpx:hr></gpxtpx:TrackPointExtension></extensions></trkpt>
<trkpt lat="22.2938560" lon="114.2601504">
<ele>24</ele><time>2025-01-30T08:49:56.999Z</time><extensions><gpxtpx:TrackPointExtension><gpxtpx:hr>109</gpxtpx:hr></gpxtpx:TrackPointExtension></extensions></trkpt>
<trkpt lat="22.2938790" lon="114.2600997">
<ele>24</ele><time>2025-01-30T08:49:57.999Z</time><extensions><gpxtpx:TrackPointExtension><gpxtpx:hr>109</gpxtpx:hr></gpxtpx:TrackPointExtension></extensions></trkpt>
<trkpt lat="22.2939008" lon="114.2600487">
<ele>24</ele><time>2025-01-30T08:49:58.999Z</time><extensions><gpxtpx:TrackPointExtension><gpxtpx:hr>109</gpxtpx:hr></gpxtpx:TrackPointExtension></extensions></trkpt>
<trkpt lat="22.2939235" lon="114.2599993">
<ele>24</ele><time>2025-01-30T08:49:59.999Z</time><extensions><gpxtpx:TrackPointExtension><gpxtpx:hr>109</gpxtpx:hr></gpxtpx:TrackPointExtension></extensions></trkpt>
<trkpt lat="22.2939457" lon="114.2599478">
<ele>24</ele><time>2025-01-30T08:50:00.999Z</time><extensions><gpxtpx:TrackPointExtension><gpxtpx:hr>112</gpxtpx:hr></gpxtpx:TrackPointExtension></extensions></trkpt>
<trkpt lat="22.2939724" lon="114.2598653">
<ele>23</ele><time>2025-01-30T08:50:02.999Z</time><extensions><gpxtpx:TrackPointExtension><gpxtpx:hr>112</gpxtpx:hr></gpxtpx:TrackPointExtension></extensions></trkpt>
<trkpt lat="22.2940092" lon="114.2597806">
<ele>23</ele><time>2025-01-30T08:50:04.999Z</time><extensions><gpxtpx:TrackPointExtension><gpxtpx:hr>112</gpxtpx:hr></gpxtpx:TrackPointExtension></extensions></trkpt>
<trkpt lat="22.2940478" lon="114.2596911">
<ele>22</ele><time>2025-01-30T08:50:06.999Z</time><extensions><gpxtpx:TrackPointExtension><gpxtpx:hr>112</gpxtpx:hr></gpxtpx:TrackPointExtension></extensions></trkpt>
<trkpt lat="22.2940639" lon="114.2596439">
<ele>22</ele><time>2025-01-30T08:50:07.999Z</time><extensions><gpxtpx:TrackPointExtension><gpxtpx:hr>112</gpxtpx:hr></gpxtpx:TrackPointExtension></extensions></trkpt>
<trkpt lat="22.2940991" lon="114.2595586">
<ele>22</ele><time>2025-01-30T08:50:09.999Z</time><extensions><gpxtpx:TrackPointExtension><gpxtpx:hr>112</gpxtpx:hr></gpxtpx:TrackPointExtension></extensions></trkpt>
<trkpt lat="22.2941290" lon="114.2594924">
<ele>22</ele><time>2025-01-30T08:50:11.999Z</time><extensions><gpxtpx:TrackPointExtension><gpxtpx:hr>114</gpxtpx:hr></gpxtpx:TrackPointExtension></extensions></trkpt>
<trkpt lat="22.2941556" lon="114.2594402">
<ele>22</ele><time>2025-01-30T08:50:13.999Z</time><extensions><gpxtpx:TrackPointExtension><gpxtpx:hr>114</gpxtpx:hr></gpxtpx:TrackPointExtension></extensions></trkpt>
<trkpt lat="22.2941842" lon="114.2593878">
<ele>22</ele><time>2025-01-30T08:50:15.999Z</time><extensions><gpxtpx:TrackPointExtension><gpxtpx:hr>114</gpxtpx:hr></gpxtpx:TrackPointExtension></extensions></trkpt>
<trkpt lat="22.2942298" lon="114.2593346">
<ele>22</ele><time>2025-01-30T08:50:17.999Z</time><extensions><gpxtpx:TrackPointExtension><gpxtpx:hr>114</gpxtpx:hr></gpxtpx:TrackPointExtension></extensions></trkpt>
<trkpt lat="22.2942490" lon="114.2592839">
<ele>22</ele><time>2025-01-30T08:50:18.999Z</time><extensions><gpxtpx:TrackPointExtension><gpxtpx:hr>114</gpxtpx:hr></gpxtpx:TrackPointExtension></extensions></trkpt>
<trkpt lat="22.2942674" lon="114.2592220">
<ele>22</ele><time>2025-01-30T08:50:19.999Z</time><extensions><gpxtpx:TrackPointExtension><gpxtpx:hr>114</gpxtpx:hr></gpxtpx:TrackPointExtension></extensions></trkpt>
<trkpt lat="22.2942898" lon="114.2591564">
<ele>21</ele><time>2025-01-30T08:50:20.999Z</time><extensions><gpxtpx:TrackPointExtension><gpxtpx:hr>113</gpxtpx:hr></gpxtpx:TrackPointExtension></extensions></trkpt>
<trkpt lat="22.2943105" lon="114.2590920">
<ele>21</ele><time>2025-01-30T08:50:21.999Z</time><extensions><gpxtpx:TrackPointExtension><gpxtpx:hr>113</gpxtpx:hr></gpxtpx:TrackPointExtension></extensions></trkpt>
<trkpt lat="22.2943305" lon="114.2590270">
<ele>21</ele><time>2025-01-30T08:50:22.999Z</time><extensions><gpxtpx:TrackPointExtension><gpxtpx:hr>113</gpxtpx:hr></gpxtpx:TrackPointExtension></extensions></trkpt>
<trkpt lat="22.2943614" lon="114.2589698">
<ele>20</ele><time>2025-01-30T08:50:23.999Z</time><extensions><gpxtpx:TrackPointExtension><gpxtpx:hr>113</gpxtpx:hr></gpxtpx:TrackPointExtension></extensions></trkpt>
<trkpt lat="22.2943927" lon="114.2589117">
<ele>20</ele><time>2025-01-30T08:50:24.999Z</time><extensions><gpxtpx:TrackPointExtension><gpxtpx:hr>113</gpxtpx:hr></gpxtpx:TrackPointExtension></extensions></trkpt>
<trkpt lat="22.2944179" lon="114.2588530">
<ele>20</ele><time>2025-01-30T08:50:25.999Z</time><extensions><gpxtpx:TrackPointExtension><gpxtpx:hr>112</gpxtpx:hr></gpxtpx:TrackPointExtension></extensions></trkpt>
<trkpt lat="22.2944403" lon="114.2587944">
<ele>20</ele><time>2025-01-30T08:50:26.999Z</time><extensions><gpxtpx:TrackPointExtension><gpxtpx:hr>112</gpxtpx:hr></gpxtpx:TrackPointExtension></extensions></trkpt>
<trkpt lat="22.2944628" lon="114.2587398">
<ele>20</ele><time>2025-01-30T08:50:27.999Z</time><extensions><gpxtpx:TrackPointExtension><gpxtpx:hr>112</gpxtpx:hr></gpxtpx:TrackPointExtension></extensions></trkpt>
<trkpt lat="22.2944847" lon="114.2586843">
<ele>20</ele><time>2025-01-30T08:50:28.999Z</time><extensions><gpxtpx:TrackPointExtension><gpxtpx:hr>112</gpxtpx:hr></gpxtpx:TrackPointExtension></extensions></trkpt>
<trkpt lat="22.2945101" lon="114.2586326">
<ele>20</ele><time>2025-01-30T08:50:29.999Z</time><extensions><gpxtpx:TrackPointExtension><gpxtpx:hr>112</gpxtpx:hr></gpxtpx:TrackPointExtension></extensions></trkpt>
<trkpt lat="22.2945339" lon="114.2585817">
<ele>20</ele><time>2025-01-30T08:50:30.999Z</time><extensions><gpxtpx:TrackPointExtension><gpxtpx:hr>113</gpxtpx:hr></gpxtpx:TrackPointExtension></extensions></trkpt>
<trkpt lat="22.2945578" lon="114.2585322">
<ele>20</ele><time>2025-01-30T08:50:31.999Z</time><extensions><gpxtpx:TrackPointExtension><gpxtpx:hr>113</gpxtpx:hr></gpxtpx:TrackPointExtension></extensions></trkpt>
<trkpt lat="22.2945818" lon="114.2584816">
<ele>20</ele><time>2025-01-30T08:50:32.999Z</time><extensions><gpxtpx:TrackPointExtension><gpxtpx:hr>113</gpxtpx:hr></gpxtpx:TrackPointExtension></extensions></trkpt>
<trkpt lat="22.2946013" lon="114.2584290">
<ele>20</ele><time>2025-01-30T08:50:33.999Z</time><extensions><gpxtpx:TrackPointExtension><gpxtpx:hr>113</gpxtpx:hr></gpxtpx:TrackPointExtension></extensions></trkpt>
<trkpt lat="22.2946240" lon="114.2583783">
<ele>20</ele><time>2025-01-30T08:50:34.999Z</time><extensions><gpxtpx:TrackPointExtension><gpxtpx:hr>113</gpxtpx:hr></gpxtpx:TrackPointExtension></extensions></trkpt>
<trkpt lat="22.2946522" lon="114.2583326">
<ele>20</ele><time>2025-01-30T08:50:35.999Z</time><extensions><gpxtpx:TrackPointExtension><gpxtpx:hr>116</gpxtpx:hr></gpxtpx:TrackPointExtension></extensions></trkpt>
<trkpt lat="22.2946794" lon="114.2582842">
<ele>20</ele><time>2025-01-30T08:50:36.999Z</time><extensions><gpxtpx:TrackPointExtension><gpxtpx:hr>116</gpxtpx:hr></gpxtpx:TrackPointExtension></extensions></trkpt>
<trkpt lat="22.2947009" lon="114.2582379">
<ele>20</ele><time>2025-01-30T08:50:37.999Z</time><extensions><gpxtpx:TrackPointExtension><gpxtpx:hr>116</gpxtpx:hr></gpxtpx:TrackPointExtension></extensions></trkpt>
<trkpt lat="22.2947197" lon="114.2581882">
<ele>20</ele><time>2025-01-30T08:50:38.999Z</time><extensions><gpxtpx:TrackPointExtension><gpxtpx:hr>116</gpxtpx:hr></gpxtpx:TrackPointExtension></extensions></trkpt>
<trkpt lat="22.2947372" lon="114.2581391">
<ele>21</ele><time>2025-01-30T08:50:39.999Z</time><extensions><gpxtpx:TrackPointExtension><gpxtpx:hr>116</gpxtpx:hr></gpxtpx:TrackPointExtension></extensions></trkpt>
<trkpt lat="22.2947552" lon="114.2580928">
<ele>20</ele><time>2025-01-30T08:50:40.999Z</time><extensions><gpxtpx:TrackPointExtension><gpxtpx:hr>115</gpxtpx:hr></gpxtpx:TrackPointExtension></extensions></trkpt>
<trkpt lat="22.2947977" lon="114.2580104">
<ele>20</ele><time>2025-01-30T08:50:42.999Z</time><extensions><gpxtpx:TrackPointExtension><gpxtpx:hr>115</gpxtpx:hr></gpxtpx:TrackPointExtension></extensions></trkpt>
<trkpt lat="22.2948449" lon="114.2579304">
<ele>20</ele><time>2025-01-30T08:50:44.999Z</time><extensions><gpxtpx:TrackPointExtension><gpxtpx:hr>115</gpxtpx:hr></gpxtpx:TrackPointExtension></extensions></trkpt>
<trkpt lat="22.2948883" lon="114.2578498">
<ele>19</ele><time>2025-01-30T08:50:46.999Z</time><extensions><gpxtpx:TrackPointExtension><gpxtpx:hr>114</gpxtpx:hr></gpxtpx:TrackPointExtension></extensions></trkpt>
<trkpt lat="22.2949225" lon="114.2577651">
<ele>19</ele><time>2025-01-30T08:50:48.999Z</time><extensions><gpxtpx:TrackPointExtension><gpxtpx:hr>114</gpxtpx:hr></gpxtpx:TrackPointExtension></extensions></trkpt>
<trkpt lat="22.2949689" lon="114.2576917">
<ele>19</ele><time>2025-01-30T08:50:50.999Z</time><extensions><gpxtpx:TrackPointExtension><gpxtpx:hr>113</gpxtpx:hr></gpxtpx:TrackPointExtension></extensions></trkpt>
<trkpt lat="22.2950172" lon="114.2576219">
<ele>19</ele><time>2025-01-30T08:50:52.999Z</time><extensions><gpxtpx:TrackPointExtension><gpxtpx:hr>113</gpxtpx:hr></gpxtpx:TrackPointExtension></extensions></trkpt>
<trkpt lat="22.2950531" lon="114.2575454">
<ele>18</ele><time>2025-01-30T08:50:54.999Z</time><extensions><gpxtpx:TrackPointExtension><gpxtpx:hr>112</gpxtpx:hr></gpxtpx:TrackPointExtension></extensions></trkpt>
<trkpt lat="22.2950947" lon="114.2574758">
<ele>18</ele><time>2025-01-30T08:50:56.999Z</time><extensions><gpxtpx:TrackPointExtension><gpxtpx:hr>112</gpxtpx:hr></gpxtpx:TrackPointExtension></extensions></trkpt>
<trkpt lat="22.2951395" lon="114.2574198">
<ele>18</ele><time>2025-01-30T08:50:58.999Z</time><extensions><gpxtpx:TrackPointExtension><gpxtpx:hr>112</gpxtpx:hr></gpxtpx:TrackPointExtension></extensions></trkpt>
<trkpt lat="22.2951894" lon="114.2573564">
<ele>18</ele><time>2025-01-30T08:51:00.999Z</time><extensions><gpxtpx:TrackPointExtension><gpxtpx:hr>111</gpxtpx:hr></gpxtpx:TrackPointExtension></extensions></trkpt>
<trkpt lat="22.2952450" lon="114.2572868">
<ele>18</ele><time>2025-01-30T08:51:02.999Z</time><extensions><gpxtpx:TrackPointExtension><gpxtpx:hr>111</gpxtpx:hr></gpxtpx:TrackPointExtension></extensions></trkpt>
<trkpt lat="22.2952776" lon="114.2572506">
<ele>18</ele><time>2025-01-30T08:51:03.999Z</time><extensions><gpxtpx:TrackPointExtension><gpxtpx:hr>111</gpxtpx:hr></gpxtpx:TrackPointExtension></extensions></trkpt>
<trkpt lat="22.2953101" lon="114.2572144">
<ele>18</ele><time>2025-01-30T08:51:04.999Z</time><extensions><gpxtpx:TrackPointExtension><gpxtpx:hr>111</gpxtpx:hr></gpxtpx:TrackPointExtension></extensions></trkpt>
<trkpt lat="22.2953451" lon="114.2571797">
<ele>18</ele><time>2025-01-30T08:51:05.999Z</time><extensions><gpxtpx:TrackPointExtension><gpxtpx:hr>111</gpxtpx:hr></gpxtpx:TrackPointExtension></extensions></trkpt>
<trkpt lat="22.2953807" lon="114.2571449">
<ele>17</ele><time>2025-01-30T08:51:06.999Z</time><extensions><gpxtpx:TrackPointExtension><gpxtpx:hr>111</gpxtpx:hr></gpxtpx:TrackPointExtension></extensions></trkpt>
<trkpt lat="22.2954174" lon="114.2571104">
<ele>17</ele><time>2025-01-30T08:51:07.999Z</time><extensions><gpxtpx:TrackPointExtension><gpxtpx:hr>111</gpxtpx:hr></gpxtpx:TrackPointExtension></extensions></trkpt>
<trkpt lat="22.2954580" lon="114.2570784">
<ele>17</ele><time>2025-01-30T08:51:08.999Z</time><extensions><gpxtpx:TrackPointExtension><gpxtpx:hr>111</gpxtpx:hr></gpxtpx:TrackPointExtension></extensions></trkpt>
<trkpt lat="22.2955002" lon="114.2570486">
<ele>17</ele><time>2025-01-30T08:51:09.999Z</time><extensions><gpxtpx:TrackPointExtension><gpxtpx:hr>109</gpxtpx:hr></gpxtpx:TrackPointExtension></extensions></trkpt>
<trkpt lat="22.2955411" lon="114.2570189">
<ele>17</ele><time>2025-01-30T08:51:10.999Z</time><extensions><gpxtpx:TrackPointExtension><gpxtpx:hr>109</gpxtpx:hr></gpxtpx:TrackPointExtension></extensions></trkpt>
<trkpt lat="22.2955851" lon="114.2569870">
<ele>17</ele><time>2025-01-30T08:51:11.999Z</time><extensions><gpxtpx:TrackPointExtension><gpxtpx:hr>109</gpxtpx:hr></gpxtpx:TrackPointExtension></extensions></trkpt>
<trkpt lat="22.2956283" lon="114.2569563">
<ele>17</ele><time>2025-01-30T08:51:12.999Z</time><extensions><gpxtpx:TrackPointExtension><gpxtpx:hr>109</gpxtpx:hr></gpxtpx:TrackPointExtension></extensions></trkpt>
<trkpt lat="22.2956732" lon="114.2569242">
<ele>17</ele><time>2025-01-30T08:51:13.999Z</time><extensions><gpxtpx:TrackPointExtension><gpxtpx:hr>109</gpxtpx:hr></gpxtpx:TrackPointExtension></extensions></trkpt>
<trkpt lat="22.2957198" lon="114.2568975">
<ele>16</ele><time>2025-01-30T08:51:14.999Z</time><extensions><gpxtpx:TrackPointExtension><gpxtpx:hr>109</gpxtpx:hr></gpxtpx:TrackPointExtension></extensions></trkpt>
<trkpt lat="22.2957677" lon="114.2568693">
<ele>16</ele><time>2025-01-30T08:51:15.999Z</time><extensions><gpxtpx:TrackPointExtension><gpxtpx:hr>109</gpxtpx:hr></gpxtpx:TrackPointExtension></extensions></trkpt>
<trkpt lat="22.2958101" lon="114.2568362">
<ele>15</ele><time>2025-01-30T08:51:16.999Z</time><extensions><gpxtpx:TrackPointExtension><gpxtpx:hr>109</gpxtpx:hr></gpxtpx:TrackPointExtension></extensions></trkpt>
<trkpt lat="22.2958573" lon="114.2568031">
<ele>15</ele><time>2025-01-30T08:51:17.999Z</time><extensions><gpxtpx:TrackPointExtension><gpxtpx:hr>109</gpxtpx:hr></gpxtpx:TrackPointExtension></extensions></trkpt>
<trkpt lat="22.2959046" lon="114.2567732">
<ele>15</ele><time>2025-01-30T08:51:18.999Z</time><extensions><gpxtpx:TrackPointExtension><gpxtpx:hr>109</gpxtpx:hr></gpxtpx:TrackPointExtension></extensions></trkpt>
<trkpt lat="22.2959494" lon="114.2567433">
<ele>15</ele><time>2025-01-30T08:51:19.999Z</time><extensions><gpxtpx:TrackPointExtension><gpxtpx:hr>106</gpxtpx:hr></gpxtpx:TrackPointExtension></extensions></trkpt>
<trkpt lat="22.2959952" lon="114.2567149">
<ele>15</ele><time>2025-01-30T08:51:20.999Z</time><extensions><gpxtpx:TrackPointExtension><gpxtpx:hr>106</gpxtpx:hr></gpxtpx:TrackPointExtension></extensions></trkpt>
<trkpt lat="22.2960418" lon="114.2566830">
<ele>15</ele><time>2025-01-30T08:51:21.999Z</time><extensions><gpxtpx:TrackPointExtension><gpxtpx:hr>106</gpxtpx:hr></gpxtpx:TrackPointExtension></extensions></trkpt>
<trkpt lat="22.2960900" lon="114.2566503">
<ele>14</ele><time>2025-01-30T08:51:22.999Z</time><extensions><gpxtpx:TrackPointExtension><gpxtpx:hr>106</gpxtpx:hr></gpxtpx:TrackPointExtension></extensions></trkpt>
<trkpt lat="22.2961369" lon="114.2566195">
<ele>14</ele><time>2025-01-30T08:51:23.999Z</time><extensions><gpxtpx:TrackPointExtension><gpxtpx:hr>106</gpxtpx:hr></gpxtpx:TrackPointExtension></extensions></trkpt>
<trkpt lat="22.2961847" lon="114.2565901">
<ele>14</ele><time>2025-01-30T08:51:24.999Z</time><extensions><gpxtpx:TrackPointExtension><gpxtpx:hr>106</gpxtpx:hr></gpxtpx:TrackPointExtension></extensions></trkpt>
<trkpt lat="22.2962328" lon="114.2565617">
<ele>14</ele><time>2025-01-30T08:51:25.999Z</time><extensions><gpxtpx:TrackPointExtension><gpxtpx:hr>106</gpxtpx:hr></gpxtpx:TrackPointExtension></extensions></trkpt>
<trkpt lat="22.2962796" lon="114.2565304">
<ele>14</ele><time>2025-01-30T08:51:26.999Z</time><extensions><gpxtpx:TrackPointExtension><gpxtpx:hr>106</gpxtpx:hr></gpxtpx:TrackPointExtension></extensions></trkpt>
<trkpt lat="22.2963269" lon="114.2564977">
<ele>14</ele><time>2025-01-30T08:51:27.999Z</time><extensions><gpxtpx:TrackPointExtension><gpxtpx:hr>106</gpxtpx:hr></gpxtpx:TrackPointExtension></extensions></trkpt>
<trkpt lat="22.2963754" lon="114.2564658">
<ele>14</ele><time>2025-01-30T08:51:28.999Z</time><extensions><gpxtpx:TrackPointExtension><gpxtpx:hr>106</gpxtpx:hr></gpxtpx:TrackPointExtension></extensions></trkpt>
<trkpt lat="22.2964222" lon="114.2564338">
<ele>13</ele><time>2025-01-30T08:51:29.999Z</time><extensions><gpxtpx:TrackPointExtension><gpxtpx:hr>106</gpxtpx:hr></gpxtpx:TrackPointExtension></extensions></trkpt>
<trkpt lat="22.2964696" lon="114.2564042">
<ele>13</ele><time>2025-01-30T08:51:30.999Z</time><extensions><gpxtpx:TrackPointExtension><gpxtpx:hr>106</gpxtpx:hr></gpxtpx:TrackPointExtension></extensions></trkpt>
<trkpt lat="22.2965182" lon="114.2563724">
<ele>13</ele><time>2025-01-30T08:51:31.999Z</time><extensions><gpxtpx:TrackPointExtension><gpxtpx:hr>106</gpxtpx:hr></gpxtpx:TrackPointExtension></extensions></trkpt>
<trkpt lat="22.2965647" lon="114.2563451">
<ele>13</ele><time>2025-01-30T08:51:32.999Z</time><extensions><gpxtpx:TrackPointExtension><gpxtpx:hr>106</gpxtpx:hr></gpxtpx:TrackPointExtension></extensions></trkpt>
<trkpt lat="22.2966050" lon="114.2563170">
<ele>13</ele><time>2025-01-30T08:51:33.999Z</time><extensions><gpxtpx:TrackPointExtension><gpxtpx:hr>106</gpxtpx:hr></gpxtpx:TrackPointExtension></extensions></trkpt>
<trkpt lat="22.2966491" lon="114.2562892">
<ele>12</ele><time>2025-01-30T08:51:34.999Z</time><extensions><gpxtpx:TrackPointExtension><gpxtpx:hr>104</gpxtpx:hr></gpxtpx:TrackPointExtension></extensions></trkpt>
<trkpt lat="22.2966955" lon="114.2562654">
<ele>12</ele><time>2025-01-30T08:51:35.999Z</time><extensions><gpxtpx:TrackPointExtension><gpxtpx:hr>104</gpxtpx:hr></gpxtpx:TrackPointExtension></extensions></trkpt>
<trkpt lat="22.2967439" lon="114.2562420">
<ele>12</ele><time>2025-01-30T08:51:36.999Z</time><extensions><gpxtpx:TrackPointExtension><gpxtpx:hr>104</gpxtpx:hr></gpxtpx:TrackPointExtension></extensions></trkpt>
<trkpt lat="22.2967924" lon="114.2562193">
<ele>12</ele><time>2025-01-30T08:51:37.999Z</time><extensions><gpxtpx:TrackPointExtension><gpxtpx:hr>104</gpxtpx:hr></gpxtpx:TrackPointExtension></extensions></trkpt>
<trkpt lat="22.2968418" lon="114.2561956">
<ele>12</ele><time>2025-01-30T08:51:38.999Z</time><extensions><gpxtpx:TrackPointExtension><gpxtpx:hr>104</gpxtpx:hr></gpxtpx:TrackPointExtension></extensions></trkpt>
<trkpt lat="22.2968923" lon="114.2561724">
<ele>12</ele><time>2025-01-30T08:51:39.999Z</time><extensions><gpxtpx:TrackPointExtension><gpxtpx:hr>104</gpxtpx:hr></gpxtpx:TrackPointExtension></extensions></trkpt>
<trkpt lat="22.2969433" lon="114.2561485">
<ele>11</ele><time>2025-01-30T08:51:40.999Z</time><extensions><gpxtpx:TrackPointExtension><gpxtpx:hr>103</gpxtpx:hr></gpxtpx:TrackPointExtension></extensions></trkpt>
<trkpt lat="22.2969947" lon="114.2561269">
<ele>11</ele><time>2025-01-30T08:51:41.999Z</time><extensions><gpxtpx:TrackPointExtension><gpxtpx:hr>103</gpxtpx:hr></gpxtpx:TrackPointExtension></extensions></trkpt>
<trkpt lat="22.2970480" lon="114.2561074">
<ele>11</ele><time>2025-01-30T08:51:42.999Z</time><extensions><gpxtpx:TrackPointExtension><gpxtpx:hr>103</gpxtpx:hr></gpxtpx:TrackPointExtension></extensions></trkpt>
<trkpt lat="22.2971036" lon="114.2560897">
<ele>11</ele><time>2025-01-30T08:51:43.999Z</time><extensions><gpxtpx:TrackPointExtension><gpxtpx:hr>103</gpxtpx:hr></gpxtpx:TrackPointExtension></extensions></trkpt>
<trkpt lat="22.2971599" lon="114.2560721">
<ele>11</ele><time>2025-01-30T08:51:44.999Z</time><extensions><gpxtpx:TrackPointExtension><gpxtpx:hr>103</gpxtpx:hr></gpxtpx:TrackPointExtension></extensions></trkpt>
<trkpt lat="22.2972151" lon="114.2560526">
<ele>10</ele><time>2025-01-30T08:51:45.999Z</time><extensions><gpxtpx:TrackPointExtension><gpxtpx:hr>104</gpxtpx:hr></gpxtpx:TrackPointExtension></extensions></trkpt>
<trkpt lat="22.2972711" lon="114.2560326">
<ele>10</ele><time>2025-01-30T08:51:46.999Z</time><extensions><gpxtpx:TrackPointExtension><gpxtpx:hr>104</gpxtpx:hr></gpxtpx:TrackPointExtension></extensions></trkpt>
<trkpt lat="22.2973248" lon="114.2560124">
<ele>9</ele><time>2025-01-30T08:51:47.999Z</time><extensions><gpxtpx:TrackPointExtension><gpxtpx:hr>104</gpxtpx:hr></gpxtpx:TrackPointExtension></extensions></trkpt>
<trkpt lat="22.2973790" lon="114.2559938">
<ele>9</ele><time>2025-01-30T08:51:48.999Z</time><extensions><gpxtpx:TrackPointExtension><gpxtpx:hr>104</gpxtpx:hr></gpxtpx:TrackPointExtension></extensions></trkpt>
<trkpt lat="22.2974327" lon="114.2559753">
<ele>9</ele><time>2025-01-30T08:51:49.999Z</time><extensions><gpxtpx:TrackPointExtension><gpxtpx:hr>104</gpxtpx:hr></gpxtpx:TrackPointExtension></extensions></trkpt>
<trkpt lat="22.2974878" lon="114.2559608">
<ele>8</ele><time>2025-01-30T08:51:50.999Z</time><extensions><gpxtpx:TrackPointExtension><gpxtpx:hr>105</gpxtpx:hr></gpxtpx:TrackPointExtension></extensions></trkpt>
<trkpt lat="22.2975446" lon="114.2559518">
<ele>8</ele><time>2025-01-30T08:51:51.999Z</time><extensions><gpxtpx:TrackPointExtension><gpxtpx:hr>105</gpxtpx:hr></gpxtpx:TrackPointExtension></extensions></trkpt>
<trkpt lat="22.2976004" lon="114.2559429">
<ele>7</ele><time>2025-01-30T08:51:52.999Z</time><extensions><gpxtpx:TrackPointExtension><gpxtpx:hr>105</gpxtpx:hr></gpxtpx:TrackPointExtension></extensions></trkpt>
<trkpt lat="22.2976538" lon="114.2559329">
<ele>7</ele><time>2025-01-30T08:51:53.999Z</time><extensions><gpxtpx:TrackPointExtension><gpxtpx:hr>105</gpxtpx:hr></gpxtpx:TrackPointExtension></extensions></trkpt>
<trkpt lat="22.2977074" lon="114.2559236">
<ele>7</ele><time>2025-01-30T08:51:54.999Z</time><extensions><gpxtpx:TrackPointExtension><gpxtpx:hr>105</gpxtpx:hr></gpxtpx:TrackPointExtension></extensions></trkpt>
<trkpt lat="22.2977620" lon="114.2559201">
<ele>6</ele><time>2025-01-30T08:51:55.999Z</time><extensions><gpxtpx:TrackPointExtension><gpxtpx:hr>106</gpxtpx:hr></gpxtpx:TrackPointExtension></extensions></trkpt>
<trkpt lat="22.2978149" lon="114.2559227">
<ele>6</ele><time>2025-01-30T08:51:56.999Z</time><extensions><gpxtpx:TrackPointExtension><gpxtpx:hr>106</gpxtpx:hr></gpxtpx:TrackPointExtension></extensions></trkpt>
<trkpt lat="22.2978676" lon="114.2559176">
<ele>5</ele><time>2025-01-30T08:51:57.999Z</time><extensions><gpxtpx:TrackPointExtension><gpxtpx:hr>106</gpxtpx:hr></gpxtpx:TrackPointExtension></extensions></trkpt>
<trkpt lat="22.2979212" lon="114.2559138">
<ele>5</ele><time>2025-01-30T08:51:58.999Z</time><extensions><gpxtpx:TrackPointExtension><gpxtpx:hr>106</gpxtpx:hr></gpxtpx:TrackPointExtension></extensions></trkpt>
<trkpt lat="22.2979727" lon="114.2559110">
<ele>5</ele><time>2025-01-30T08:51:59.999Z</time><extensions><gpxtpx:TrackPointExtension><gpxtpx:hr>106</gpxtpx:hr></gpxtpx:TrackPointExtension></extensions></trkpt>
<trkpt lat="22.2980246" lon="114.2559081">
<ele>5</ele><time>2025-01-30T08:52:00.999Z</time><extensions><gpxtpx:TrackPointExtension><gpxtpx:hr>112</gpxtpx:hr></gpxtpx:TrackPointExtension></extensions></trkpt>
<trkpt lat="22.2980771" lon="114.2559060">
<ele>5</ele><time>2025-01-30T08:52:01.999Z</time><extensions><gpxtpx:TrackPointExtension><gpxtpx:hr>112</gpxtpx:hr></gpxtpx:TrackPointExtension></extensions></trkpt>
<trkpt lat="22.2981281" lon="114.2559046">
<ele>5</ele><time>2025-01-30T08:52:02.999Z</time><extensions><gpxtpx:TrackPointExtension><gpxtpx:hr>112</gpxtpx:hr></gpxtpx:TrackPointExtension></extensions></trkpt>
<trkpt lat="22.2981801" lon="114.2559031">
<ele>5</ele><time>2025-01-30T08:52:03.999Z</time><extensions><gpxtpx:TrackPointExtension><gpxtpx:hr>112</gpxtpx:hr></gpxtpx:TrackPointExtension></extensions></trkpt>
<trkpt lat="22.2982322" lon="114.2559056">
<ele>5</ele><time>2025-01-30T08:52:04.999Z</time><extensions><gpxtpx:TrackPointExtension><gpxtpx:hr>112</gpxtpx:hr></gpxtpx:TrackPointExtension></extensions></trkpt>
<trkpt lat="22.2982820" lon="114.2559037">
<ele>5</ele><time>2025-01-30T08:52:05.999Z</time><extensions><gpxtpx:TrackPointExtension><gpxtpx:hr>110</gpxtpx:hr></gpxtpx:TrackPointExtension></extensions></trkpt>
<trkpt lat="22.2983323" lon="114.2558969">
<ele>5</ele><time>2025-01-30T08:52:06.999Z</time><extensions><gpxtpx:TrackPointExtension><gpxtpx:hr>110</gpxtpx:hr></gpxtpx:TrackPointExtension></extensions></trkpt>
<trkpt lat="22.2983826" lon="114.2558963">
<ele>5</ele><time>2025-01-30T08:52:07.999Z</time><extensions><gpxtpx:TrackPointExtension><gpxtpx:hr>110</gpxtpx:hr></gpxtpx:TrackPointExtension></extensions></trkpt>
<trkpt lat="22.2984315" lon="114.2559006">
<ele>5</ele><time>2025-01-30T08:52:08.999Z</time><extensions><gpxtpx:TrackPointExtension><gpxtpx:hr>110</gpxtpx:hr></gpxtpx:TrackPointExtension></extensions></trkpt>
<trkpt lat="22.2985187" lon="114.2558962">
<ele>6</ele><time>2025-01-30T08:52:10.999Z</time><extensions><gpxtpx:TrackPointExtension><gpxtpx:hr>110</gpxtpx:hr></gpxtpx:TrackPointExtension></extensions></trkpt>
<trkpt lat="22.2985948" lon="114.2558935">
<ele>6</ele><time>2025-01-30T08:52:12.999Z</time><extensions><gpxtpx:TrackPointExtension><gpxtpx:hr>110</gpxtpx:hr></gpxtpx:TrackPointExtension></extensions></trkpt>
<trkpt lat="22.2986646" lon="114.2558889">
<ele>6</ele><time>2025-01-30T08:52:14.999Z</time><extensions><gpxtpx:TrackPointExtension><gpxtpx:hr>110</gpxtpx:hr></gpxtpx:TrackPointExtension></extensions></trkpt>
<trkpt lat="22.2987277" lon="114.2558922">
<ele>6</ele><time>2025-01-30T08:52:16.999Z</time><extensions><gpxtpx:TrackPointExtension><gpxtpx:hr>110</gpxtpx:hr></gpxtpx:TrackPointExtension></extensions></trkpt>
<trkpt lat="22.2987865" lon="114.2558934">
<ele>6</ele><time>2025-01-30T08:52:18.999Z</time><extensions><gpxtpx:TrackPointExtension><gpxtpx:hr>110</gpxtpx:hr></gpxtpx:TrackPointExtension></extensions></trkpt>
<trkpt lat="22.2988374" lon="114.2558905">
<ele>6</ele><time>2025-01-30T08:52:20.999Z</time><extensions><gpxtpx:TrackPointExtension><gpxtpx:hr>110</gpxtpx:hr></gpxtpx:TrackPointExtension></extensions></trkpt>
<trkpt lat="22.2988887" lon="114.2558885">
<ele>6</ele><time>2025-01-30T08:52:22.999Z</time><extensions><gpxtpx:TrackPointExtension><gpxtpx:hr>110</gpxtpx:hr></gpxtpx:TrackPointExtension></extensions></trkpt>
<trkpt lat="22.2989515" lon="114.2558903">
<ele>6</ele><time>2025-01-30T08:52:24.999Z</time><extensions><gpxtpx:TrackPointExtension><gpxtpx:hr>110</gpxtpx:hr></gpxtpx:TrackPointExtension></extensions></trkpt>
<trkpt lat="22.2990273" lon="114.2558916">
<ele>6</ele><time>2025-01-30T08:52:26.999Z</time><extensions><gpxtpx:TrackPointExtension><gpxtpx:hr>110</gpxtpx:hr></gpxtpx:TrackPointExtension></extensions></trkpt>
<trkpt lat="22.2990973" lon="114.2558889">
<ele>6</ele><time>2025-01-30T08:52:28.999Z</time><extensions><gpxtpx:TrackPointExtension><gpxtpx:hr>110</gpxtpx:hr></gpxtpx:TrackPointExtension></extensions></trkpt>
<trkpt lat="22.2991649" lon="114.2558905">
<ele>6</ele><time>2025-01-30T08:52:30.999Z</time><extensions><gpxtpx:TrackPointExtension><gpxtpx:hr>105</gpxtpx:hr></gpxtpx:TrackPointExtension></extensions></trkpt>
<trkpt lat="22.2992263" lon="114.2558900">
<ele>6</ele><time>2025-01-30T08:52:32.999Z</time><extensions><gpxtpx:TrackPointExtension><gpxtpx:hr>105</gpxtpx:hr></gpxtpx:TrackPointExtension></extensions></trkpt>
<trkpt lat="22.2992850" lon="114.2558933">
<ele>6</ele><time>2025-01-30T08:52:34.999Z</time><extensions><gpxtpx:TrackPointExtension><gpxtpx:hr>105</gpxtpx:hr></gpxtpx:TrackPointExtension></extensions></trkpt>
<trkpt lat="22.2993455" lon="114.2558889">
<ele>6</ele><time>2025-01-30T08:52:36.999Z</time><extensions><gpxtpx:TrackPointExtension><gpxtpx:hr>104</gpxtpx:hr></gpxtpx:TrackPointExtension></extensions></trkpt>
<trkpt lat="22.2994219" lon="114.2558961">
<ele>6</ele><time>2025-01-30T08:52:38.999Z</time><extensions><gpxtpx:TrackPointExtension><gpxtpx:hr>104</gpxtpx:hr></gpxtpx:TrackPointExtension></extensions></trkpt>
<trkpt lat="22.2995039" lon="114.2558963">
<ele>6</ele><time>2025-01-30T08:52:40.999Z</time><extensions><gpxtpx:TrackPointExtension><gpxtpx:hr>103</gpxtpx:hr></gpxtpx:TrackPointExtension></extensions></trkpt>
<trkpt lat="22.2995826" lon="114.2558982">
<ele>6</ele><time>2025-01-30T08:52:42.999Z</time><extensions><gpxtpx:TrackPointExtension><gpxtpx:hr>103</gpxtpx:hr></gpxtpx:TrackPointExtension></extensions></trkpt>
<trkpt lat="22.2996740" lon="114.2559003">
<ele>6</ele><time>2025-01-30T08:52:44.999Z</time><extensions><gpxtpx:TrackPointExtension><gpxtpx:hr>103</gpxtpx:hr></gpxtpx:TrackPointExtension></extensions></trkpt>
<trkpt lat="22.2997226" lon="114.2559012">
<ele>6</ele><time>2025-01-30T08:52:45.999Z</time><extensions><gpxtpx:TrackPointExtension><gpxtpx:hr>104</gpxtpx:hr></gpxtpx:TrackPointExtension></extensions></trkpt>
<trkpt lat="22.2997713" lon="114.2559045">
<ele>6</ele><time>2025-01-30T08:52:46.999Z</time><extensions><gpxtpx:TrackPointExtension><gpxtpx:hr>104</gpxtpx:hr></gpxtpx:TrackPointExtension></extensions></trkpt>
<trkpt lat="22.2998515" lon="114.2559132">
<ele>6</ele><time>2025-01-30T08:52:48.999Z</time><extensions><gpxtpx:TrackPointExtension><gpxtpx:hr>104</gpxtpx:hr></gpxtpx:TrackPointExtension></extensions></trkpt>
<trkpt lat="22.2999272" lon="114.2559204">
<ele>6</ele><time>2025-01-30T08:52:50.999Z</time><extensions><gpxtpx:TrackPointExtension><gpxtpx:hr>104</gpxtpx:hr></gpxtpx:TrackPointExtension></extensions></trkpt>
<trkpt lat="22.3000035" lon="114.2559197">
<ele>6</ele><time>2025-01-30T08:52:52.999Z</time><extensions><gpxtpx:TrackPointExtension><gpxtpx:hr>104</gpxtpx:hr></gpxtpx:TrackPointExtension></extensions></trkpt>
<trkpt lat="22.3000740" lon="114.2559181">
<ele>6</ele><time>2025-01-30T08:52:54.999Z</time><extensions><gpxtpx:TrackPointExtension><gpxtpx:hr>104</gpxtpx:hr></gpxtpx:TrackPointExtension></extensions></trkpt>
<trkpt lat="22.3001359" lon="114.2559226">
<ele>6</ele><time>2025-01-30T08:52:56.999Z</time><extensions><gpxtpx:TrackPointExtension><gpxtpx:hr>107</gpxtpx:hr></gpxtpx:TrackPointExtension></extensions></trkpt>
<trkpt lat="22.3001913" lon="114.2559207">
<ele>5</ele><time>2025-01-30T08:52:58.999Z</time><extensions><gpxtpx:TrackPointExtension><gpxtpx:hr>107</gpxtpx:hr></gpxtpx:TrackPointExtension></extensions></trkpt>
<trkpt lat="22.3002436" lon="114.2559221">
<ele>5</ele><time>2025-01-30T08:53:00.999Z</time><extensions><gpxtpx:TrackPointExtension><gpxtpx:hr>108</gpxtpx:hr></gpxtpx:TrackPointExtension></extensions></trkpt>
<trkpt lat="22.3003031" lon="114.2559222">
<ele>5</ele><time>2025-01-30T08:53:02.999Z</time><extensions><gpxtpx:TrackPointExtension><gpxtpx:hr>108</gpxtpx:hr></gpxtpx:TrackPointExtension></extensions></trkpt>
<trkpt lat="22.3003622" lon="114.2559205">
<ele>5</ele><time>2025-01-30T08:53:04.999Z</time><extensions><gpxtpx:TrackPointExtension><gpxtpx:hr>108</gpxtpx:hr></gpxtpx:TrackPointExtension></extensions></trkpt>
<trkpt lat="22.3004224" lon="114.2559177">
<ele>4</ele><time>2025-01-30T08:53:06.999Z</time><extensions><gpxtpx:TrackPointExtension><gpxtpx:hr>107</gpxtpx:hr></gpxtpx:TrackPointExtension></extensions></trkpt>
<trkpt lat="22.3004868" lon="114.2559176">
<ele>4</ele><time>2025-01-30T08:53:08.999Z</time><extensions><gpxtpx:TrackPointExtension><gpxtpx:hr>107</gpxtpx:hr></gpxtpx:TrackPointExtension></extensions></trkpt>
<trkpt lat="22.3005519" lon="114.2559173">
<ele>4</ele><time>2025-01-30T08:53:10.999Z</time><extensions><gpxtpx:TrackPointExtension><gpxtpx:hr>109</gpxtpx:hr></gpxtpx:TrackPointExtension></extensions></trkpt>
<trkpt lat="22.3006158" lon="114.2559194">
<ele>4</ele><time>2025-01-30T08:53:12.999Z</time><extensions><gpxtpx:TrackPointExtension><gpxtpx:hr>109</gpxtpx:hr></gpxtpx:TrackPointExtension></extensions></trkpt>
<trkpt lat="22.3006785" lon="114.2559187">
<ele>4</ele><time>2025-01-30T08:53:14.999Z</time><extensions><gpxtpx:TrackPointExtension><gpxtpx:hr>107</gpxtpx:hr></gpxtpx:TrackPointExtension></extensions></trkpt>
<trkpt lat="22.3007295" lon="114.2559209">
<ele>4</ele><time>2025-01-30T08:53:16.999Z</time><extensions><gpxtpx:TrackPointExtension><gpxtpx:hr>107</gpxtpx:hr></gpxtpx:TrackPointExtension></extensions></trkpt>
<trkpt lat="22.3007995" lon="114.2559202">
<ele>4</ele><time>2025-01-30T08:53:19.999Z</time><extensions><gpxtpx:TrackPointExtension><gpxtpx:hr>107</gpxtpx:hr></gpxtpx:TrackPointExtension></extensions></trkpt>
<trkpt lat="22.3008599" lon="114.2559347">
<ele>4</ele><time>2025-01-30T08:53:22.999Z</time><extensions><gpxtpx:TrackPointExtension><gpxtpx:hr>107</gpxtpx:hr></gpxtpx:TrackPointExtension></extensions></trkpt>
<trkpt lat="22.3009162" lon="114.2559609">
<ele>4</ele><time>2025-01-30T08:53:25.999Z</time><extensions><gpxtpx:TrackPointExtension><gpxtpx:hr>107</gpxtpx:hr></gpxtpx:TrackPointExtension></extensions></trkpt>
<trkpt lat="22.3009670" lon="114.2559813">
<ele>4</ele><time>2025-01-30T08:53:28.999Z</time><extensions><gpxtpx:TrackPointExtension><gpxtpx:hr>107</gpxtpx:hr></gpxtpx:TrackPointExtension></extensions></trkpt>
<trkpt lat="22.3010145" lon="114.2560199">
<ele>4</ele><time>2025-01-30T08:53:31.999Z</time><extensions><gpxtpx:TrackPointExtension><gpxtpx:hr>107</gpxtpx:hr></gpxtpx:TrackPointExtension></extensions></trkpt>
<trkpt lat="22.3010613" lon="114.2560329">
<ele>4</ele><time>2025-01-30T08:53:35.999Z</time><extensions><gpxtpx:TrackPointExtension><gpxtpx:hr>107</gpxtpx:hr></gpxtpx:TrackPointExtension></extensions></trkpt>
<trkpt lat="22.3011112" lon="114.2560270">
<ele>3</ele><time>2025-01-30T08:53:39.999Z</time><extensions><gpxtpx:TrackPointExtension><gpxtpx:hr>107</gpxtpx:hr></gpxtpx:TrackPointExtension></extensions></trkpt>
<trkpt lat="22.3011058" lon="114.2559711">
<ele>3</ele><time>2025-01-30T08:53:43.999Z</time><extensions><gpxtpx:TrackPointExtension><gpxtpx:hr>107</gpxtpx:hr></gpxtpx:TrackPointExtension></extensions></trkpt>
<trkpt lat="22.3010989" lon="114.2559159">
<ele>3</ele><time>2025-01-30T08:53:52.999Z</time><extensions><gpxtpx:TrackPointExtension><gpxtpx:hr>111</gpxtpx:hr></gpxtpx:TrackPointExtension></extensions></trkpt>
<trkpt lat="22.3011256" lon="114.2558646">
<ele>3</ele><time>2025-01-30T08:53:56.999Z</time><extensions><gpxtpx:TrackPointExtension><gpxtpx:hr>112</gpxtpx:hr></gpxtpx:TrackPointExtension></extensions></trkpt>
<trkpt lat="22.3011604" lon="114.2558204">
<ele>3</ele><time>2025-01-30T08:54:00.999Z</time><extensions><gpxtpx:TrackPointExtension><gpxtpx:hr>114</gpxtpx:hr></gpxtpx:TrackPointExtension></extensions></trkpt>
<trkpt lat="22.3011417" lon="114.2558738">
<ele>3</ele><time>2025-01-30T08:54:06.999Z</time><extensions><gpxtpx:TrackPointExtension><gpxtpx:hr>118</gpxtpx:hr></gpxtpx:TrackPointExtension></extensions></trkpt>
<trkpt lat="22.3011188" lon="114.2559264">
<ele>3</ele><time>2025-01-30T08:54:11.999Z</time><extensions><gpxtpx:TrackPointExtension><gpxtpx:hr>121</gpxtpx:hr></gpxtpx:TrackPointExtension></extensions></trkpt>
<trkpt lat="22.3011127" lon="114.2559751">
<ele>3</ele><time>2025-01-30T08:54:17.999Z</time><extensions><gpxtpx:TrackPointExtension><gpxtpx:hr>122</gpxtpx:hr></gpxtpx:TrackPointExtension></extensions></trkpt>
<trkpt lat="22.3010617" lon="114.2559740">
<ele>3</ele><time>2025-01-30T08:54:34.999Z</time><extensions><gpxtpx:TrackPointExtension><gpxtpx:hr>107</gpxtpx:hr></gpxtpx:TrackPointExtension></extensions></trkpt>
<trkpt lat="22.3010581" lon="114.2560232">
<ele>3</ele><time>2025-01-30T08:54:38.999Z</time><extensions><gpxtpx:TrackPointExtension><gpxtpx:hr>108</gpxtpx:hr></gpxtpx:TrackPointExtension></extensions></trkpt>
<trkpt lat="22.3010683" lon="114.2560827">
<ele>3</ele><time>2025-01-30T08:54:43.999Z</time><extensions><gpxtpx:TrackPointExtension><gpxtpx:hr>103</gpxtpx:hr></gpxtpx:TrackPointExtension></extensions></trkpt>
<trkpt lat="22.3011232" lon="114.2561263">
<ele>3</ele><time>2025-01-30T08:54:45.999Z</time><extensions><gpxtpx:TrackPointExtension><gpxtpx:hr>104</gpxtpx:hr></gpxtpx:TrackPointExtension></extensions></trkpt>
<trkpt lat="22.3011723" lon="114.2561653">
<ele>3</ele><time>2025-01-30T08:54:47.999Z</time><extensions><gpxtpx:TrackPointExtension><gpxtpx:hr>104</gpxtpx:hr></gpxtpx:TrackPointExtension></extensions></trkpt>
<trkpt lat="22.3012211" lon="114.2562245">
<ele>4</ele><time>2025-01-30T08:54:49.999Z</time><extensions><gpxtpx:TrackPointExtension><gpxtpx:hr>104</gpxtpx:hr></gpxtpx:TrackPointExtension></extensions></trkpt>
<trkpt lat="22.3012939" lon="114.2562833">
<ele>4</ele><time>2025-01-30T08:54:51.999Z</time><extensions><gpxtpx:TrackPointExtension><gpxtpx:hr>104</gpxtpx:hr></gpxtpx:TrackPointExtension></extensions></trkpt>
<trkpt lat="22.3013442" lon="114.2562902">
<ele>4</ele><time>2025-01-30T08:54:52.999Z</time><extensions><gpxtpx:TrackPointExtension><gpxtpx:hr>104</gpxtpx:hr></gpxtpx:TrackPointExtension></extensions></trkpt>
<trkpt lat="22.3014001" lon="114.2562826">
<ele>4</ele><time>2025-01-30T08:54:53.999Z</time><extensions><gpxtpx:TrackPointExtension><gpxtpx:hr>104</gpxtpx:hr></gpxtpx:TrackPointExtension></extensions></trkpt>
<trkpt lat="22.3014562" lon="114.2562780">
<ele>4</ele><time>2025-01-30T08:54:54.999Z</time><extensions><gpxtpx:TrackPointExtension><gpxtpx:hr>104</gpxtpx:hr></gpxtpx:TrackPointExtension></extensions></trkpt>
<trkpt lat="22.3015155" lon="114.2562722">
<ele>4</ele><time>2025-01-30T08:54:55.999Z</time><extensions><gpxtpx:TrackPointExtension><gpxtpx:hr>110</gpxtpx:hr></gpxtpx:TrackPointExtension></extensions></trkpt>
<trkpt lat="22.3015699" lon="114.2562700">
<ele>4</ele><time>2025-01-30T08:54:56.999Z</time><extensions><gpxtpx:TrackPointExtension><gpxtpx:hr>110</gpxtpx:hr></gpxtpx:TrackPointExtension></extensions></trkpt>
<trkpt lat="22.3016213" lon="114.2562730">
<ele>4</ele><time>2025-01-30T08:54:57.999Z</time><extensions><gpxtpx:TrackPointExtension><gpxtpx:hr>110</gpxtpx:hr></gpxtpx:TrackPointExtension></extensions></trkpt>
<trkpt lat="22.3016743" lon="114.2562780">
<ele>4</ele><time>2025-01-30T08:54:58.999Z</time><extensions><gpxtpx:TrackPointExtension><gpxtpx:hr>110</gpxtpx:hr></gpxtpx:TrackPointExtension></extensions></trkpt>
<trkpt lat="22.3017229" lon="114.2562798">
<ele>4</ele><time>2025-01-30T08:54:59.999Z</time><extensions><gpxtpx:TrackPointExtension><gpxtpx:hr>110</gpxtpx:hr></gpxtpx:TrackPointExtension></extensions></trkpt>
<trkpt lat="22.3017697" lon="114.2562823">
<ele>4</ele><time>2025-01-30T08:55:00.999Z</time><extensions><gpxtpx:TrackPointExtension><gpxtpx:hr>111</gpxtpx:hr></gpxtpx:TrackPointExtension></extensions></trkpt>
<trkpt lat="22.3018157" lon="114.2562828">
<ele>4</ele><time>2025-01-30T08:55:01.999Z</time><extensions><gpxtpx:TrackPointExtension><gpxtpx:hr>111</gpxtpx:hr></gpxtpx:TrackPointExtension></extensions></trkpt>
<trkpt lat="22.3018979" lon="114.2562829">
<ele>4</ele><time>2025-01-30T08:55:03.999Z</time><extensions><gpxtpx:TrackPointExtension><gpxtpx:hr>111</gpxtpx:hr></gpxtpx:TrackPointExtension></extensions></trkpt>
<trkpt lat="22.3019740" lon="114.2562830">
<ele>4</ele><time>2025-01-30T08:55:05.999Z</time><extensions><gpxtpx:TrackPointExtension><gpxtpx:hr>112</gpxtpx:hr></gpxtpx:TrackPointExtension></extensions></trkpt>
<trkpt lat="22.3020567" lon="114.2562824">
<ele>4</ele><time>2025-01-30T08:55:07.999Z</time><extensions><gpxtpx:TrackPointExtension><gpxtpx:hr>112</gpxtpx:hr></gpxtpx:TrackPointExtension></extensions></trkpt>
<trkpt lat="22.3021270" lon="114.2562846">
<ele>4</ele><time>2025-01-30T08:55:09.999Z</time><extensions><gpxtpx:TrackPointExtension><gpxtpx:hr>112</gpxtpx:hr></gpxtpx:TrackPointExtension></extensions></trkpt>
<trkpt lat="22.3021869" lon="114.2562885">
<ele>4</ele><time>2025-01-30T08:55:11.999Z</time><extensions><gpxtpx:TrackPointExtension><gpxtpx:hr>111</gpxtpx:hr></gpxtpx:TrackPointExtension></extensions></trkpt>
<trkpt lat="22.3022424" lon="114.2562892">
<ele>4</ele><time>2025-01-30T08:55:13.999Z</time><extensions><gpxtpx:TrackPointExtension><gpxtpx:hr>111</gpxtpx:hr></gpxtpx:TrackPointExtension></extensions></trkpt>
<trkpt lat="22.3022909" lon="114.2562816">
<ele>4</ele><time>2025-01-30T08:55:15.999Z</time><extensions><gpxtpx:TrackPointExtension><gpxtpx:hr>109</gpxtpx:hr></gpxtpx:TrackPointExtension></extensions></trkpt>
<trkpt lat="22.3023292" lon="114.2562482">
<ele>4</ele><time>2025-01-30T08:55:18.999Z</time><extensions><gpxtpx:TrackPointExtension><gpxtpx:hr>109</gpxtpx:hr></gpxtpx:TrackPointExtension></extensions></trkpt>
<trkpt lat="22.3023763" lon="114.2562086">
<ele>4</ele><time>2025-01-30T08:55:21.999Z</time><extensions><gpxtpx:TrackPointExtension><gpxtpx:hr>109</gpxtpx:hr></gpxtpx:TrackPointExtension></extensions></trkpt>
<trkpt lat="22.3024235" lon="114.2562507">
<ele>4</ele><time>2025-01-30T08:55:23.999Z</time><extensions><gpxtpx:TrackPointExtension><gpxtpx:hr>109</gpxtpx:hr></gpxtpx:TrackPointExtension></extensions></trkpt>
<trkpt lat="22.3024703" lon="114.2562843">
<ele>3</ele><time>2025-01-30T08:55:25.999Z</time><extensions><gpxtpx:TrackPointExtension><gpxtpx:hr>108</gpxtpx:hr></gpxtpx:TrackPointExtension></extensions></trkpt>
<trkpt lat="22.3025310" lon="114.2563097">
<ele>3</ele><time>2025-01-30T08:55:27.999Z</time><extensions><gpxtpx:TrackPointExtension><gpxtpx:hr>108</gpxtpx:hr></gpxtpx:TrackPointExtension></extensions></trkpt>
<trkpt lat="22.3025827" lon="114.2563258">
<ele>3</ele><time>2025-01-30T08:55:29.999Z</time><extensions><gpxtpx:TrackPointExtension><gpxtpx:hr>108</gpxtpx:hr></gpxtpx:TrackPointExtension></extensions></trkpt>
<trkpt lat="22.3026012" lon="114.2563745">
<ele>3</ele><time>2025-01-30T08:55:32.999Z</time><extensions><gpxtpx:TrackPointExtension><gpxtpx:hr>107</gpxtpx:hr></gpxtpx:TrackPointExtension></extensions></trkpt>
<trkpt lat="22.3025784" lon="114.2564262">
<ele>3</ele><time>2025-01-30T08:55:36.999Z</time><extensions><gpxtpx:TrackPointExtension><gpxtpx:hr>105</gpxtpx:hr></gpxtpx:TrackPointExtension></extensions></trkpt>
<trkpt lat="22.3025581" lon="114.2564950">
<ele>3</ele><time>2025-01-30T08:55:39.999Z</time><extensions><gpxtpx:TrackPointExtension><gpxtpx:hr>105</gpxtpx:hr></gpxtpx:TrackPointExtension></extensions></trkpt>
<trkpt lat="22.3025338" lon="114.2565545">
<ele>3</ele><time>2025-01-30T08:55:41.999Z</time><extensions><gpxtpx:TrackPointExtension><gpxtpx:hr>105</gpxtpx:hr></gpxtpx:TrackPointExtension></extensions></trkpt>
<trkpt lat="22.3024883" lon="114.2566027">
<ele>3</ele><time>2025-01-30T08:55:43.999Z</time><extensions><gpxtpx:TrackPointExtension><gpxtpx:hr>105</gpxtpx:hr></gpxtpx:TrackPointExtension></extensions></trkpt>
<trkpt lat="22.3024366" lon="114.2566381">
<ele>4</ele><time>2025-01-30T08:55:45.999Z</time><extensions><gpxtpx:TrackPointExtension><gpxtpx:hr>111</gpxtpx:hr></gpxtpx:TrackPointExtension></extensions></trkpt>
<trkpt lat="22.3023886" lon="114.2566706">
<ele>4</ele><time>2025-01-30T08:55:47.999Z</time><extensions><gpxtpx:TrackPointExtension><gpxtpx:hr>111</gpxtpx:hr></gpxtpx:TrackPointExtension></extensions></trkpt>
<trkpt lat="22.3023293" lon="114.2567126">
<ele>4</ele><time>2025-01-30T08:55:49.999Z</time><extensions><gpxtpx:TrackPointExtension><gpxtpx:hr>111</gpxtpx:hr></gpxtpx:TrackPointExtension></extensions></trkpt>
<trkpt lat="22.3023135" lon="114.2567914">
<ele>4</ele><time>2025-01-30T08:55:51.999Z</time><extensions><gpxtpx:TrackPointExtension><gpxtpx:hr>112</gpxtpx:hr></gpxtpx:TrackPointExtension></extensions></trkpt>
<trkpt lat="22.3023265" lon="114.2568717">
<ele>3</ele><time>2025-01-30T08:55:53.999Z</time><extensions><gpxtpx:TrackPointExtension><gpxtpx:hr>112</gpxtpx:hr></gpxtpx:TrackPointExtension></extensions></trkpt>
<trkpt lat="22.3023323" lon="114.2569461">
<ele>3</ele><time>2025-01-30T08:55:55.999Z</time><extensions><gpxtpx:TrackPointExtension><gpxtpx:hr>112</gpxtpx:hr></gpxtpx:TrackPointExtension></extensions></trkpt>
<trkpt lat="22.3023253" lon="114.2570228">
<ele>3</ele><time>2025-01-30T08:55:57.999Z</time><extensions><gpxtpx:TrackPointExtension><gpxtpx:hr>112</gpxtpx:hr></gpxtpx:TrackPointExtension></extensions></trkpt>
<trkpt lat="22.3023209" lon="114.2570862">
<ele>3</ele><time>2025-01-30T08:55:59.999Z</time><extensions><gpxtpx:TrackPointExtension><gpxtpx:hr>112</gpxtpx:hr></gpxtpx:TrackPointExtension></extensions></trkpt>
<trkpt lat="22.3022667" lon="114.2571327">
<ele>3</ele><time>2025-01-30T08:56:01.999Z</time><extensions><gpxtpx:TrackPointExtension><gpxtpx:hr>112</gpxtpx:hr></gpxtpx:TrackPointExtension></extensions></trkpt>
<trkpt lat="22.3022020" lon="114.2571312">
<ele>3</ele><time>2025-01-30T08:56:03.999Z</time><extensions><gpxtpx:TrackPointExtension><gpxtpx:hr>112</gpxtpx:hr></gpxtpx:TrackPointExtension></extensions></trkpt>
<trkpt lat="22.3021381" lon="114.2571301">
<ele>3</ele><time>2025-01-30T08:56:05.999Z</time><extensions><gpxtpx:TrackPointExtension><gpxtpx:hr>112</gpxtpx:hr></gpxtpx:TrackPointExtension></extensions></trkpt>
<trkpt lat="22.3020781" lon="114.2571287">
<ele>3</ele><time>2025-01-30T08:56:07.999Z</time><extensions><gpxtpx:TrackPointExtension><gpxtpx:hr>112</gpxtpx:hr></gpxtpx:TrackPointExtension></extensions></trkpt>
<trkpt lat="22.3020230" lon="114.2571380">
<ele>3</ele><time>2025-01-30T08:56:09.999Z</time><extensions><gpxtpx:TrackPointExtension><gpxtpx:hr>111</gpxtpx:hr></gpxtpx:TrackPointExtension></extensions></trkpt>
<trkpt lat="22.3019673" lon="114.2571389">
<ele>3</ele><time>2025-01-30T08:56:11.999Z</time><extensions><gpxtpx:TrackPointExtension><gpxtpx:hr>111</gpxtpx:hr></gpxtpx:TrackPointExtension></extensions></trkpt>
<trkpt lat="22.3019025" lon="114.2571428">
<ele>3</ele><time>2025-01-30T08:56:13.999Z</time><extensions><gpxtpx:TrackPointExtension><gpxtpx:hr>111</gpxtpx:hr></gpxtpx:TrackPointExtension></extensions></trkpt>
<trkpt lat="22.3018368" lon="114.2571428">
<ele>4</ele><time>2025-01-30T08:56:15.999Z</time><extensions><gpxtpx:TrackPointExtension><gpxtpx:hr>111</gpxtpx:hr></gpxtpx:TrackPointExtension></extensions></trkpt>
<trkpt lat="22.3017731" lon="114.2571410">
<ele>4</ele><time>2025-01-30T08:56:17.999Z</time><extensions><gpxtpx:TrackPointExtension><gpxtpx:hr>111</gpxtpx:hr></gpxtpx:TrackPointExtension></extensions></trkpt>
<trkpt lat="22.3017060" lon="114.2571389">
<ele>4</ele><time>2025-01-30T08:56:19.999Z</time><extensions><gpxtpx:TrackPointExtension><gpxtpx:hr>111</gpxtpx:hr></gpxtpx:TrackPointExtension></extensions></trkpt>
<trkpt lat="22.3016412" lon="114.2571391">
<ele>4</ele><time>2025-01-30T08:56:21.999Z</time><extensions><gpxtpx:TrackPointExtension><gpxtpx:hr>111</gpxtpx:hr></gpxtpx:TrackPointExtension></extensions></trkpt>
<trkpt lat="22.3015774" lon="114.2571508">
<ele>4</ele><time>2025-01-30T08:56:23.999Z</time><extensions><gpxtpx:TrackPointExtension><gpxtpx:hr>111</gpxtpx:hr></gpxtpx:TrackPointExtension></extensions></trkpt>
<trkpt lat="22.3015662" lon="114.2572283">
<ele>4</ele><time>2025-01-30T08:56:25.999Z</time><extensions><gpxtpx:TrackPointExtension><gpxtpx:hr>107</gpxtpx:hr></gpxtpx:TrackPointExtension></extensions></trkpt>
<trkpt lat="22.3015776" lon="114.2573067">
<ele>3</ele><time>2025-01-30T08:56:27.999Z</time><extensions><gpxtpx:TrackPointExtension><gpxtpx:hr>107</gpxtpx:hr></gpxtpx:TrackPointExtension></extensions></trkpt>
<trkpt lat="22.3015799" lon="114.2573869">
<ele>3</ele><time>2025-01-30T08:56:29.999Z</time><extensions><gpxtpx:TrackPointExtension><gpxtpx:hr>109</gpxtpx:hr></gpxtpx:TrackPointExtension></extensions></trkpt>
<trkpt lat="22.3015782" lon="114.2574636">
<ele>3</ele><time>2025-01-30T08:56:31.999Z</time><extensions><gpxtpx:TrackPointExtension><gpxtpx:hr>109</gpxtpx:hr></gpxtpx:TrackPointExtension></extensions></trkpt>
<trkpt lat="22.3015758" lon="114.2575348">
<ele>3</ele><time>2025-01-30T08:56:33.999Z</time><extensions><gpxtpx:TrackPointExtension><gpxtpx:hr>109</gpxtpx:hr></gpxtpx:TrackPointExtension></extensions></trkpt>
<trkpt lat="22.3015735" lon="114.2576014">
<ele>3</ele><time>2025-01-30T08:56:35.999Z</time><extensions><gpxtpx:TrackPointExtension><gpxtpx:hr>110</gpxtpx:hr></gpxtpx:TrackPointExtension></extensions></trkpt>
<trkpt lat="22.3015747" lon="114.2576638">
<ele>3</ele><time>2025-01-30T08:56:37.999Z</time><extensions><gpxtpx:TrackPointExtension><gpxtpx:hr>110</gpxtpx:hr></gpxtpx:TrackPointExtension></extensions></trkpt>
<trkpt lat="22.3015739" lon="114.2577215">
<ele>3</ele><time>2025-01-30T08:56:39.999Z</time><extensions><gpxtpx:TrackPointExtension><gpxtpx:hr>110</gpxtpx:hr></gpxtpx:TrackPointExtension></extensions></trkpt>
<trkpt lat="22.3015718" lon="114.2577729">
<ele>3</ele><time>2025-01-30T08:56:41.999Z</time><extensions><gpxtpx:TrackPointExtension><gpxtpx:hr>109</gpxtpx:hr></gpxtpx:TrackPointExtension></extensions></trkpt>
<trkpt lat="22.3015742" lon="114.2578255">
<ele>3</ele><time>2025-01-30T08:56:43.999Z</time><extensions><gpxtpx:TrackPointExtension><gpxtpx:hr>109</gpxtpx:hr></gpxtpx:TrackPointExtension></extensions></trkpt>
<trkpt lat="22.3015744" lon="114.2578851">
<ele>3</ele><time>2025-01-30T08:56:45.999Z</time><extensions><gpxtpx:TrackPointExtension><gpxtpx:hr>110</gpxtpx:hr></gpxtpx:TrackPointExtension></extensions></trkpt>
<trkpt lat="22.3015762" lon="114.2579506">
<ele>3</ele><time>2025-01-30T08:56:47.999Z</time><extensions><gpxtpx:TrackPointExtension><gpxtpx:hr>110</gpxtpx:hr></gpxtpx:TrackPointExtension></extensions></trkpt>
<trkpt lat="22.3015786" lon="114.2580132">
<ele>3</ele><time>2025-01-30T08:56:49.999Z</time><extensions><gpxtpx:TrackPointExtension><gpxtpx:hr>110</gpxtpx:hr></gpxtpx:TrackPointExtension></extensions></trkpt>
<trkpt lat="22.3015800" lon="114.2580753">
<ele>3</ele><time>2025-01-30T08:56:51.999Z</time><extensions><gpxtpx:TrackPointExtension><gpxtpx:hr>109</gpxtpx:hr></gpxtpx:TrackPointExtension></extensions></trkpt>
<trkpt lat="22.3015773" lon="114.2581450">
<ele>3</ele><time>2025-01-30T08:56:53.999Z</time><extensions><gpxtpx:TrackPointExtension><gpxtpx:hr>109</gpxtpx:hr></gpxtpx:TrackPointExtension></extensions></trkpt>
<trkpt lat="22.3015778" lon="114.2582008">
<ele>3</ele><time>2025-01-30T08:56:55.999Z</time><extensions><gpxtpx:TrackPointExtension><gpxtpx:hr>110</gpxtpx:hr></gpxtpx:TrackPointExtension></extensions></trkpt>
<trkpt lat="22.3015834" lon="114.2582668">
<ele>3</ele><time>2025-01-30T08:56:58.999Z</time><extensions><gpxtpx:TrackPointExtension><gpxtpx:hr>110</gpxtpx:hr></gpxtpx:TrackPointExtension></extensions></trkpt>
<trkpt lat="22.3015813" lon="114.2583157">
<ele>3</ele><time>2025-01-30T08:57:00.999Z</time><extensions><gpxtpx:TrackPointExtension><gpxtpx:hr>112</gpxtpx:hr></gpxtpx:TrackPointExtension></extensions></trkpt>
<trkpt lat="22.3015812" lon="114.2583813">
<ele>3</ele><time>2025-01-30T08:57:02.999Z</time><extensions><gpxtpx:TrackPointExtension><gpxtpx:hr>112</gpxtpx:hr></gpxtpx:TrackPointExtension></extensions></trkpt>
<trkpt lat="22.3015817" lon="114.2584553">
<ele>3</ele><time>2025-01-30T08:57:04.999Z</time><extensions><gpxtpx:TrackPointExtension><gpxtpx:hr>112</gpxtpx:hr></gpxtpx:TrackPointExtension></extensions></trkpt>
<trkpt lat="22.3015813" lon="114.2585335">
<ele>3</ele><time>2025-01-30T08:57:06.999Z</time><extensions><gpxtpx:TrackPointExtension><gpxtpx:hr>113</gpxtpx:hr></gpxtpx:TrackPointExtension></extensions></trkpt>
<trkpt lat="22.3015762" lon="114.2585832">
<ele>3</ele><time>2025-01-30T08:57:07.999Z</time><extensions><gpxtpx:TrackPointExtension><gpxtpx:hr>113</gpxtpx:hr></gpxtpx:TrackPointExtension></extensions></trkpt>
<trkpt lat="22.3015744" lon="114.2586362">
<ele>3</ele><time>2025-01-30T08:57:08.999Z</time><extensions><gpxtpx:TrackPointExtension><gpxtpx:hr>113</gpxtpx:hr></gpxtpx:TrackPointExtension></extensions></trkpt>
<trkpt lat="22.3015736" lon="114.2586957">
<ele>3</ele><time>2025-01-30T08:57:09.999Z</time><extensions><gpxtpx:TrackPointExtension><gpxtpx:hr>113</gpxtpx:hr></gpxtpx:TrackPointExtension></extensions></trkpt>
<trkpt lat="22.3015713" lon="114.2587545">
<ele>2</ele><time>2025-01-30T08:57:10.999Z</time><extensions><gpxtpx:TrackPointExtension><gpxtpx:hr>111</gpxtpx:hr></gpxtpx:TrackPointExtension></extensions></trkpt>
<trkpt lat="22.3015680" lon="114.2588100">
<ele>2</ele><time>2025-01-30T08:57:11.999Z</time><extensions><gpxtpx:TrackPointExtension><gpxtpx:hr>111</gpxtpx:hr></gpxtpx:TrackPointExtension></extensions></trkpt>
<trkpt lat="22.3015556" lon="114.2588620">
<ele>2</ele><time>2025-01-30T08:57:12.999Z</time><extensions><gpxtpx:TrackPointExtension><gpxtpx:hr>111</gpxtpx:hr></gpxtpx:TrackPointExtension></extensions></trkpt>
<trkpt lat="22.3015594" lon="114.2589147">
<ele>2</ele><time>2025-01-30T08:57:13.999Z</time><extensions><gpxtpx:TrackPointExtension><gpxtpx:hr>111</gpxtpx:hr></gpxtpx:TrackPointExtension></extensions></trkpt>
<trkpt lat="22.3015558" lon="114.2589797">
<ele>2</ele><time>2025-01-30T08:57:15.999Z</time><extensions><gpxtpx:TrackPointExtension><gpxtpx:hr>110</gpxtpx:hr></gpxtpx:TrackPointExtension></extensions></trkpt>
<trkpt lat="22.3015760" lon="114.2590276">
<ele>2</ele><time>2025-01-30T08:57:17.999Z</time><extensions><gpxtpx:TrackPointExtension><gpxtpx:hr>110</gpxtpx:hr></gpxtpx:TrackPointExtension></extensions></trkpt>
<trkpt lat="22.3015850" lon="114.2590838">
<ele>2</ele><time>2025-01-30T08:57:20.999Z</time><extensions><gpxtpx:TrackPointExtension><gpxtpx:hr>110</gpxtpx:hr></gpxtpx:TrackPointExtension></extensions></trkpt>
<trkpt lat="22.3015872" lon="114.2591406">
<ele>2</ele><time>2025-01-30T08:57:23.999Z</time><extensions><gpxtpx:TrackPointExtension><gpxtpx:hr>110</gpxtpx:hr></gpxtpx:TrackPointExtension></extensions></trkpt>
<trkpt lat="22.3015758" lon="114.2591916">
<ele>2</ele><time>2025-01-30T08:57:26.999Z</time><extensions><gpxtpx:TrackPointExtension><gpxtpx:hr>109</gpxtpx:hr></gpxtpx:TrackPointExtension></extensions></trkpt>
<trkpt lat="22.3016045" lon="114.2592507">
<ele>2</ele><time>2025-01-30T08:57:30.999Z</time><extensions><gpxtpx:TrackPointExtension><gpxtpx:hr>109</gpxtpx:hr></gpxtpx:TrackPointExtension></extensions></trkpt>
<trkpt lat="22.3016047" lon="114.2593176">
<ele>2</ele><time>2025-01-30T08:58:20.999Z</time><extensions><gpxtpx:TrackPointExtension><gpxtpx:hr>103</gpxtpx:hr></gpxtpx:TrackPointExtension></extensions></trkpt>
<trkpt lat="22.3016342" lon="114.2593620">
<ele>2</ele><time>2025-01-30T08:58:22.999Z</time><extensions><gpxtpx:TrackPointExtension><gpxtpx:hr>103</gpxtpx:hr></gpxtpx:TrackPointExtension></extensions></trkpt>
<trkpt lat="22.3016743" lon="114.2593951">
<ele>2</ele><time>2025-01-30T08:58:24.999Z</time><extensions><gpxtpx:TrackPointExtension><gpxtpx:hr>103</gpxtpx:hr></gpxtpx:TrackPointExtension></extensions></trkpt>
<trkpt lat="22.3017135" lon="114.2594305">
<ele>2</ele><time>2025-01-30T08:58:26.999Z</time><extensions><gpxtpx:TrackPointExtension><gpxtpx:hr>103</gpxtpx:hr></gpxtpx:TrackPointExtension></extensions></trkpt>
<trkpt lat="22.3017724" lon="114.2594643">
<ele>3</ele><time>2025-01-30T08:58:30.000Z</time><extensions><gpxtpx:TrackPointExtension><gpxtpx:hr>104</gpxtpx:hr></gpxtpx:TrackPointExtension></extensions></trkpt>
<trkpt lat="22.3018303" lon="114.2594997">
<ele>3</ele><time>2025-01-30T08:58:33.000Z</time><extensions><gpxtpx:TrackPointExtension><gpxtpx:hr>104</gpxtpx:hr></gpxtpx:TrackPointExtension></extensions></trkpt>
<trkpt lat="22.3018712" lon="114.2595260">
<ele>3</ele><time>2025-01-30T08:58:35.000Z</time><extensions><gpxtpx:TrackPointExtension><gpxtpx:hr>106</gpxtpx:hr></gpxtpx:TrackPointExtension></extensions></trkpt>
<trkpt lat="22.3019104" lon="114.2595631">
<ele>3</ele><time>2025-01-30T08:58:37.000Z</time><extensions><gpxtpx:TrackPointExtension><gpxtpx:hr>106</gpxtpx:hr></gpxtpx:TrackPointExtension></extensions></trkpt>
<trkpt lat="22.3019481" lon="114.2595999">
<ele>3</ele><time>2025-01-30T08:58:39.000Z</time><extensions><gpxtpx:TrackPointExtension><gpxtpx:hr>106</gpxtpx:hr></gpxtpx:TrackPointExtension></extensions></trkpt>
<trkpt lat="22.3019815" lon="114.2596433">
<ele>3</ele><time>2025-01-30T08:58:41.000Z</time><extensions><gpxtpx:TrackPointExtension><gpxtpx:hr>106</gpxtpx:hr></gpxtpx:TrackPointExtension></extensions></trkpt>
<trkpt lat="22.3020109" lon="114.2596885">
<ele>4</ele><time>2025-01-30T08:58:43.000Z</time><extensions><gpxtpx:TrackPointExtension><gpxtpx:hr>106</gpxtpx:hr></gpxtpx:TrackPointExtension></extensions></trkpt>
<trkpt lat="22.3020386" lon="114.2597361">
<ele>4</ele><time>2025-01-30T08:58:45.000Z</time><extensions><gpxtpx:TrackPointExtension><gpxtpx:hr>109</gpxtpx:hr></gpxtpx:TrackPointExtension></extensions></trkpt>
<trkpt lat="22.3020575" lon="114.2597820">
<ele>4</ele><time>2025-01-30T08:58:47.000Z</time><extensions><gpxtpx:TrackPointExtension><gpxtpx:hr>109</gpxtpx:hr></gpxtpx:TrackPointExtension></extensions></trkpt>
<trkpt lat="22.3020790" lon="114.2598414">
<ele>3</ele><time>2025-01-30T08:58:50.000Z</time><extensions><gpxtpx:TrackPointExtension><gpxtpx:hr>106</gpxtpx:hr></gpxtpx:TrackPointExtension></extensions></trkpt>
<trkpt lat="22.3020988" lon="114.2599089">
<ele>3</ele><time>2025-01-30T08:58:53.000Z</time><extensions><gpxtpx:TrackPointExtension><gpxtpx:hr>106</gpxtpx:hr></gpxtpx:TrackPointExtension></extensions></trkpt>
<trkpt lat="22.3021062" lon="114.2599569">
<ele>3</ele><time>2025-01-30T08:58:55.000Z</time><extensions><gpxtpx:TrackPointExtension><gpxtpx:hr>106</gpxtpx:hr></gpxtpx:TrackPointExtension></extensions></trkpt>
<trkpt lat="22.3021124" lon="114.2600063">
<ele>3</ele><time>2025-01-30T08:58:57.000Z</time><extensions><gpxtpx:TrackPointExtension><gpxtpx:hr>106</gpxtpx:hr></gpxtpx:TrackPointExtension></extensions></trkpt>
<trkpt lat="22.3021156" lon="114.2600613">
<ele>3</ele><time>2025-01-30T08:58:59.000Z</time><extensions><gpxtpx:TrackPointExtension><gpxtpx:hr>106</gpxtpx:hr></gpxtpx:TrackPointExtension></extensions></trkpt>
<trkpt lat="22.3021035" lon="114.2601318">
<ele>3</ele><time>2025-01-30T08:59:02.000Z</time><extensions><gpxtpx:TrackPointExtension><gpxtpx:hr>107</gpxtpx:hr></gpxtpx:TrackPointExtension></extensions></trkpt>
<trkpt lat="22.3020965" lon="114.2601842">
<ele>3</ele><time>2025-01-30T08:59:04.000Z</time><extensions><gpxtpx:TrackPointExtension><gpxtpx:hr>107</gpxtpx:hr></gpxtpx:TrackPointExtension></extensions></trkpt>
<trkpt lat="22.3020853" lon="114.2602388">
<ele>3</ele><time>2025-01-30T08:59:06.000Z</time><extensions><gpxtpx:TrackPointExtension><gpxtpx:hr>108</gpxtpx:hr></gpxtpx:TrackPointExtension></extensions></trkpt>
<trkpt lat="22.3020649" lon="114.2602899">
<ele>3</ele><time>2025-01-30T08:59:08.000Z</time><extensions><gpxtpx:TrackPointExtension><gpxtpx:hr>108</gpxtpx:hr></gpxtpx:TrackPointExtension></extensions></trkpt>
<trkpt lat="22.3020379" lon="114.2603385">
<ele>3</ele><time>2025-01-30T08:59:10.000Z</time><extensions><gpxtpx:TrackPointExtension><gpxtpx:hr>108</gpxtpx:hr></gpxtpx:TrackPointExtension></extensions></trkpt>
<trkpt lat="22.3020094" lon="114.2604035">
<ele>3</ele><time>2025-01-30T08:59:13.000Z</time><extensions><gpxtpx:TrackPointExtension><gpxtpx:hr>107</gpxtpx:hr></gpxtpx:TrackPointExtension></extensions></trkpt>
<trkpt lat="22.3019775" lon="114.2604491">
<ele>3</ele><time>2025-01-30T08:59:15.000Z</time><extensions><gpxtpx:TrackPointExtension><gpxtpx:hr>107</gpxtpx:hr></gpxtpx:TrackPointExtension></extensions></trkpt>
<trkpt lat="22.3019387" lon="114.2605001">
<ele>3</ele><time>2025-01-30T08:59:17.000Z</time><extensions><gpxtpx:TrackPointExtension><gpxtpx:hr>104</gpxtpx:hr></gpxtpx:TrackPointExtension></extensions></trkpt>
<trkpt lat="22.3018903" lon="114.2605463">
<ele>3</ele><time>2025-01-30T08:59:19.000Z</time><extensions><gpxtpx:TrackPointExtension><gpxtpx:hr>104</gpxtpx:hr></gpxtpx:TrackPointExtension></extensions></trkpt>
<trkpt lat="22.3018452" lon="114.2605792">
<ele>3</ele><time>2025-01-30T08:59:22.000Z</time><extensions><gpxtpx:TrackPointExtension><gpxtpx:hr>104</gpxtpx:hr></gpxtpx:TrackPointExtension></extensions></trkpt>
<trkpt lat="22.3017992" lon="114.2606139">
<ele>3</ele><time>2025-01-30T08:59:25.000Z</time><extensions><gpxtpx:TrackPointExtension><gpxtpx:hr>104</gpxtpx:hr></gpxtpx:TrackPointExtension></extensions></trkpt>
<trkpt lat="22.3017554" lon="114.2606473">
<ele>3</ele><time>2025-01-30T08:59:28.000Z</time><extensions><gpxtpx:TrackPointExtension><gpxtpx:hr>105</gpxtpx:hr></gpxtpx:TrackPointExtension></extensions></trkpt>
<trkpt lat="22.3017162" lon="114.2606934">
<ele>3</ele><time>2025-01-30T08:59:31.000Z</time><extensions><gpxtpx:TrackPointExtension><gpxtpx:hr>105</gpxtpx:hr></gpxtpx:TrackPointExtension></extensions></trkpt>
<trkpt lat="22.3016803" lon="114.2607481">
<ele>3</ele><time>2025-01-30T08:59:34.000Z</time><extensions><gpxtpx:TrackPointExtension><gpxtpx:hr>105</gpxtpx:hr></gpxtpx:TrackPointExtension></extensions></trkpt>
<trkpt lat="22.3016528" lon="114.2608076">
<ele>3</ele><time>2025-01-30T08:59:37.000Z</time><extensions><gpxtpx:TrackPointExtension><gpxtpx:hr>106</gpxtpx:hr></gpxtpx:TrackPointExtension></extensions></trkpt>
<trkpt lat="22.3016336" lon="114.2608630">
<ele>3</ele><time>2025-01-30T08:59:40.000Z</time><extensions><gpxtpx:TrackPointExtension><gpxtpx:hr>106</gpxtpx:hr></gpxtpx:TrackPointExtension></extensions></trkpt>
<trkpt lat="22.3016268" lon="114.2609135">
<ele>3</ele><time>2025-01-30T08:59:43.000Z</time><extensions><gpxtpx:TrackPointExtension><gpxtpx:hr>105</gpxtpx:hr></gpxtpx:TrackPointExtension></extensions></trkpt>
<trkpt lat="22.3016293" lon="114.2609654">
<ele>3</ele><time>2025-01-30T08:59:47.000Z</time><extensions><gpxtpx:TrackPointExtension><gpxtpx:hr>104</gpxtpx:hr></gpxtpx:TrackPointExtension></extensions></trkpt>
<trkpt lat="22.3016189" lon="114.2610292">
<ele>3</ele><time>2025-01-30T09:00:41.000Z</time><extensions><gpxtpx:TrackPointExtension><gpxtpx:hr>102</gpxtpx:hr></gpxtpx:TrackPointExtension></extensions></trkpt>
<trkpt lat="22.3016205" lon="114.2610967">
<ele>3</ele><time>2025-01-30T09:00:44.000Z</time><extensions><gpxtpx:TrackPointExtension><gpxtpx:hr>102</gpxtpx:hr></gpxtpx:TrackPointExtension></extensions></trkpt>
<trkpt lat="22.3016446" lon="114.2611467">
<ele>3</ele><time>2025-01-30T09:00:46.000Z</time><extensions><gpxtpx:TrackPointExtension><gpxtpx:hr>104</gpxtpx:hr></gpxtpx:TrackPointExtension></extensions></trkpt>
<trkpt lat="22.3016999" lon="114.2611689">
<ele>3</ele><time>2025-01-30T09:00:48.000Z</time><extensions><gpxtpx:TrackPointExtension><gpxtpx:hr>104</gpxtpx:hr></gpxtpx:TrackPointExtension></extensions></trkpt>
<trkpt lat="22.3017303" lon="114.2612175">
<ele>3</ele><time>2025-01-30T09:00:50.000Z</time><extensions><gpxtpx:TrackPointExtension><gpxtpx:hr>104</gpxtpx:hr></gpxtpx:TrackPointExtension></extensions></trkpt>
<trkpt lat="22.3017235" lon="114.2612732">
<ele>3</ele><time>2025-01-30T09:00:52.000Z</time><extensions><gpxtpx:TrackPointExtension><gpxtpx:hr>106</gpxtpx:hr></gpxtpx:TrackPointExtension></extensions></trkpt>
<trkpt lat="22.3017218" lon="114.2613294">
<ele>3</ele><time>2025-01-30T09:00:54.000Z</time><extensions><gpxtpx:TrackPointExtension><gpxtpx:hr>106</gpxtpx:hr></gpxtpx:TrackPointExtension></extensions></trkpt>
<trkpt lat="22.3017220" lon="114.2613907">
<ele>3</ele><time>2025-01-30T09:00:56.000Z</time><extensions><gpxtpx:TrackPointExtension><gpxtpx:hr>104</gpxtpx:hr></gpxtpx:TrackPointExtension></extensions></trkpt>
<trkpt lat="22.3017222" lon="114.2614520">
<ele>3</ele><time>2025-01-30T09:00:58.000Z</time><extensions><gpxtpx:TrackPointExtension><gpxtpx:hr>104</gpxtpx:hr></gpxtpx:TrackPointExtension></extensions></trkpt>
<trkpt lat="22.3017371" lon="114.2615066">
<ele>3</ele><time>2025-01-30T09:01:00.000Z</time><extensions><gpxtpx:TrackPointExtension><gpxtpx:hr>104</gpxtpx:hr></gpxtpx:TrackPointExtension></extensions></trkpt>
<trkpt lat="22.3017885" lon="114.2615268">
<ele>3</ele><time>2025-01-30T09:01:02.000Z</time><extensions><gpxtpx:TrackPointExtension><gpxtpx:hr>104</gpxtpx:hr></gpxtpx:TrackPointExtension></extensions></trkpt>
<trkpt lat="22.3018377" lon="114.2615263">
<ele>3</ele><time>2025-01-30T09:01:04.000Z</time><extensions><gpxtpx:TrackPointExtension><gpxtpx:hr>104</gpxtpx:hr></gpxtpx:TrackPointExtension></extensions></trkpt>
<trkpt lat="22.3018886" lon="114.2615235">
<ele>3</ele><time>2025-01-30T09:01:06.000Z</time><extensions><gpxtpx:TrackPointExtension><gpxtpx:hr>104</gpxtpx:hr></gpxtpx:TrackPointExtension></extensions></trkpt>
<trkpt lat="22.3019412" lon="114.2615202">
<ele>3</ele><time>2025-01-30T09:01:08.000Z</time><extensions><gpxtpx:TrackPointExtension><gpxtpx:hr>104</gpxtpx:hr></gpxtpx:TrackPointExtension></extensions></trkpt>
<trkpt lat="22.3019896" lon="114.2615256">
<ele>3</ele><time>2025-01-30T09:01:10.000Z</time><extensions><gpxtpx:TrackPointExtension><gpxtpx:hr>104</gpxtpx:hr></gpxtpx:TrackPointExtension></extensions></trkpt>
<trkpt lat="22.3020387" lon="114.2615300">
<ele>3</ele><time>2025-01-30T09:01:12.000Z</time><extensions><gpxtpx:TrackPointExtension><gpxtpx:hr>103</gpxtpx:hr></gpxtpx:TrackPointExtension></extensions></trkpt>
<trkpt lat="22.3020883" lon="114.2615276">
<ele>3</ele><time>2025-01-30T09:01:14.000Z</time><extensions><gpxtpx:TrackPointExtension><gpxtpx:hr>103</gpxtpx:hr></gpxtpx:TrackPointExtension></extensions></trkpt>
<trkpt lat="22.3021387" lon="114.2615238">
<ele>3</ele><time>2025-01-30T09:01:16.000Z</time><extensions><gpxtpx:TrackPointExtension><gpxtpx:hr>102</gpxtpx:hr></gpxtpx:TrackPointExtension></extensions></trkpt>
<trkpt lat="22.3021896" lon="114.2615278">
<ele>3</ele><time>2025-01-30T09:01:18.000Z</time><extensions><gpxtpx:TrackPointExtension><gpxtpx:hr>102</gpxtpx:hr></gpxtpx:TrackPointExtension></extensions></trkpt>
<trkpt lat="22.3022433" lon="114.2615297">
<ele>2</ele><time>2025-01-30T09:01:20.000Z</time><extensions><gpxtpx:TrackPointExtension><gpxtpx:hr>102</gpxtpx:hr></gpxtpx:TrackPointExtension></extensions></trkpt>
<trkpt lat="22.3023023" lon="114.2615347">
<ele>2</ele><time>2025-01-30T09:01:23.000Z</time><extensions><gpxtpx:TrackPointExtension><gpxtpx:hr>101</gpxtpx:hr></gpxtpx:TrackPointExtension></extensions></trkpt>
<trkpt lat="22.3023469" lon="114.2615150">
<ele>2</ele><time>2025-01-30T09:01:27.000Z</time><extensions><gpxtpx:TrackPointExtension><gpxtpx:hr>101</gpxtpx:hr></gpxtpx:TrackPointExtension></extensions></trkpt>
<trkpt lat="22.3023837" lon="114.2614807">
<ele>2</ele><time>2025-01-30T09:01:40.000Z</time><extensions><gpxtpx:TrackPointExtension><gpxtpx:hr>102</gpxtpx:hr></gpxtpx:TrackPointExtension></extensions></trkpt>
<trkpt lat="22.3023750" lon="114.2614325">
<ele>2</ele><time>2025-01-30T09:01:42.000Z</time><extensions><gpxtpx:TrackPointExtension><gpxtpx:hr>103</gpxtpx:hr></gpxtpx:TrackPointExtension></extensions></trkpt>
<trkpt lat="22.3023735" lon="114.2613665">
<ele>2</ele><time>2025-01-30T09:01:45.000Z</time><extensions><gpxtpx:TrackPointExtension><gpxtpx:hr>103</gpxtpx:hr></gpxtpx:TrackPointExtension></extensions></trkpt>
<trkpt lat="22.3023924" lon="114.2613156">
<ele>2</ele><time>2025-01-30T09:01:47.000Z</time><extensions><gpxtpx:TrackPointExtension><gpxtpx:hr>103</gpxtpx:hr></gpxtpx:TrackPointExtension></extensions></trkpt>
<trkpt lat="22.3024191" lon="114.2612746">
<ele>2</ele><time>2025-01-30T09:01:49.000Z</time><extensions><gpxtpx:TrackPointExtension><gpxtpx:hr>103</gpxtpx:hr></gpxtpx:TrackPointExtension></extensions></trkpt>
<trkpt lat="22.3024535" lon="114.2612357">
<ele>2</ele><time>2025-01-30T09:01:51.000Z</time><extensions><gpxtpx:TrackPointExtension><gpxtpx:hr>103</gpxtpx:hr></gpxtpx:TrackPointExtension></extensions></trkpt>
<trkpt lat="22.3025040" lon="114.2611994">
<ele>2</ele><time>2025-01-30T09:01:53.000Z</time><extensions><gpxtpx:TrackPointExtension><gpxtpx:hr>103</gpxtpx:hr></gpxtpx:TrackPointExtension></extensions></trkpt>
<trkpt lat="22.3025523" lon="114.2611823">
<ele>2</ele><time>2025-01-30T09:01:55.000Z</time><extensions><gpxtpx:TrackPointExtension><gpxtpx:hr>103</gpxtpx:hr></gpxtpx:TrackPointExtension></extensions></trkpt>
<trkpt lat="22.3026114" lon="114.2611774">
<ele>2</ele><time>2025-01-30T09:01:58.000Z</time><extensions><gpxtpx:TrackPointExtension><gpxtpx:hr>104</gpxtpx:hr></gpxtpx:TrackPointExtension></extensions></trkpt>
<trkpt lat="22.3026568" lon="114.2611712">
<ele>2</ele><time>2025-01-30T09:02:02.000Z</time><extensions><gpxtpx:TrackPointExtension><gpxtpx:hr>105</gpxtpx:hr></gpxtpx:TrackPointExtension></extensions></trkpt>
<trkpt lat="22.3026910" lon="114.2611367">
<ele>2</ele><time>2025-01-30T09:02:23.000Z</time><extensions><gpxtpx:TrackPointExtension><gpxtpx:hr>105</gpxtpx:hr></gpxtpx:TrackPointExtension></extensions></trkpt>
<trkpt lat="22.3026698" lon="114.2610885">
<ele>2</ele><time>2025-01-30T09:03:00.000Z</time><extensions><gpxtpx:TrackPointExtension><gpxtpx:hr>96</gpxtpx:hr></gpxtpx:TrackPointExtension></extensions></trkpt>
<trkpt lat="22.3027116" lon="114.2611079">
<ele>2</ele><time>2025-01-30T09:03:22.000Z</time><extensions><gpxtpx:TrackPointExtension><gpxtpx:hr>95</gpxtpx:hr></gpxtpx:TrackPointExtension></extensions></trkpt>
<trkpt lat="22.3027140" lon="114.2611626">
<ele>2</ele><time>2025-01-30T09:08:21.994Z</time><extensions><gpxtpx:TrackPointExtension><gpxtpx:hr>86</gpxtpx:hr></gpxtpx:TrackPointExtension></extensions></trkpt>
<trkpt lat="22.3026463" lon="114.2611930">
<ele>2</ele><time>2025-01-30T09:08:25.994Z</time><extensions><gpxtpx:TrackPointExtension><gpxtpx:hr>83</gpxtpx:hr></gpxtpx:TrackPointExtension></extensions></trkpt>
<trkpt lat="22.3025889" lon="114.2611935">
<ele>1</ele><time>2025-01-30T09:08:27.994Z</time><extensions><gpxtpx:TrackPointExtension><gpxtpx:hr>83</gpxtpx:hr></gpxtpx:TrackPointExtension></extensions></trkpt>
<trkpt lat="22.3025434" lon="114.2612094">
<ele>1</ele><time>2025-01-30T09:08:29.994Z</time><extensions><gpxtpx:TrackPointExtension><gpxtpx:hr>83</gpxtpx:hr></gpxtpx:TrackPointExtension></extensions></trkpt>
<trkpt lat="22.3025040" lon="114.2612378">
<ele>1</ele><time>2025-01-30T09:08:31.994Z</time><extensions><gpxtpx:TrackPointExtension><gpxtpx:hr>84</gpxtpx:hr></gpxtpx:TrackPointExtension></extensions></trkpt>
<trkpt lat="22.3024741" lon="114.2612851">
<ele>1</ele><time>2025-01-30T09:08:33.994Z</time><extensions><gpxtpx:TrackPointExtension><gpxtpx:hr>84</gpxtpx:hr></gpxtpx:TrackPointExtension></extensions></trkpt>
<trkpt lat="22.3024509" lon="114.2613295">
<ele>1</ele><time>2025-01-30T09:08:35.994Z</time><extensions><gpxtpx:TrackPointExtension><gpxtpx:hr>88</gpxtpx:hr></gpxtpx:TrackPointExtension></extensions></trkpt>
<trkpt lat="22.3024255" lon="114.2613834">
<ele>1</ele><time>2025-01-30T09:08:40.994Z</time><extensions><gpxtpx:TrackPointExtension><gpxtpx:hr>95</gpxtpx:hr></gpxtpx:TrackPointExtension></extensions></trkpt>
<trkpt lat="22.3024236" lon="114.2614539">
<ele>1</ele><time>2025-01-30T09:08:43.995Z</time><extensions><gpxtpx:TrackPointExtension><gpxtpx:hr>95</gpxtpx:hr></gpxtpx:TrackPointExtension></extensions></trkpt>
<trkpt lat="22.3024133" lon="114.2615191">
<ele>1</ele><time>2025-01-30T09:08:46.996Z</time><extensions><gpxtpx:TrackPointExtension><gpxtpx:hr>101</gpxtpx:hr></gpxtpx:TrackPointExtension></extensions></trkpt>
<trkpt lat="22.3023533" lon="114.2615498">
<ele>1</ele><time>2025-01-30T09:08:49.996Z</time><extensions><gpxtpx:TrackPointExtension><gpxtpx:hr>101</gpxtpx:hr></gpxtpx:TrackPointExtension></extensions></trkpt>
<trkpt lat="22.3023065" lon="114.2615571">
<ele>1</ele><time>2025-01-30T09:08:51.997Z</time><extensions><gpxtpx:TrackPointExtension><gpxtpx:hr>100</gpxtpx:hr></gpxtpx:TrackPointExtension></extensions></trkpt>
<trkpt lat="22.3022583" lon="114.2615606">
<ele>1</ele><time>2025-01-30T09:08:53.997Z</time><extensions><gpxtpx:TrackPointExtension><gpxtpx:hr>100</gpxtpx:hr></gpxtpx:TrackPointExtension></extensions></trkpt>
<trkpt lat="22.3022054" lon="114.2615605">
<ele>1</ele><time>2025-01-30T09:08:55.997Z</time><extensions><gpxtpx:TrackPointExtension><gpxtpx:hr>97</gpxtpx:hr></gpxtpx:TrackPointExtension></extensions></trkpt>
<trkpt lat="22.3021522" lon="114.2615623">
<ele>2</ele><time>2025-01-30T09:08:57.998Z</time><extensions><gpxtpx:TrackPointExtension><gpxtpx:hr>97</gpxtpx:hr></gpxtpx:TrackPointExtension></extensions></trkpt>
<trkpt lat="22.3020989" lon="114.2615682">
<ele>2</ele><time>2025-01-30T09:08:59.998Z</time><extensions><gpxtpx:TrackPointExtension><gpxtpx:hr>97</gpxtpx:hr></gpxtpx:TrackPointExtension></extensions></trkpt>
<trkpt lat="22.3020466" lon="114.2615724">
<ele>2</ele><time>2025-01-30T09:09:01.998Z</time><extensions><gpxtpx:TrackPointExtension><gpxtpx:hr>97</gpxtpx:hr></gpxtpx:TrackPointExtension></extensions></trkpt>
<trkpt lat="22.3019981" lon="114.2615736">
<ele>2</ele><time>2025-01-30T09:09:03.998Z</time><extensions><gpxtpx:TrackPointExtension><gpxtpx:hr>97</gpxtpx:hr></gpxtpx:TrackPointExtension></extensions></trkpt>
<trkpt lat="22.3019464" lon="114.2615783">
<ele>2</ele><time>2025-01-30T09:09:05.998Z</time><extensions><gpxtpx:TrackPointExtension><gpxtpx:hr>98</gpxtpx:hr></gpxtpx:TrackPointExtension></extensions></trkpt>
<trkpt lat="22.3018968" lon="114.2615801">
<ele>3</ele><time>2025-01-30T09:09:07.998Z</time><extensions><gpxtpx:TrackPointExtension><gpxtpx:hr>98</gpxtpx:hr></gpxtpx:TrackPointExtension></extensions></trkpt>
<trkpt lat="22.3018471" lon="114.2615764">
<ele>3</ele><time>2025-01-30T09:09:09.999Z</time><extensions><gpxtpx:TrackPointExtension><gpxtpx:hr>98</gpxtpx:hr></gpxtpx:TrackPointExtension></extensions></trkpt>
<trkpt lat="22.3017792" lon="114.2615724">
<ele>3</ele><time>2025-01-30T09:09:12.999Z</time><extensions><gpxtpx:TrackPointExtension><gpxtpx:hr>99</gpxtpx:hr></gpxtpx:TrackPointExtension></extensions></trkpt>
<trkpt lat="22.3017325" lon="114.2615525">
<ele>3</ele><time>2025-01-30T09:09:14.999Z</time><extensions><gpxtpx:TrackPointExtension><gpxtpx:hr>99</gpxtpx:hr></gpxtpx:TrackPointExtension></extensions></trkpt>
<trkpt lat="22.3016866" lon="114.2614989">
<ele>3</ele><time>2025-01-30T09:09:16.999Z</time><extensions><gpxtpx:TrackPointExtension><gpxtpx:hr>103</gpxtpx:hr></gpxtpx:TrackPointExtension></extensions></trkpt>
<trkpt lat="22.3016845" lon="114.2614141">
<ele>3</ele><time>2025-01-30T09:09:18.999Z</time><extensions><gpxtpx:TrackPointExtension><gpxtpx:hr>103</gpxtpx:hr></gpxtpx:TrackPointExtension></extensions></trkpt>
<trkpt lat="22.3016941" lon="114.2613398">
<ele>3</ele><time>2025-01-30T09:09:20.999Z</time><extensions><gpxtpx:TrackPointExtension><gpxtpx:hr>103</gpxtpx:hr></gpxtpx:TrackPointExtension></extensions></trkpt>
<trkpt lat="22.3016931" lon="114.2612724">
<ele>2</ele><time>2025-01-30T09:09:22.999Z</time><extensions><gpxtpx:TrackPointExtension><gpxtpx:hr>103</gpxtpx:hr></gpxtpx:TrackPointExtension></extensions></trkpt>
<trkpt lat="22.3016850" lon="114.2612152">
<ele>2</ele><time>2025-01-30T09:09:24.999Z</time><extensions><gpxtpx:TrackPointExtension><gpxtpx:hr>103</gpxtpx:hr></gpxtpx:TrackPointExtension></extensions></trkpt>
<trkpt lat="22.3016230" lon="114.2612030">
<ele>2</ele><time>2025-01-30T09:09:27.999Z</time><extensions><gpxtpx:TrackPointExtension><gpxtpx:hr>101</gpxtpx:hr></gpxtpx:TrackPointExtension></extensions></trkpt>
<trkpt lat="22.3016074" lon="114.2612587">
<ele>2</ele><time>2025-01-30T09:09:29.999Z</time><extensions><gpxtpx:TrackPointExtension><gpxtpx:hr>102</gpxtpx:hr></gpxtpx:TrackPointExtension></extensions></trkpt>
<trkpt lat="22.3016120" lon="114.2613434">
<ele>2</ele><time>2025-01-30T09:09:31.999Z</time><extensions><gpxtpx:TrackPointExtension><gpxtpx:hr>102</gpxtpx:hr></gpxtpx:TrackPointExtension></extensions></trkpt>
<trkpt lat="22.3016139" lon="114.2614344">
<ele>2</ele><time>2025-01-30T09:09:33.999Z</time><extensions><gpxtpx:TrackPointExtension><gpxtpx:hr>102</gpxtpx:hr></gpxtpx:TrackPointExtension></extensions></trkpt>
<trkpt lat="22.3016152" lon="114.2614834">
<ele>2</ele><time>2025-01-30T09:09:34.999Z</time><extensions><gpxtpx:TrackPointExtension><gpxtpx:hr>103</gpxtpx:hr></gpxtpx:TrackPointExtension></extensions></trkpt>
<trkpt lat="22.3016134" lon="114.2615325">
<ele>1</ele><time>2025-01-30T09:09:35.999Z</time><extensions><gpxtpx:TrackPointExtension><gpxtpx:hr>103</gpxtpx:hr></gpxtpx:TrackPointExtension></extensions></trkpt>
<trkpt lat="22.3016117" lon="114.2615842">
<ele>1</ele><time>2025-01-30T09:09:36.999Z</time><extensions><gpxtpx:TrackPointExtension><gpxtpx:hr>103</gpxtpx:hr></gpxtpx:TrackPointExtension></extensions></trkpt>
<trkpt lat="22.3016141" lon="114.2616670">
<ele>1</ele><time>2025-01-30T09:09:38.999Z</time><extensions><gpxtpx:TrackPointExtension><gpxtpx:hr>103</gpxtpx:hr></gpxtpx:TrackPointExtension></extensions></trkpt>
<trkpt lat="22.3016125" lon="114.2617640">
<ele>1</ele><time>2025-01-30T09:09:40.999Z</time><extensions><gpxtpx:TrackPointExtension><gpxtpx:hr>103</gpxtpx:hr></gpxtpx:TrackPointExtension></extensions></trkpt>
<trkpt lat="22.3016137" lon="114.2618390">
<ele>1</ele><time>2025-01-30T09:09:42.999Z</time><extensions><gpxtpx:TrackPointExtension><gpxtpx:hr>103</gpxtpx:hr></gpxtpx:TrackPointExtension></extensions></trkpt>
<trkpt lat="22.3016125" lon="114.2619138">
<ele>1</ele><time>2025-01-30T09:09:44.999Z</time><extensions><gpxtpx:TrackPointExtension><gpxtpx:hr>102</gpxtpx:hr></gpxtpx:TrackPointExtension></extensions></trkpt>
<trkpt lat="22.3016220" lon="114.2619869">
<ele>1</ele><time>2025-01-30T09:09:46.999Z</time><extensions><gpxtpx:TrackPointExtension><gpxtpx:hr>102</gpxtpx:hr></gpxtpx:TrackPointExtension></extensions></trkpt>
<trkpt lat="22.3016202" lon="114.2620599">
<ele>1</ele><time>2025-01-30T09:09:48.999Z</time><extensions><gpxtpx:TrackPointExtension><gpxtpx:hr>102</gpxtpx:hr></gpxtpx:TrackPointExtension></extensions></trkpt>
<trkpt lat="22.3016182" lon="114.2621274">
<ele>1</ele><time>2025-01-30T09:09:50.999Z</time><extensions><gpxtpx:TrackPointExtension><gpxtpx:hr>102</gpxtpx:hr></gpxtpx:TrackPointExtension></extensions></trkpt>
<trkpt lat="22.3016213" lon="114.2621911">
<ele>2</ele><time>2025-01-30T09:09:52.999Z</time><extensions><gpxtpx:TrackPointExtension><gpxtpx:hr>102</gpxtpx:hr></gpxtpx:TrackPointExtension></extensions></trkpt>
<trkpt lat="22.3016231" lon="114.2622551">
<ele>2</ele><time>2025-01-30T09:09:54.999Z</time><extensions><gpxtpx:TrackPointExtension><gpxtpx:hr>101</gpxtpx:hr></gpxtpx:TrackPointExtension></extensions></trkpt>
<trkpt lat="22.3016214" lon="114.2623256">
<ele>2</ele><time>2025-01-30T09:09:56.999Z</time><extensions><gpxtpx:TrackPointExtension><gpxtpx:hr>101</gpxtpx:hr></gpxtpx:TrackPointExtension></extensions></trkpt>
<trkpt lat="22.3016206" lon="114.2623819">
<ele>3</ele><time>2025-01-30T09:09:58.999Z</time><extensions><gpxtpx:TrackPointExtension><gpxtpx:hr>101</gpxtpx:hr></gpxtpx:TrackPointExtension></extensions></trkpt>
<trkpt lat="22.3016279" lon="114.2624455">
<ele>3</ele><time>2025-01-30T09:10:00.999Z</time><extensions><gpxtpx:TrackPointExtension><gpxtpx:hr>102</gpxtpx:hr></gpxtpx:TrackPointExtension></extensions></trkpt>
<trkpt lat="22.3016210" lon="114.2625137">
<ele>3</ele><time>2025-01-30T09:10:02.999Z</time><extensions><gpxtpx:TrackPointExtension><gpxtpx:hr>102</gpxtpx:hr></gpxtpx:TrackPointExtension></extensions></trkpt>
<trkpt lat="22.3016238" lon="114.2625799">
<ele>3</ele><time>2025-01-30T09:10:04.999Z</time><extensions><gpxtpx:TrackPointExtension><gpxtpx:hr>104</gpxtpx:hr></gpxtpx:TrackPointExtension></extensions></trkpt>
<trkpt lat="22.3016249" lon="114.2626490">
<ele>2</ele><time>2025-01-30T09:10:06.999Z</time><extensions><gpxtpx:TrackPointExtension><gpxtpx:hr>104</gpxtpx:hr></gpxtpx:TrackPointExtension></extensions></trkpt>
<trkpt lat="22.3016306" lon="114.2627188">
<ele>2</ele><time>2025-01-30T09:10:08.999Z</time><extensions><gpxtpx:TrackPointExtension><gpxtpx:hr>104</gpxtpx:hr></gpxtpx:TrackPointExtension></extensions></trkpt>
<trkpt lat="22.3016385" lon="114.2627761">
<ele>2</ele><time>2025-01-30T09:10:10.999Z</time><extensions><gpxtpx:TrackPointExtension><gpxtpx:hr>104</gpxtpx:hr></gpxtpx:TrackPointExtension></extensions></trkpt>
<trkpt lat="22.3016500" lon="114.2628256">
<ele>2</ele><time>2025-01-30T09:10:12.999Z</time><extensions><gpxtpx:TrackPointExtension><gpxtpx:hr>104</gpxtpx:hr></gpxtpx:TrackPointExtension></extensions></trkpt>
<trkpt lat="22.3016634" lon="114.2628817">
<ele>2</ele><time>2025-01-30T09:10:14.999Z</time><extensions><gpxtpx:TrackPointExtension><gpxtpx:hr>107</gpxtpx:hr></gpxtpx:TrackPointExtension></extensions></trkpt>
<trkpt lat="22.3016833" lon="114.2629437">
<ele>2</ele><time>2025-01-30T09:10:16.999Z</time><extensions><gpxtpx:TrackPointExtension><gpxtpx:hr>107</gpxtpx:hr></gpxtpx:TrackPointExtension></extensions></trkpt>
<trkpt lat="22.3017099" lon="114.2630062">
<ele>2</ele><time>2025-01-30T09:10:18.999Z</time><extensions><gpxtpx:TrackPointExtension><gpxtpx:hr>107</gpxtpx:hr></gpxtpx:TrackPointExtension></extensions></trkpt>
<trkpt lat="22.3017465" lon="114.2630725">
<ele>2</ele><time>2025-01-30T09:10:20.999Z</time><extensions><gpxtpx:TrackPointExtension><gpxtpx:hr>106</gpxtpx:hr></gpxtpx:TrackPointExtension></extensions></trkpt>
<trkpt lat="22.3017851" lon="114.2631373">
<ele>2</ele><time>2025-01-30T09:10:22.999Z</time><extensions><gpxtpx:TrackPointExtension><gpxtpx:hr>106</gpxtpx:hr></gpxtpx:TrackPointExtension></extensions></trkpt>
<trkpt lat="22.3018226" lon="114.2631954">
<ele>3</ele><time>2025-01-30T09:10:24.999Z</time><extensions><gpxtpx:TrackPointExtension><gpxtpx:hr>106</gpxtpx:hr></gpxtpx:TrackPointExtension></extensions></trkpt>
<trkpt lat="22.3018646" lon="114.2632471">
<ele>3</ele><time>2025-01-30T09:10:26.999Z</time><extensions><gpxtpx:TrackPointExtension><gpxtpx:hr>105</gpxtpx:hr></gpxtpx:TrackPointExtension></extensions></trkpt>
<trkpt lat="22.3019061" lon="114.2632950">
<ele>3</ele><time>2025-01-30T09:10:28.999Z</time><extensions><gpxtpx:TrackPointExtension><gpxtpx:hr>105</gpxtpx:hr></gpxtpx:TrackPointExtension></extensions></trkpt>
<trkpt lat="22.3019527" lon="114.2633386">
<ele>3</ele><time>2025-01-30T09:10:30.999Z</time><extensions><gpxtpx:TrackPointExtension><gpxtpx:hr>106</gpxtpx:hr></gpxtpx:TrackPointExtension></extensions></trkpt>
<trkpt lat="22.3020022" lon="114.2633792">
<ele>4</ele><time>2025-01-30T09:10:32.999Z</time><extensions><gpxtpx:TrackPointExtension><gpxtpx:hr>106</gpxtpx:hr></gpxtpx:TrackPointExtension></extensions></trkpt>
<trkpt lat="22.3020605" lon="114.2634110">
<ele>4</ele><time>2025-01-30T09:10:34.999Z</time><extensions><gpxtpx:TrackPointExtension><gpxtpx:hr>106</gpxtpx:hr></gpxtpx:TrackPointExtension></extensions></trkpt>
<trkpt lat="22.3021094" lon="114.2634507">
<ele>4</ele><time>2025-01-30T09:10:36.999Z</time><extensions><gpxtpx:TrackPointExtension><gpxtpx:hr>110</gpxtpx:hr></gpxtpx:TrackPointExtension></extensions></trkpt>
<trkpt lat="22.3021677" lon="114.2634843">
<ele>4</ele><time>2025-01-30T09:10:38.999Z</time><extensions><gpxtpx:TrackPointExtension><gpxtpx:hr>110</gpxtpx:hr></gpxtpx:TrackPointExtension></extensions></trkpt>
<trkpt lat="22.3022272" lon="114.2635203">
<ele>4</ele><time>2025-01-30T09:10:40.999Z</time><extensions><gpxtpx:TrackPointExtension><gpxtpx:hr>115</gpxtpx:hr></gpxtpx:TrackPointExtension></extensions></trkpt>
<trkpt lat="22.3022871" lon="114.2635525">
<ele>4</ele><time>2025-01-30T09:10:42.999Z</time><extensions><gpxtpx:TrackPointExtension><gpxtpx:hr>115</gpxtpx:hr></gpxtpx:TrackPointExtension></extensions></trkpt>
<trkpt lat="22.3023499" lon="114.2635832">
<ele>4</ele><time>2025-01-30T09:10:44.999Z</time><extensions><gpxtpx:TrackPointExtension><gpxtpx:hr>115</gpxtpx:hr></gpxtpx:TrackPointExtension></extensions></trkpt>
<trkpt lat="22.3024115" lon="114.2636099">
<ele>4</ele><time>2025-01-30T09:10:46.999Z</time><extensions><gpxtpx:TrackPointExtension><gpxtpx:hr>117</gpxtpx:hr></gpxtpx:TrackPointExtension></extensions></trkpt>
<trkpt lat="22.3024776" lon="114.2636416">
<ele>3</ele><time>2025-01-30T09:10:48.999Z</time><extensions><gpxtpx:TrackPointExtension><gpxtpx:hr>117</gpxtpx:hr></gpxtpx:TrackPointExtension></extensions></trkpt>
<trkpt lat="22.3025401" lon="114.2636757">
<ele>3</ele><time>2025-01-30T09:10:50.999Z</time><extensions><gpxtpx:TrackPointExtension><gpxtpx:hr>117</gpxtpx:hr></gpxtpx:TrackPointExtension></extensions></trkpt>
<trkpt lat="22.3025978" lon="114.2637088">
<ele>3</ele><time>2025-01-30T09:10:52.999Z</time><extensions><gpxtpx:TrackPointExtension><gpxtpx:hr>117</gpxtpx:hr></gpxtpx:TrackPointExtension></extensions></trkpt>
<trkpt lat="22.3026529" lon="114.2637485">
<ele>3</ele><time>2025-01-30T09:10:54.999Z</time><extensions><gpxtpx:TrackPointExtension><gpxtpx:hr>117</gpxtpx:hr></gpxtpx:TrackPointExtension></extensions></trkpt>
<trkpt lat="22.3027192" lon="114.2637810">
<ele>3</ele><time>2025-01-30T09:10:56.999Z</time><extensions><gpxtpx:TrackPointExtension><gpxtpx:hr>115</gpxtpx:hr></gpxtpx:TrackPointExtension></extensions></trkpt>
<trkpt lat="22.3027881" lon="114.2638213">
<ele>2</ele><time>2025-01-30T09:10:58.999Z</time><extensions><gpxtpx:TrackPointExtension><gpxtpx:hr>115</gpxtpx:hr></gpxtpx:TrackPointExtension></extensions></trkpt>
<trkpt lat="22.3028536" lon="114.2638573">
<ele>2</ele><time>2025-01-30T09:11:00.999Z</time><extensions><gpxtpx:TrackPointExtension><gpxtpx:hr>113</gpxtpx:hr></gpxtpx:TrackPointExtension></extensions></trkpt>
<trkpt lat="22.3029096" lon="114.2638856">
<ele>2</ele><time>2025-01-30T09:11:02.999Z</time><extensions><gpxtpx:TrackPointExtension><gpxtpx:hr>113</gpxtpx:hr></gpxtpx:TrackPointExtension></extensions></trkpt>
<trkpt lat="22.3029601" lon="114.2639116">
<ele>2</ele><time>2025-01-30T09:11:04.999Z</time><extensions><gpxtpx:TrackPointExtension><gpxtpx:hr>113</gpxtpx:hr></gpxtpx:TrackPointExtension></extensions></trkpt>
<trkpt lat="22.3030099" lon="114.2639332">
<ele>2</ele><time>2025-01-30T09:11:06.999Z</time><extensions><gpxtpx:TrackPointExtension><gpxtpx:hr>112</gpxtpx:hr></gpxtpx:TrackPointExtension></extensions></trkpt>
<trkpt lat="22.3030554" lon="114.2639621">
<ele>2</ele><time>2025-01-30T09:11:08.999Z</time><extensions><gpxtpx:TrackPointExtension><gpxtpx:hr>112</gpxtpx:hr></gpxtpx:TrackPointExtension></extensions></trkpt>
<trkpt lat="22.3031002" lon="114.2639801">
<ele>2</ele><time>2025-01-30T09:11:10.999Z</time><extensions><gpxtpx:TrackPointExtension><gpxtpx:hr>111</gpxtpx:hr></gpxtpx:TrackPointExtension></extensions></trkpt>
<trkpt lat="22.3031435" lon="114.2640034">
<ele>3</ele><time>2025-01-30T09:11:12.999Z</time><extensions><gpxtpx:TrackPointExtension><gpxtpx:hr>111</gpxtpx:hr></gpxtpx:TrackPointExtension></extensions></trkpt>
<trkpt lat="22.3031897" lon="114.2640354">
<ele>3</ele><time>2025-01-30T09:11:14.999Z</time><extensions><gpxtpx:TrackPointExtension><gpxtpx:hr>111</gpxtpx:hr></gpxtpx:TrackPointExtension></extensions></trkpt>
<trkpt lat="22.3032364" lon="114.2640649">
<ele>3</ele><time>2025-01-30T09:11:16.999Z</time><extensions><gpxtpx:TrackPointExtension><gpxtpx:hr>110</gpxtpx:hr></gpxtpx:TrackPointExtension></extensions></trkpt>
<trkpt lat="22.3032775" lon="114.2640893">
<ele>3</ele><time>2025-01-30T09:11:18.999Z</time><extensions><gpxtpx:TrackPointExtension><gpxtpx:hr>110</gpxtpx:hr></gpxtpx:TrackPointExtension></extensions></trkpt>
<trkpt lat="22.3033205" lon="114.2641111">
<ele>2</ele><time>2025-01-30T09:11:20.999Z</time><extensions><gpxtpx:TrackPointExtension><gpxtpx:hr>108</gpxtpx:hr></gpxtpx:TrackPointExtension></extensions></trkpt>
<trkpt lat="22.3033682" lon="114.2641384">
<ele>2</ele><time>2025-01-30T09:11:22.999Z</time><extensions><gpxtpx:TrackPointExtension><gpxtpx:hr>108</gpxtpx:hr></gpxtpx:TrackPointExtension></extensions></trkpt>
<trkpt lat="22.3034139" lon="114.2641675">
<ele>2</ele><time>2025-01-30T09:11:24.999Z</time><extensions><gpxtpx:TrackPointExtension><gpxtpx:hr>108</gpxtpx:hr></gpxtpx:TrackPointExtension></extensions></trkpt>
<trkpt lat="22.3034622" lon="114.2641877">
<ele>2</ele><time>2025-01-30T09:11:26.999Z</time><extensions><gpxtpx:TrackPointExtension><gpxtpx:hr>106</gpxtpx:hr></gpxtpx:TrackPointExtension></extensions></trkpt>
<trkpt lat="22.3035129" lon="114.2642170">
<ele>2</ele><time>2025-01-30T09:11:28.999Z</time><extensions><gpxtpx:TrackPointExtension><gpxtpx:hr>106</gpxtpx:hr></gpxtpx:TrackPointExtension></extensions></trkpt>
<trkpt lat="22.3035722" lon="114.2642469">
<ele>2</ele><time>2025-01-30T09:11:30.999Z</time><extensions><gpxtpx:TrackPointExtension><gpxtpx:hr>106</gpxtpx:hr></gpxtpx:TrackPointExtension></extensions></trkpt>
<trkpt lat="22.3036265" lon="114.2642803">
<ele>2</ele><time>2025-01-30T09:11:32.999Z</time><extensions><gpxtpx:TrackPointExtension><gpxtpx:hr>106</gpxtpx:hr></gpxtpx:TrackPointExtension></extensions></trkpt>
<trkpt lat="22.3036790" lon="114.2643077">
<ele>2</ele><time>2025-01-30T09:11:34.999Z</time><extensions><gpxtpx:TrackPointExtension><gpxtpx:hr>106</gpxtpx:hr></gpxtpx:TrackPointExtension></extensions></trkpt>
<trkpt lat="22.3037256" lon="114.2643241">
<ele>2</ele><time>2025-01-30T09:11:36.999Z</time><extensions><gpxtpx:TrackPointExtension><gpxtpx:hr>106</gpxtpx:hr></gpxtpx:TrackPointExtension></extensions></trkpt>
<trkpt lat="22.3037790" lon="114.2643596">
<ele>2</ele><time>2025-01-30T09:11:39.999Z</time><extensions><gpxtpx:TrackPointExtension><gpxtpx:hr>106</gpxtpx:hr></gpxtpx:TrackPointExtension></extensions></trkpt>
<trkpt lat="22.3038207" lon="114.2643828">
<ele>2</ele><time>2025-01-30T09:11:41.999Z</time><extensions><gpxtpx:TrackPointExtension><gpxtpx:hr>107</gpxtpx:hr></gpxtpx:TrackPointExtension></extensions></trkpt>
<trkpt lat="22.3038609" lon="114.2644149">
<ele>2</ele><time>2025-01-30T09:11:43.999Z</time><extensions><gpxtpx:TrackPointExtension><gpxtpx:hr>107</gpxtpx:hr></gpxtpx:TrackPointExtension></extensions></trkpt>
<trkpt lat="22.3039005" lon="114.2644423">
<ele>2</ele><time>2025-01-30T09:11:45.999Z</time><extensions><gpxtpx:TrackPointExtension><gpxtpx:hr>106</gpxtpx:hr></gpxtpx:TrackPointExtension></extensions></trkpt>
<trkpt lat="22.3039437" lon="114.2644644">
<ele>2</ele><time>2025-01-30T09:11:47.999Z</time><extensions><gpxtpx:TrackPointExtension><gpxtpx:hr>106</gpxtpx:hr></gpxtpx:TrackPointExtension></extensions></trkpt>
<trkpt lat="22.3040026" lon="114.2644849">
<ele>2</ele><time>2025-01-30T09:11:49.999Z</time><extensions><gpxtpx:TrackPointExtension><gpxtpx:hr>107</gpxtpx:hr></gpxtpx:TrackPointExtension></extensions></trkpt>
<trkpt lat="22.3040620" lon="114.2645157">
<ele>2</ele><time>2025-01-30T09:11:51.999Z</time><extensions><gpxtpx:TrackPointExtension><gpxtpx:hr>107</gpxtpx:hr></gpxtpx:TrackPointExtension></extensions></trkpt>
<trkpt lat="22.3041177" lon="114.2645439">
<ele>2</ele><time>2025-01-30T09:11:53.999Z</time><extensions><gpxtpx:TrackPointExtension><gpxtpx:hr>107</gpxtpx:hr></gpxtpx:TrackPointExtension></extensions></trkpt>
<trkpt lat="22.3041717" lon="114.2645746">
<ele>2</ele><time>2025-01-30T09:11:55.999Z</time><extensions><gpxtpx:TrackPointExtension><gpxtpx:hr>109</gpxtpx:hr></gpxtpx:TrackPointExtension></extensions></trkpt>
<trkpt lat="22.3042334" lon="114.2646055">
<ele>2</ele><time>2025-01-30T09:11:57.999Z</time><extensions><gpxtpx:TrackPointExtension><gpxtpx:hr>109</gpxtpx:hr></gpxtpx:TrackPointExtension></extensions></trkpt>
<trkpt lat="22.3043021" lon="114.2646467">
<ele>2</ele><time>2025-01-30T09:11:59.999Z</time><extensions><gpxtpx:TrackPointExtension><gpxtpx:hr>109</gpxtpx:hr></gpxtpx:TrackPointExtension></extensions></trkpt>
<trkpt lat="22.3043763" lon="114.2646906">
<ele>1</ele><time>2025-01-30T09:12:01.999Z</time><extensions><gpxtpx:TrackPointExtension><gpxtpx:hr>109</gpxtpx:hr></gpxtpx:TrackPointExtension></extensions></trkpt>
<trkpt lat="22.3044558" lon="114.2647347">
<ele>1</ele><time>2025-01-30T09:12:03.999Z</time><extensions><gpxtpx:TrackPointExtension><gpxtpx:hr>109</gpxtpx:hr></gpxtpx:TrackPointExtension></extensions></trkpt>
<trkpt lat="22.3045359" lon="114.2647752">
<ele>1</ele><time>2025-01-30T09:12:05.999Z</time><extensions><gpxtpx:TrackPointExtension><gpxtpx:hr>108</gpxtpx:hr></gpxtpx:TrackPointExtension></extensions></trkpt>
<trkpt lat="22.3045974" lon="114.2648237">
<ele>1</ele><time>2025-01-30T09:12:07.999Z</time><extensions><gpxtpx:TrackPointExtension><gpxtpx:hr>108</gpxtpx:hr></gpxtpx:TrackPointExtension></extensions></trkpt>
<trkpt lat="22.3046666" lon="114.2648697">
<ele>1</ele><time>2025-01-30T09:12:09.999Z</time><extensions><gpxtpx:TrackPointExtension><gpxtpx:hr>104</gpxtpx:hr></gpxtpx:TrackPointExtension></extensions></trkpt>
<trkpt lat="22.3047350" lon="114.2649110">
<ele>1</ele><time>2025-01-30T09:12:11.999Z</time><extensions><gpxtpx:TrackPointExtension><gpxtpx:hr>104</gpxtpx:hr></gpxtpx:TrackPointExtension></extensions></trkpt>
<trkpt lat="22.3047966" lon="114.2649578">
<ele>1</ele><time>2025-01-30T09:12:13.999Z</time><extensions><gpxtpx:TrackPointExtension><gpxtpx:hr>104</gpxtpx:hr></gpxtpx:TrackPointExtension></extensions></trkpt>
<trkpt lat="22.3048574" lon="114.2650011">
<ele>1</ele><time>2025-01-30T09:12:15.999Z</time><extensions><gpxtpx:TrackPointExtension><gpxtpx:hr>103</gpxtpx:hr></gpxtpx:TrackPointExtension></extensions></trkpt>
<trkpt lat="22.3049208" lon="114.2650345">
<ele>1</ele><time>2025-01-30T09:12:17.999Z</time><extensions><gpxtpx:TrackPointExtension><gpxtpx:hr>103</gpxtpx:hr></gpxtpx:TrackPointExtension></extensions></trkpt>
<trkpt lat="22.3049871" lon="114.2650676">
<ele>1</ele><time>2025-01-30T09:12:19.999Z</time><extensions><gpxtpx:TrackPointExtension><gpxtpx:hr>103</gpxtpx:hr></gpxtpx:TrackPointExtension></extensions></trkpt>
<trkpt lat="22.3050534" lon="114.2651050">
<ele>1</ele><time>2025-01-30T09:12:21.999Z</time><extensions><gpxtpx:TrackPointExtension><gpxtpx:hr>103</gpxtpx:hr></gpxtpx:TrackPointExtension></extensions></trkpt>
<trkpt lat="22.3051065" lon="114.2651415">
<ele>1</ele><time>2025-01-30T09:12:23.999Z</time><extensions><gpxtpx:TrackPointExtension><gpxtpx:hr>103</gpxtpx:hr></gpxtpx:TrackPointExtension></extensions></trkpt>
<trkpt lat="22.3051676" lon="114.2651917">
<ele>1</ele><time>2025-01-30T09:12:25.999Z</time><extensions><gpxtpx:TrackPointExtension><gpxtpx:hr>104</gpxtpx:hr></gpxtpx:TrackPointExtension></extensions></trkpt>
<trkpt lat="22.3052228" lon="114.2652251">
<ele>2</ele><time>2025-01-30T09:12:27.999Z</time><extensions><gpxtpx:TrackPointExtension><gpxtpx:hr>104</gpxtpx:hr></gpxtpx:TrackPointExtension></extensions></trkpt>
<trkpt lat="22.3052760" lon="114.2652349">
<ele>2</ele><time>2025-01-30T09:12:28.999Z</time><extensions><gpxtpx:TrackPointExtension><gpxtpx:hr>104</gpxtpx:hr></gpxtpx:TrackPointExtension></extensions></trkpt>
<trkpt lat="22.3053624" lon="114.2652423">
<ele>2</ele><time>2025-01-30T09:12:30.999Z</time><extensions><gpxtpx:TrackPointExtension><gpxtpx:hr>107</gpxtpx:hr></gpxtpx:TrackPointExtension></extensions></trkpt>
<trkpt lat="22.3054484" lon="114.2652407">
<ele>2</ele><time>2025-01-30T09:12:32.999Z</time><extensions><gpxtpx:TrackPointExtension><gpxtpx:hr>107</gpxtpx:hr></gpxtpx:TrackPointExtension></extensions></trkpt>
<trkpt lat="22.3055287" lon="114.2652324">
<ele>2</ele><time>2025-01-30T09:12:34.999Z</time><extensions><gpxtpx:TrackPointExtension><gpxtpx:hr>107</gpxtpx:hr></gpxtpx:TrackPointExtension></extensions></trkpt>
<trkpt lat="22.3056075" lon="114.2652324">
<ele>2</ele><time>2025-01-30T09:12:36.999Z</time><extensions><gpxtpx:TrackPointExtension><gpxtpx:hr>110</gpxtpx:hr></gpxtpx:TrackPointExtension></extensions></trkpt>
<trkpt lat="22.3056811" lon="114.2652263">
<ele>2</ele><time>2025-01-30T09:12:38.999Z</time><extensions><gpxtpx:TrackPointExtension><gpxtpx:hr>110</gpxtpx:hr></gpxtpx:TrackPointExtension></extensions></trkpt>
<trkpt lat="22.3057627" lon="114.2652081">
<ele>2</ele><time>2025-01-30T09:12:40.999Z</time><extensions><gpxtpx:TrackPointExtension><gpxtpx:hr>109</gpxtpx:hr></gpxtpx:TrackPointExtension></extensions></trkpt>
<trkpt lat="22.3058426" lon="114.2651784">
<ele>2</ele><time>2025-01-30T09:12:42.999Z</time><extensions><gpxtpx:TrackPointExtension><gpxtpx:hr>109</gpxtpx:hr></gpxtpx:TrackPointExtension></extensions></trkpt>
<trkpt lat="22.3059242" lon="114.2651500">
<ele>2</ele><time>2025-01-30T09:12:44.999Z</time><extensions><gpxtpx:TrackPointExtension><gpxtpx:hr>109</gpxtpx:hr></gpxtpx:TrackPointExtension></extensions></trkpt>
<trkpt lat="22.3060037" lon="114.2651253">
<ele>2</ele><time>2025-01-30T09:12:46.999Z</time><extensions><gpxtpx:TrackPointExtension><gpxtpx:hr>112</gpxtpx:hr></gpxtpx:TrackPointExtension></extensions></trkpt>
<trkpt lat="22.3060697" lon="114.2651020">
<ele>1</ele><time>2025-01-30T09:12:48.999Z</time><extensions><gpxtpx:TrackPointExtension><gpxtpx:hr>112</gpxtpx:hr></gpxtpx:TrackPointExtension></extensions></trkpt>
<trkpt lat="22.3061232" lon="114.2650845">
<ele>1</ele><time>2025-01-30T09:12:50.999Z</time><extensions><gpxtpx:TrackPointExtension><gpxtpx:hr>112</gpxtpx:hr></gpxtpx:TrackPointExtension></extensions></trkpt>
<trkpt lat="22.3061718" lon="114.2650739">
<ele>1</ele><time>2025-01-30T09:12:52.999Z</time><extensions><gpxtpx:TrackPointExtension><gpxtpx:hr>112</gpxtpx:hr></gpxtpx:TrackPointExtension></extensions></trkpt>
<trkpt lat="22.3062318" lon="114.2650532">
<ele>1</ele><time>2025-01-30T09:12:55.999Z</time><extensions><gpxtpx:TrackPointExtension><gpxtpx:hr>117</gpxtpx:hr></gpxtpx:TrackPointExtension></extensions></trkpt>
<trkpt lat="22.3062875" lon="114.2650337">
<ele>1</ele><time>2025-01-30T09:12:58.999Z</time><extensions><gpxtpx:TrackPointExtension><gpxtpx:hr>117</gpxtpx:hr></gpxtpx:TrackPointExtension></extensions></trkpt>
<trkpt lat="22.3063350" lon="114.2650161">
<ele>1</ele><time>2025-01-30T09:13:00.999Z</time><extensions><gpxtpx:TrackPointExtension><gpxtpx:hr>114</gpxtpx:hr></gpxtpx:TrackPointExtension></extensions></trkpt>
<trkpt lat="22.3063763" lon="114.2649916">
<ele>1</ele><time>2025-01-30T09:13:02.999Z</time><extensions><gpxtpx:TrackPointExtension><gpxtpx:hr>114</gpxtpx:hr></gpxtpx:TrackPointExtension></extensions></trkpt>
<trkpt lat="22.3063935" lon="114.2649437">
<ele>1</ele><time>2025-01-30T09:13:04.999Z</time><extensions><gpxtpx:TrackPointExtension><gpxtpx:hr>114</gpxtpx:hr></gpxtpx:TrackPointExtension></extensions></trkpt>
<trkpt lat="22.3063703" lon="114.2648906">
<ele>1</ele><time>2025-01-30T09:13:06.999Z</time><extensions><gpxtpx:TrackPointExtension><gpxtpx:hr>114</gpxtpx:hr></gpxtpx:TrackPointExtension></extensions></trkpt>
<trkpt lat="22.3063289" lon="114.2648602">
<ele>1</ele><time>2025-01-30T09:13:08.999Z</time><extensions><gpxtpx:TrackPointExtension><gpxtpx:hr>114</gpxtpx:hr></gpxtpx:TrackPointExtension></extensions></trkpt>
<trkpt lat="22.3063356" lon="114.2648050">
<ele>1</ele><time>2025-01-30T09:13:10.999Z</time><extensions><gpxtpx:TrackPointExtension><gpxtpx:hr>115</gpxtpx:hr></gpxtpx:TrackPointExtension></extensions></trkpt>
<trkpt lat="22.3063519" lon="114.2647410">
<ele>1</ele><time>2025-01-30T09:13:13.999Z</time><extensions><gpxtpx:TrackPointExtension><gpxtpx:hr>115</gpxtpx:hr></gpxtpx:TrackPointExtension></extensions></trkpt>
<trkpt lat="22.3063509" lon="114.2646836">
<ele>1</ele><time>2025-01-30T09:13:15.999Z</time><extensions><gpxtpx:TrackPointExtension><gpxtpx:hr>115</gpxtpx:hr></gpxtpx:TrackPointExtension></extensions></trkpt>
<trkpt lat="22.3063522" lon="114.2646259">
<ele>1</ele><time>2025-01-30T09:13:17.999Z</time><extensions><gpxtpx:TrackPointExtension><gpxtpx:hr>115</gpxtpx:hr></gpxtpx:TrackPointExtension></extensions></trkpt>
<trkpt lat="22.3063483" lon="114.2645685">
<ele>1</ele><time>2025-01-30T09:13:19.999Z</time><extensions><gpxtpx:TrackPointExtension><gpxtpx:hr>115</gpxtpx:hr></gpxtpx:TrackPointExtension></extensions></trkpt>
<trkpt lat="22.3063370" lon="114.2645106">
<ele>1</ele><time>2025-01-30T09:13:21.999Z</time><extensions><gpxtpx:TrackPointExtension><gpxtpx:hr>119</gpxtpx:hr></gpxtpx:TrackPointExtension></extensions></trkpt>
<trkpt lat="22.3063351" lon="114.2644579">
<ele>1</ele><time>2025-01-30T09:13:23.999Z</time><extensions><gpxtpx:TrackPointExtension><gpxtpx:hr>119</gpxtpx:hr></gpxtpx:TrackPointExtension></extensions></trkpt>
<trkpt lat="22.3063217" lon="114.2643785">
<ele>1</ele><time>2025-01-30T09:13:28.999Z</time><extensions><gpxtpx:TrackPointExtension><gpxtpx:hr>116</gpxtpx:hr></gpxtpx:TrackPointExtension></extensions></trkpt>
<trkpt lat="22.3062820" lon="114.2643361">
<ele>1</ele><time>2025-01-30T09:13:30.999Z</time><extensions><gpxtpx:TrackPointExtension><gpxtpx:hr>118</gpxtpx:hr></gpxtpx:TrackPointExtension></extensions></trkpt>
<trkpt lat="22.3062776" lon="114.2642721">
<ele>1</ele><time>2025-01-30T09:13:34.999Z</time><extensions><gpxtpx:TrackPointExtension><gpxtpx:hr>118</gpxtpx:hr></gpxtpx:TrackPointExtension></extensions></trkpt>
<trkpt lat="22.3062920" lon="114.2642255">
<ele>1</ele><time>2025-01-30T09:13:42.999Z</time><extensions><gpxtpx:TrackPointExtension><gpxtpx:hr>114</gpxtpx:hr></gpxtpx:TrackPointExtension></extensions></trkpt>
<trkpt lat="22.3063341" lon="114.2642630">
<ele>1</ele><time>2025-01-30T09:14:04.999Z</time><extensions><gpxtpx:TrackPointExtension><gpxtpx:hr>108</gpxtpx:hr></gpxtpx:TrackPointExtension></extensions></trkpt>
<trkpt lat="22.3062982" lon="114.2642959">
<ele>1</ele><time>2025-01-30T09:14:31.999Z</time><extensions><gpxtpx:TrackPointExtension><gpxtpx:hr>104</gpxtpx:hr></gpxtpx:TrackPointExtension></extensions></trkpt>
<trkpt lat="22.3062997" lon="114.2643611">
<ele>1</ele><time>2025-01-30T09:14:38.000Z</time><extensions><gpxtpx:TrackPointExtension><gpxtpx:hr>104</gpxtpx:hr></gpxtpx:TrackPointExtension></extensions></trkpt>
<trkpt lat="22.3062972" lon="114.2642680">
<ele>1</ele><time>2025-01-30T09:14:58.999Z</time><extensions><gpxtpx:TrackPointExtension><gpxtpx:hr>100</gpxtpx:hr></gpxtpx:TrackPointExtension></extensions></trkpt>
<trkpt lat="22.3062990" lon="114.2643208">
<ele>1</ele><time>2025-01-30T09:15:25.000Z</time><extensions><gpxtpx:TrackPointExtension><gpxtpx:hr>96</gpxtpx:hr></gpxtpx:TrackPointExtension></extensions></trkpt>
<trkpt lat="22.3062973" lon="114.2642684">
<ele>1</ele><time>2025-01-30T09:15:41.000Z</time><extensions><gpxtpx:TrackPointExtension><gpxtpx:hr>91</gpxtpx:hr></gpxtpx:TrackPointExtension></extensions></trkpt>
<trkpt lat="22.3062914" lon="114.2642126">
<ele>1</ele><time>2025-01-30T09:17:06.000Z</time><extensions><gpxtpx:TrackPointExtension><gpxtpx:hr>89</gpxtpx:hr></gpxtpx:TrackPointExtension></extensions></trkpt>
<trkpt lat="22.3062856" lon="114.2641524">
<ele>1</ele><time>2025-01-30T09:17:55.000Z</time><extensions><gpxtpx:TrackPointExtension><gpxtpx:hr>93</gpxtpx:hr></gpxtpx:TrackPointExtension></extensions></trkpt>
<trkpt lat="22.3062856" lon="114.2640923">
<ele>1</ele><time>2025-01-30T09:18:00.000Z</time><extensions><gpxtpx:TrackPointExtension><gpxtpx:hr>93</gpxtpx:hr></gpxtpx:TrackPointExtension></extensions></trkpt>
<trkpt lat="22.3062856" lon="114.2640374">
<ele>1</ele><time>2025-01-30T09:18:04.000Z</time><extensions><gpxtpx:TrackPointExtension><gpxtpx:hr>94</gpxtpx:hr></gpxtpx:TrackPointExtension></extensions></trkpt>
<trkpt lat="22.3062883" lon="114.2639593">
<ele>1</ele><time>2025-01-30T09:18:07.000Z</time><extensions><gpxtpx:TrackPointExtension><gpxtpx:hr>96</gpxtpx:hr></gpxtpx:TrackPointExtension></extensions></trkpt>
<trkpt lat="22.3062737" lon="114.2639120">
<ele>1</ele><time>2025-01-30T09:18:13.000Z</time><extensions><gpxtpx:TrackPointExtension><gpxtpx:hr>98</gpxtpx:hr></gpxtpx:TrackPointExtension></extensions></trkpt>
<trkpt lat="22.3061791" lon="114.2638852">
<ele>1</ele><time>2025-01-30T09:18:14.000Z</time><extensions><gpxtpx:TrackPointExtension><gpxtpx:hr>98</gpxtpx:hr></gpxtpx:TrackPointExtension></extensions></trkpt>
<trkpt lat="22.3061402" lon="114.2639240">
<ele>1</ele><time>2025-01-30T09:18:22.000Z</time><extensions><gpxtpx:TrackPointExtension><gpxtpx:hr>103</gpxtpx:hr></gpxtpx:TrackPointExtension></extensions></trkpt>
<trkpt lat="22.3061038" lon="114.2639566">
<ele>1</ele><time>2025-01-30T09:18:27.000Z</time><extensions><gpxtpx:TrackPointExtension><gpxtpx:hr>105</gpxtpx:hr></gpxtpx:TrackPointExtension></extensions></trkpt>
<trkpt lat="22.3061806" lon="114.2639769">
<ele>1</ele><time>2025-01-30T09:18:30.000Z</time><extensions><gpxtpx:TrackPointExtension><gpxtpx:hr>105</gpxtpx:hr></gpxtpx:TrackPointExtension></extensions></trkpt>
<trkpt lat="22.3061493" lon="114.2639338">
<ele>1</ele><time>2025-01-30T09:18:34.000Z</time><extensions><gpxtpx:TrackPointExtension><gpxtpx:hr>100</gpxtpx:hr></gpxtpx:TrackPointExtension></extensions></trkpt>
<trkpt lat="22.3061034" lon="114.2639398">
<ele>1</ele><time>2025-01-30T09:18:37.089Z</time><extensions><gpxtpx:TrackPointExtension><gpxtpx:hr>94</gpxtpx:hr></gpxtpx:TrackPointExtension></extensions></trkpt>
<trkpt lat="22.3060517" lon="114.2639418">
<ele>1</ele><time>2025-01-30T09:18:40.050Z</time><extensions><gpxtpx:TrackPointExtension><gpxtpx:hr>94</gpxtpx:hr></gpxtpx:TrackPointExtension></extensions></trkpt>
</trkseg></trk>
</gpx>
